<?xml version="1.0" encoding="UTF-8" standalone="no" ?>
<gpx xmlns="http://www.topografix.com/GPX/1/1" xmlns:xsi="http://www.w3.org/2001/XMLSchema-instance" xsi:schemaLocation="http://www.topografix.com/GPX/1/1 http://www.topografix.com/GPX/1/1/gpx.xsd" version="1.1" creator="VisuGPX - https://www.visugpx.com">
  <metadata>
    <name>O-O-Course Nature</name>
    <desc><![CDATA[O-O-Course Nature]]></desc>
  </metadata>
  <trk>
    <name><![CDATA[2019-05-12 08:57]]></name>
    <desc><![CDATA[<p>Heure de départ: 05/12/2019 08:58</p><p>Heure d'arrivée: 05/12/2019 10:26</p><p>Distance: 17,6 km (01:27)</p><p>Temps déplacement: 01:11</p><p>Vitesse moyenne: 12,12 km/h</p><p>Vitesse moyenne mouv.: 14,77 km/h</p><p>Vitesse Max.: 33,47km/h</p><p>Altitude minimale: -4 m</p><p>Altitude maximale: 46 m</p><p>Vitesse de montée: 370,2 m/h</p><p>Vitesse de descente: -684 m/h</p><p>Gain d'altitude: 237 m</p><p>Perte d'altitude: -284 m</p><p>Temps de montée: 00:38</p><p>Temps de descente: 00:24</p><hr align="center" width="480" style="height: 2px; width: 517px"/>]]></desc>
    <trkseg>
      <trkpt lat="47.18974" lon="-1.65675">
        <ele>46.24</ele>
        <time>2019-05-12T06:58:55Z</time>
      </trkpt>
      <trkpt lat="47.18974" lon="-1.65694">
        <ele>5.99</ele>
        <time>2019-05-12T06:59:38Z</time>
      </trkpt>
      <trkpt lat="47.18965" lon="-1.65683">
        <ele>8</ele>
        <time>2019-05-12T07:01:07Z</time>
      </trkpt>
      <trkpt lat="47.18954" lon="-1.65681">
        <ele>7.5</ele>
        <time>2019-05-12T07:01:10Z</time>
      </trkpt>
      <trkpt lat="47.18941" lon="-1.65677">
        <ele>7.63</ele>
        <time>2019-05-12T07:01:13Z</time>
      </trkpt>
      <trkpt lat="47.18929" lon="-1.65672">
        <ele>8.2</ele>
        <time>2019-05-12T07:01:16Z</time>
      </trkpt>
      <trkpt lat="47.18917" lon="-1.65667">
        <ele>8.33</ele>
        <time>2019-05-12T07:01:18Z</time>
      </trkpt>
      <trkpt lat="47.18906" lon="-1.65662">
        <ele>7.63</ele>
        <time>2019-05-12T07:01:20Z</time>
      </trkpt>
      <trkpt lat="47.18893" lon="-1.65657">
        <ele>7.22</ele>
        <time>2019-05-12T07:01:22Z</time>
      </trkpt>
      <trkpt lat="47.1888" lon="-1.65651">
        <ele>6.55</ele>
        <time>2019-05-12T07:01:24Z</time>
      </trkpt>
      <trkpt lat="47.18867" lon="-1.65645">
        <ele>5.16</ele>
        <time>2019-05-12T07:01:26Z</time>
      </trkpt>
      <trkpt lat="47.18854" lon="-1.6564">
        <ele>4.37</ele>
        <time>2019-05-12T07:01:28Z</time>
      </trkpt>
      <trkpt lat="47.18843" lon="-1.65636">
        <ele>3.79</ele>
        <time>2019-05-12T07:01:30Z</time>
      </trkpt>
      <trkpt lat="47.1883" lon="-1.65633">
        <ele>4.59</ele>
        <time>2019-05-12T07:01:32Z</time>
      </trkpt>
      <trkpt lat="47.1882" lon="-1.65628">
        <ele>5.09</ele>
        <time>2019-05-12T07:01:34Z</time>
      </trkpt>
      <trkpt lat="47.18807" lon="-1.65622">
        <ele>4.99</ele>
        <time>2019-05-12T07:01:36Z</time>
      </trkpt>
      <trkpt lat="47.18792" lon="-1.65616">
        <ele>4.83</ele>
        <time>2019-05-12T07:01:38Z</time>
      </trkpt>
      <trkpt lat="47.18777" lon="-1.65609">
        <ele>3.48</ele>
        <time>2019-05-12T07:01:40Z</time>
      </trkpt>
      <trkpt lat="47.18764" lon="-1.65606">
        <ele>3.71</ele>
        <time>2019-05-12T07:01:43Z</time>
      </trkpt>
      <trkpt lat="47.18752" lon="-1.65601">
        <ele>3.79</ele>
        <time>2019-05-12T07:01:45Z</time>
      </trkpt>
      <trkpt lat="47.18737" lon="-1.65596">
        <ele>3.04</ele>
        <time>2019-05-12T07:01:47Z</time>
      </trkpt>
      <trkpt lat="47.18726" lon="-1.65593">
        <ele>2.17</ele>
        <time>2019-05-12T07:01:49Z</time>
      </trkpt>
      <trkpt lat="47.18713" lon="-1.65589">
        <ele>0.25</ele>
        <time>2019-05-12T07:01:51Z</time>
      </trkpt>
      <trkpt lat="47.187" lon="-1.65584">
        <ele>-0.17</ele>
        <time>2019-05-12T07:01:53Z</time>
      </trkpt>
      <trkpt lat="47.18687" lon="-1.65579">
        <ele>-0.07</ele>
        <time>2019-05-12T07:01:55Z</time>
      </trkpt>
      <trkpt lat="47.18672" lon="-1.65574">
        <ele>0.13</ele>
        <time>2019-05-12T07:01:57Z</time>
      </trkpt>
      <trkpt lat="47.18658" lon="-1.65569">
        <ele>0.53</ele>
        <time>2019-05-12T07:01:59Z</time>
      </trkpt>
      <trkpt lat="47.18647" lon="-1.65565">
        <ele>0.89</ele>
        <time>2019-05-12T07:02:01Z</time>
      </trkpt>
      <trkpt lat="47.18636" lon="-1.65561">
        <ele>1.34</ele>
        <time>2019-05-12T07:02:03Z</time>
      </trkpt>
      <trkpt lat="47.18625" lon="-1.65557">
        <ele>2.35</ele>
        <time>2019-05-12T07:02:05Z</time>
      </trkpt>
      <trkpt lat="47.18613" lon="-1.65552">
        <ele>2.63</ele>
        <time>2019-05-12T07:02:07Z</time>
      </trkpt>
      <trkpt lat="47.18598" lon="-1.65547">
        <ele>2.85</ele>
        <time>2019-05-12T07:02:09Z</time>
      </trkpt>
      <trkpt lat="47.18584" lon="-1.65544">
        <ele>4.19</ele>
        <time>2019-05-12T07:02:11Z</time>
      </trkpt>
      <trkpt lat="47.1857" lon="-1.65539">
        <ele>5.03</ele>
        <time>2019-05-12T07:02:13Z</time>
      </trkpt>
      <trkpt lat="47.18558" lon="-1.65528">
        <ele>5.48</ele>
        <time>2019-05-12T07:02:15Z</time>
      </trkpt>
      <trkpt lat="47.18548" lon="-1.65516">
        <ele>4.81</ele>
        <time>2019-05-12T07:02:17Z</time>
      </trkpt>
      <trkpt lat="47.18538" lon="-1.65503">
        <ele>3.48</ele>
        <time>2019-05-12T07:02:19Z</time>
      </trkpt>
      <trkpt lat="47.18528" lon="-1.65489">
        <ele>2.23</ele>
        <time>2019-05-12T07:02:21Z</time>
      </trkpt>
      <trkpt lat="47.18519" lon="-1.65477">
        <ele>3.71</ele>
        <time>2019-05-12T07:02:23Z</time>
      </trkpt>
      <trkpt lat="47.1851" lon="-1.65467">
        <ele>4.79</ele>
        <time>2019-05-12T07:02:26Z</time>
      </trkpt>
      <trkpt lat="47.18502" lon="-1.65462">
        <ele>4.54</ele>
        <time>2019-05-12T07:02:28Z</time>
      </trkpt>
      <trkpt lat="47.18491" lon="-1.65457">
        <ele>3.32</ele>
        <time>2019-05-12T07:02:30Z</time>
      </trkpt>
      <trkpt lat="47.18483" lon="-1.65448">
        <ele>4.23</ele>
        <time>2019-05-12T07:02:32Z</time>
      </trkpt>
      <trkpt lat="47.18478" lon="-1.65436">
        <ele>6.21</ele>
        <time>2019-05-12T07:02:34Z</time>
      </trkpt>
      <trkpt lat="47.18473" lon="-1.65423">
        <ele>6.38</ele>
        <time>2019-05-12T07:02:36Z</time>
      </trkpt>
      <trkpt lat="47.1847" lon="-1.65411">
        <ele>6.46</ele>
        <time>2019-05-12T07:02:38Z</time>
      </trkpt>
      <trkpt lat="47.18464" lon="-1.65398">
        <ele>6.38</ele>
        <time>2019-05-12T07:02:41Z</time>
      </trkpt>
      <trkpt lat="47.18461" lon="-1.65383">
        <ele>6.45</ele>
        <time>2019-05-12T07:02:44Z</time>
      </trkpt>
      <trkpt lat="47.18458" lon="-1.6537">
        <ele>6.36</ele>
        <time>2019-05-12T07:02:47Z</time>
      </trkpt>
      <trkpt lat="47.18456" lon="-1.65354">
        <ele>6.49</ele>
        <time>2019-05-12T07:02:50Z</time>
      </trkpt>
      <trkpt lat="47.18453" lon="-1.65338">
        <ele>6.82</ele>
        <time>2019-05-12T07:02:53Z</time>
      </trkpt>
      <trkpt lat="47.18453" lon="-1.65324">
        <ele>7.01</ele>
        <time>2019-05-12T07:02:56Z</time>
      </trkpt>
      <trkpt lat="47.18453" lon="-1.65308">
        <ele>7.1</ele>
        <time>2019-05-12T07:03:00Z</time>
      </trkpt>
      <trkpt lat="47.18453" lon="-1.65292">
        <ele>7.16</ele>
        <time>2019-05-12T07:03:04Z</time>
      </trkpt>
      <trkpt lat="47.18453" lon="-1.65279">
        <ele>7</ele>
        <time>2019-05-12T07:03:08Z</time>
      </trkpt>
      <trkpt lat="47.18451" lon="-1.65266">
        <ele>6.92</ele>
        <time>2019-05-12T07:03:12Z</time>
      </trkpt>
      <trkpt lat="47.18449" lon="-1.65252">
        <ele>6.99</ele>
        <time>2019-05-12T07:03:17Z</time>
      </trkpt>
      <trkpt lat="47.18443" lon="-1.65239">
        <ele>6.98</ele>
        <time>2019-05-12T07:03:22Z</time>
      </trkpt>
      <trkpt lat="47.18438" lon="-1.65228">
        <ele>6.93</ele>
        <time>2019-05-12T07:03:25Z</time>
      </trkpt>
      <trkpt lat="47.18432" lon="-1.65217">
        <ele>7.15</ele>
        <time>2019-05-12T07:03:28Z</time>
      </trkpt>
      <trkpt lat="47.18428" lon="-1.65201">
        <ele>7.42</ele>
        <time>2019-05-12T07:03:32Z</time>
      </trkpt>
      <trkpt lat="47.18426" lon="-1.65187">
        <ele>7.47</ele>
        <time>2019-05-12T07:03:36Z</time>
      </trkpt>
      <trkpt lat="47.18424" lon="-1.65174">
        <ele>7.33</ele>
        <time>2019-05-12T07:03:40Z</time>
      </trkpt>
      <trkpt lat="47.1842" lon="-1.65158">
        <ele>7.19</ele>
        <time>2019-05-12T07:03:44Z</time>
      </trkpt>
      <trkpt lat="47.18417" lon="-1.65142">
        <ele>7.08</ele>
        <time>2019-05-12T07:03:47Z</time>
      </trkpt>
      <trkpt lat="47.18413" lon="-1.65128">
        <ele>6.77</ele>
        <time>2019-05-12T07:03:50Z</time>
      </trkpt>
      <trkpt lat="47.1841" lon="-1.65115">
        <ele>6.48</ele>
        <time>2019-05-12T07:03:53Z</time>
      </trkpt>
      <trkpt lat="47.18402" lon="-1.65101">
        <ele>6.22</ele>
        <time>2019-05-12T07:03:56Z</time>
      </trkpt>
      <trkpt lat="47.18394" lon="-1.65092">
        <ele>6.13</ele>
        <time>2019-05-12T07:03:59Z</time>
      </trkpt>
      <trkpt lat="47.18385" lon="-1.65083">
        <ele>6.21</ele>
        <time>2019-05-12T07:04:03Z</time>
      </trkpt>
      <trkpt lat="47.18375" lon="-1.6508">
        <ele>6.34</ele>
        <time>2019-05-12T07:04:08Z</time>
      </trkpt>
      <trkpt lat="47.18371" lon="-1.65067">
        <ele>6.54</ele>
        <time>2019-05-12T07:04:21Z</time>
      </trkpt>
      <trkpt lat="47.1838" lon="-1.65068">
        <ele>7.1</ele>
        <time>2019-05-12T07:05:13Z</time>
      </trkpt>
      <trkpt lat="47.18371" lon="-1.65065">
        <ele>7.36</ele>
        <time>2019-05-12T07:05:58Z</time>
      </trkpt>
      <trkpt lat="47.18366" lon="-1.65053">
        <ele>7.59</ele>
        <time>2019-05-12T07:06:12Z</time>
      </trkpt>
      <trkpt lat="47.18365" lon="-1.65037">
        <ele>7.87</ele>
        <time>2019-05-12T07:06:15Z</time>
      </trkpt>
      <trkpt lat="47.18371" lon="-1.65018">
        <ele>8.29</ele>
        <time>2019-05-12T07:06:18Z</time>
      </trkpt>
      <trkpt lat="47.18376" lon="-1.65003">
        <ele>7.89</ele>
        <time>2019-05-12T07:06:20Z</time>
      </trkpt>
      <trkpt lat="47.18382" lon="-1.64989">
        <ele>7.33</ele>
        <time>2019-05-12T07:06:22Z</time>
      </trkpt>
      <trkpt lat="47.18389" lon="-1.64974">
        <ele>4.97</ele>
        <time>2019-05-12T07:06:24Z</time>
      </trkpt>
      <trkpt lat="47.18394" lon="-1.64959">
        <ele>3.26</ele>
        <time>2019-05-12T07:06:26Z</time>
      </trkpt>
      <trkpt lat="47.18399" lon="-1.64948">
        <ele>2.26</ele>
        <time>2019-05-12T07:06:28Z</time>
      </trkpt>
      <trkpt lat="47.18402" lon="-1.64929">
        <ele>1.45</ele>
        <time>2019-05-12T07:06:30Z</time>
      </trkpt>
      <trkpt lat="47.18405" lon="-1.64911">
        <ele>-0.34</ele>
        <time>2019-05-12T07:06:32Z</time>
      </trkpt>
      <trkpt lat="47.1841" lon="-1.64895">
        <ele>-1.49</ele>
        <time>2019-05-12T07:06:34Z</time>
      </trkpt>
      <trkpt lat="47.18413" lon="-1.6488">
        <ele>-2.82</ele>
        <time>2019-05-12T07:06:36Z</time>
      </trkpt>
      <trkpt lat="47.18416" lon="-1.64864">
        <ele>-3.66</ele>
        <time>2019-05-12T07:06:38Z</time>
      </trkpt>
      <trkpt lat="47.18417" lon="-1.64844">
        <ele>-4.3</ele>
        <time>2019-05-12T07:06:41Z</time>
      </trkpt>
      <trkpt lat="47.18413" lon="-1.64832">
        <ele>-3.45</ele>
        <time>2019-05-12T07:06:43Z</time>
      </trkpt>
      <trkpt lat="47.18406" lon="-1.64816">
        <ele>-3.22</ele>
        <time>2019-05-12T07:06:46Z</time>
      </trkpt>
      <trkpt lat="47.18401" lon="-1.64804">
        <ele>-3.01</ele>
        <time>2019-05-12T07:06:48Z</time>
      </trkpt>
      <trkpt lat="47.18394" lon="-1.64792">
        <ele>-1.54</ele>
        <time>2019-05-12T07:06:51Z</time>
      </trkpt>
      <trkpt lat="47.18385" lon="-1.6478">
        <ele>2.71</ele>
        <time>2019-05-12T07:06:54Z</time>
      </trkpt>
      <trkpt lat="47.18378" lon="-1.6476">
        <ele>4.46</ele>
        <time>2019-05-12T07:06:56Z</time>
      </trkpt>
      <trkpt lat="47.18371" lon="-1.64741">
        <ele>4.8</ele>
        <time>2019-05-12T07:06:58Z</time>
      </trkpt>
      <trkpt lat="47.18363" lon="-1.64726">
        <ele>5.59</ele>
        <time>2019-05-12T07:07:00Z</time>
      </trkpt>
      <trkpt lat="47.18355" lon="-1.64718">
        <ele>5.83</ele>
        <time>2019-05-12T07:07:01Z</time>
      </trkpt>
      <trkpt lat="47.18347" lon="-1.64709">
        <ele>6.45</ele>
        <time>2019-05-12T07:07:03Z</time>
      </trkpt>
      <trkpt lat="47.18338" lon="-1.64702">
        <ele>7.04</ele>
        <time>2019-05-12T07:07:05Z</time>
      </trkpt>
      <trkpt lat="47.18328" lon="-1.64702">
        <ele>7.22</ele>
        <time>2019-05-12T07:07:08Z</time>
      </trkpt>
      <trkpt lat="47.18322" lon="-1.64692">
        <ele>8.3</ele>
        <time>2019-05-12T07:07:16Z</time>
      </trkpt>
      <trkpt lat="47.18313" lon="-1.64689">
        <ele>12.55</ele>
        <time>2019-05-12T07:07:49Z</time>
      </trkpt>
      <trkpt lat="47.18304" lon="-1.64689">
        <ele>17.91</ele>
        <time>2019-05-12T07:08:07Z</time>
      </trkpt>
      <trkpt lat="47.18295" lon="-1.64686">
        <ele>21.01</ele>
        <time>2019-05-12T07:08:23Z</time>
      </trkpt>
      <trkpt lat="47.18285" lon="-1.64685">
        <ele>24.51</ele>
        <time>2019-05-12T07:08:33Z</time>
      </trkpt>
      <trkpt lat="47.18276" lon="-1.64684">
        <ele>27.35</ele>
        <time>2019-05-12T07:08:50Z</time>
      </trkpt>
      <trkpt lat="47.18278" lon="-1.64672">
        <ele>26.9</ele>
        <time>2019-05-12T07:09:11Z</time>
      </trkpt>
      <trkpt lat="47.1828" lon="-1.64685">
        <ele>27.92</ele>
        <time>2019-05-12T07:09:48Z</time>
      </trkpt>
      <trkpt lat="47.18289" lon="-1.64683">
        <ele>28.42</ele>
        <time>2019-05-12T07:10:12Z</time>
      </trkpt>
      <trkpt lat="47.18297" lon="-1.64678">
        <ele>26.59</ele>
        <time>2019-05-12T07:11:36Z</time>
      </trkpt>
      <trkpt lat="47.18289" lon="-1.64685">
        <ele>27.06</ele>
        <time>2019-05-12T07:12:18Z</time>
      </trkpt>
      <trkpt lat="47.1828" lon="-1.64688">
        <ele>28.06</ele>
        <time>2019-05-12T07:12:25Z</time>
      </trkpt>
      <trkpt lat="47.18271" lon="-1.64682">
        <ele>29.63</ele>
        <time>2019-05-12T07:12:41Z</time>
      </trkpt>
      <trkpt lat="47.18274" lon="-1.6467">
        <ele>30.79</ele>
        <time>2019-05-12T07:13:04Z</time>
      </trkpt>
      <trkpt lat="47.18275" lon="-1.64655">
        <ele>30.59</ele>
        <time>2019-05-12T07:13:09Z</time>
      </trkpt>
      <trkpt lat="47.18272" lon="-1.64643">
        <ele>30.65</ele>
        <time>2019-05-12T07:13:12Z</time>
      </trkpt>
      <trkpt lat="47.18266" lon="-1.6463">
        <ele>30.75</ele>
        <time>2019-05-12T07:13:15Z</time>
      </trkpt>
      <trkpt lat="47.18258" lon="-1.64618">
        <ele>30.79</ele>
        <time>2019-05-12T07:13:19Z</time>
      </trkpt>
      <trkpt lat="47.18256" lon="-1.646">
        <ele>32.29</ele>
        <time>2019-05-12T07:13:44Z</time>
      </trkpt>
      <trkpt lat="47.18255" lon="-1.64586">
        <ele>32.25</ele>
        <time>2019-05-12T07:13:46Z</time>
      </trkpt>
      <trkpt lat="47.18254" lon="-1.64569">
        <ele>32.07</ele>
        <time>2019-05-12T07:13:48Z</time>
      </trkpt>
      <trkpt lat="47.18254" lon="-1.64549">
        <ele>31.35</ele>
        <time>2019-05-12T07:13:51Z</time>
      </trkpt>
      <trkpt lat="47.18252" lon="-1.64535">
        <ele>31.06</ele>
        <time>2019-05-12T07:13:54Z</time>
      </trkpt>
      <trkpt lat="47.18245" lon="-1.64525">
        <ele>30.8</ele>
        <time>2019-05-12T07:13:57Z</time>
      </trkpt>
      <trkpt lat="47.18236" lon="-1.64511">
        <ele>30.41</ele>
        <time>2019-05-12T07:14:00Z</time>
      </trkpt>
      <trkpt lat="47.18231" lon="-1.64499">
        <ele>30.33</ele>
        <time>2019-05-12T07:14:03Z</time>
      </trkpt>
      <trkpt lat="47.1823" lon="-1.6448">
        <ele>30.02</ele>
        <time>2019-05-12T07:14:06Z</time>
      </trkpt>
      <trkpt lat="47.18231" lon="-1.64465">
        <ele>29.87</ele>
        <time>2019-05-12T07:14:08Z</time>
      </trkpt>
      <trkpt lat="47.18229" lon="-1.64449">
        <ele>29.81</ele>
        <time>2019-05-12T07:14:12Z</time>
      </trkpt>
      <trkpt lat="47.18225" lon="-1.64434">
        <ele>29.99</ele>
        <time>2019-05-12T07:14:15Z</time>
      </trkpt>
      <trkpt lat="47.18221" lon="-1.64421">
        <ele>30.26</ele>
        <time>2019-05-12T07:14:18Z</time>
      </trkpt>
      <trkpt lat="47.18215" lon="-1.64409">
        <ele>30.56</ele>
        <time>2019-05-12T07:14:21Z</time>
      </trkpt>
      <trkpt lat="47.18208" lon="-1.64394">
        <ele>30.5</ele>
        <time>2019-05-12T07:14:24Z</time>
      </trkpt>
      <trkpt lat="47.18203" lon="-1.6438">
        <ele>30.52</ele>
        <time>2019-05-12T07:14:27Z</time>
      </trkpt>
      <trkpt lat="47.18197" lon="-1.64364">
        <ele>31.01</ele>
        <time>2019-05-12T07:14:30Z</time>
      </trkpt>
      <trkpt lat="47.18193" lon="-1.64351">
        <ele>30.85</ele>
        <time>2019-05-12T07:14:33Z</time>
      </trkpt>
      <trkpt lat="47.18188" lon="-1.64338">
        <ele>30.84</ele>
        <time>2019-05-12T07:14:36Z</time>
      </trkpt>
      <trkpt lat="47.18182" lon="-1.64326">
        <ele>30.84</ele>
        <time>2019-05-12T07:14:38Z</time>
      </trkpt>
      <trkpt lat="47.18177" lon="-1.64312">
        <ele>30.96</ele>
        <time>2019-05-12T07:14:40Z</time>
      </trkpt>
      <trkpt lat="47.18172" lon="-1.64295">
        <ele>31.29</ele>
        <time>2019-05-12T07:14:43Z</time>
      </trkpt>
      <trkpt lat="47.18166" lon="-1.64279">
        <ele>31.49</ele>
        <time>2019-05-12T07:14:46Z</time>
      </trkpt>
      <trkpt lat="47.18162" lon="-1.64267">
        <ele>31.54</ele>
        <time>2019-05-12T07:14:48Z</time>
      </trkpt>
      <trkpt lat="47.18157" lon="-1.64251">
        <ele>31.75</ele>
        <time>2019-05-12T07:14:51Z</time>
      </trkpt>
      <trkpt lat="47.18153" lon="-1.64235">
        <ele>31.73</ele>
        <time>2019-05-12T07:14:54Z</time>
      </trkpt>
      <trkpt lat="47.18149" lon="-1.6422">
        <ele>31.73</ele>
        <time>2019-05-12T07:14:57Z</time>
      </trkpt>
      <trkpt lat="47.18145" lon="-1.64203">
        <ele>31.6</ele>
        <time>2019-05-12T07:15:00Z</time>
      </trkpt>
      <trkpt lat="47.18142" lon="-1.64184">
        <ele>31.42</ele>
        <time>2019-05-12T07:15:03Z</time>
      </trkpt>
      <trkpt lat="47.18139" lon="-1.64171">
        <ele>31.3</ele>
        <time>2019-05-12T07:15:05Z</time>
      </trkpt>
      <trkpt lat="47.18136" lon="-1.64158">
        <ele>31.01</ele>
        <time>2019-05-12T07:15:07Z</time>
      </trkpt>
      <trkpt lat="47.18131" lon="-1.64146">
        <ele>30.7</ele>
        <time>2019-05-12T07:15:09Z</time>
      </trkpt>
      <trkpt lat="47.18124" lon="-1.64137">
        <ele>29.2</ele>
        <time>2019-05-12T07:15:22Z</time>
      </trkpt>
      <trkpt lat="47.18122" lon="-1.64124">
        <ele>28.1</ele>
        <time>2019-05-12T07:15:33Z</time>
      </trkpt>
      <trkpt lat="47.18113" lon="-1.64111">
        <ele>27.82</ele>
        <time>2019-05-12T07:15:37Z</time>
      </trkpt>
      <trkpt lat="47.18106" lon="-1.64099">
        <ele>27.28</ele>
        <time>2019-05-12T07:15:48Z</time>
      </trkpt>
      <trkpt lat="47.18103" lon="-1.64084">
        <ele>27.02</ele>
        <time>2019-05-12T07:15:51Z</time>
      </trkpt>
      <trkpt lat="47.181" lon="-1.6407">
        <ele>26.83</ele>
        <time>2019-05-12T07:15:54Z</time>
      </trkpt>
      <trkpt lat="47.18095" lon="-1.64053">
        <ele>26.69</ele>
        <time>2019-05-12T07:15:57Z</time>
      </trkpt>
      <trkpt lat="47.18092" lon="-1.64041">
        <ele>26.51</ele>
        <time>2019-05-12T07:16:00Z</time>
      </trkpt>
      <trkpt lat="47.18086" lon="-1.64025">
        <ele>26.27</ele>
        <time>2019-05-12T07:16:03Z</time>
      </trkpt>
      <trkpt lat="47.1808" lon="-1.64012">
        <ele>25.89</ele>
        <time>2019-05-12T07:16:06Z</time>
      </trkpt>
      <trkpt lat="47.18073" lon="-1.63995">
        <ele>24.61</ele>
        <time>2019-05-12T07:16:09Z</time>
      </trkpt>
      <trkpt lat="47.18067" lon="-1.63981">
        <ele>23.59</ele>
        <time>2019-05-12T07:16:11Z</time>
      </trkpt>
      <trkpt lat="47.18064" lon="-1.63965">
        <ele>21.98</ele>
        <time>2019-05-12T07:16:13Z</time>
      </trkpt>
      <trkpt lat="47.18058" lon="-1.63945">
        <ele>21.05</ele>
        <time>2019-05-12T07:16:16Z</time>
      </trkpt>
      <trkpt lat="47.18052" lon="-1.63931">
        <ele>20.89</ele>
        <time>2019-05-12T07:16:19Z</time>
      </trkpt>
      <trkpt lat="47.18046" lon="-1.63918">
        <ele>20.69</ele>
        <time>2019-05-12T07:16:22Z</time>
      </trkpt>
      <trkpt lat="47.18039" lon="-1.63905">
        <ele>20.49</ele>
        <time>2019-05-12T07:16:25Z</time>
      </trkpt>
      <trkpt lat="47.18033" lon="-1.63891">
        <ele>20.45</ele>
        <time>2019-05-12T07:16:28Z</time>
      </trkpt>
      <trkpt lat="47.18025" lon="-1.63877">
        <ele>20.43</ele>
        <time>2019-05-12T07:16:31Z</time>
      </trkpt>
      <trkpt lat="47.18019" lon="-1.63865">
        <ele>20.35</ele>
        <time>2019-05-12T07:16:34Z</time>
      </trkpt>
      <trkpt lat="47.18012" lon="-1.63855">
        <ele>20.16</ele>
        <time>2019-05-12T07:16:37Z</time>
      </trkpt>
      <trkpt lat="47.18004" lon="-1.63845">
        <ele>20.12</ele>
        <time>2019-05-12T07:16:40Z</time>
      </trkpt>
      <trkpt lat="47.17997" lon="-1.63832">
        <ele>19.94</ele>
        <time>2019-05-12T07:16:43Z</time>
      </trkpt>
      <trkpt lat="47.17991" lon="-1.63817">
        <ele>19.62</ele>
        <time>2019-05-12T07:16:46Z</time>
      </trkpt>
      <trkpt lat="47.17987" lon="-1.63805">
        <ele>19.33</ele>
        <time>2019-05-12T07:16:48Z</time>
      </trkpt>
      <trkpt lat="47.17983" lon="-1.63788">
        <ele>18.08</ele>
        <time>2019-05-12T07:16:50Z</time>
      </trkpt>
      <trkpt lat="47.1798" lon="-1.63773">
        <ele>17.61</ele>
        <time>2019-05-12T07:16:54Z</time>
      </trkpt>
      <trkpt lat="47.17975" lon="-1.63761">
        <ele>17.32</ele>
        <time>2019-05-12T07:16:57Z</time>
      </trkpt>
      <trkpt lat="47.17968" lon="-1.63744">
        <ele>14.62</ele>
        <time>2019-05-12T07:17:00Z</time>
      </trkpt>
      <trkpt lat="47.17961" lon="-1.63727">
        <ele>10.42</ele>
        <time>2019-05-12T07:17:02Z</time>
      </trkpt>
      <trkpt lat="47.17954" lon="-1.63712">
        <ele>6.54</ele>
        <time>2019-05-12T07:17:04Z</time>
      </trkpt>
      <trkpt lat="47.17948" lon="-1.63702">
        <ele>4.28</ele>
        <time>2019-05-12T07:17:06Z</time>
      </trkpt>
      <trkpt lat="47.17941" lon="-1.63688">
        <ele>3.98</ele>
        <time>2019-05-12T07:17:09Z</time>
      </trkpt>
      <trkpt lat="47.17935" lon="-1.63676">
        <ele>3.81</ele>
        <time>2019-05-12T07:17:11Z</time>
      </trkpt>
      <trkpt lat="47.17927" lon="-1.63664">
        <ele>3.79</ele>
        <time>2019-05-12T07:17:14Z</time>
      </trkpt>
      <trkpt lat="47.1792" lon="-1.63653">
        <ele>3.6</ele>
        <time>2019-05-12T07:17:17Z</time>
      </trkpt>
      <trkpt lat="47.17914" lon="-1.6364">
        <ele>3.45</ele>
        <time>2019-05-12T07:17:21Z</time>
      </trkpt>
      <trkpt lat="47.17914" lon="-1.63627">
        <ele>5.09</ele>
        <time>2019-05-12T07:17:46Z</time>
      </trkpt>
      <trkpt lat="47.17924" lon="-1.63617">
        <ele>5.26</ele>
        <time>2019-05-12T07:17:49Z</time>
      </trkpt>
      <trkpt lat="47.17932" lon="-1.63609">
        <ele>5.18</ele>
        <time>2019-05-12T07:17:52Z</time>
      </trkpt>
      <trkpt lat="47.17942" lon="-1.636">
        <ele>4.81</ele>
        <time>2019-05-12T07:17:56Z</time>
      </trkpt>
      <trkpt lat="47.17951" lon="-1.63593">
        <ele>4.42</ele>
        <time>2019-05-12T07:17:59Z</time>
      </trkpt>
      <trkpt lat="47.1796" lon="-1.63588">
        <ele>4.28</ele>
        <time>2019-05-12T07:18:02Z</time>
      </trkpt>
      <trkpt lat="47.17972" lon="-1.63583">
        <ele>4.2</ele>
        <time>2019-05-12T07:18:05Z</time>
      </trkpt>
      <trkpt lat="47.17984" lon="-1.63576">
        <ele>4.27</ele>
        <time>2019-05-12T07:18:08Z</time>
      </trkpt>
      <trkpt lat="47.17993" lon="-1.63568">
        <ele>4.36</ele>
        <time>2019-05-12T07:18:10Z</time>
      </trkpt>
      <trkpt lat="47.17993" lon="-1.63552">
        <ele>4.45</ele>
        <time>2019-05-12T07:18:14Z</time>
      </trkpt>
      <trkpt lat="47.17985" lon="-1.63537">
        <ele>4.14</ele>
        <time>2019-05-12T07:18:17Z</time>
      </trkpt>
      <trkpt lat="47.1798" lon="-1.63524">
        <ele>3.9</ele>
        <time>2019-05-12T07:18:20Z</time>
      </trkpt>
      <trkpt lat="47.17976" lon="-1.6351">
        <ele>3.82</ele>
        <time>2019-05-12T07:18:23Z</time>
      </trkpt>
      <trkpt lat="47.17974" lon="-1.63494">
        <ele>3.84</ele>
        <time>2019-05-12T07:18:26Z</time>
      </trkpt>
      <trkpt lat="47.17974" lon="-1.63477">
        <ele>3.91</ele>
        <time>2019-05-12T07:18:29Z</time>
      </trkpt>
      <trkpt lat="47.1797" lon="-1.63458">
        <ele>4.03</ele>
        <time>2019-05-12T07:18:32Z</time>
      </trkpt>
      <trkpt lat="47.17967" lon="-1.63445">
        <ele>4.31</ele>
        <time>2019-05-12T07:18:34Z</time>
      </trkpt>
      <trkpt lat="47.1796" lon="-1.63433">
        <ele>4.37</ele>
        <time>2019-05-12T07:18:37Z</time>
      </trkpt>
      <trkpt lat="47.17953" lon="-1.63422">
        <ele>4.52</ele>
        <time>2019-05-12T07:18:40Z</time>
      </trkpt>
      <trkpt lat="47.17951" lon="-1.63408">
        <ele>4.62</ele>
        <time>2019-05-12T07:18:43Z</time>
      </trkpt>
      <trkpt lat="47.17954" lon="-1.63392">
        <ele>4.71</ele>
        <time>2019-05-12T07:18:46Z</time>
      </trkpt>
      <trkpt lat="47.17957" lon="-1.63373">
        <ele>4.75</ele>
        <time>2019-05-12T07:18:49Z</time>
      </trkpt>
      <trkpt lat="47.17959" lon="-1.63358">
        <ele>4.65</ele>
        <time>2019-05-12T07:18:51Z</time>
      </trkpt>
      <trkpt lat="47.1796" lon="-1.63342">
        <ele>4.49</ele>
        <time>2019-05-12T07:18:54Z</time>
      </trkpt>
      <trkpt lat="47.17962" lon="-1.63324">
        <ele>4.35</ele>
        <time>2019-05-12T07:18:57Z</time>
      </trkpt>
      <trkpt lat="47.17965" lon="-1.63308">
        <ele>4.01</ele>
        <time>2019-05-12T07:19:00Z</time>
      </trkpt>
      <trkpt lat="47.17971" lon="-1.63292">
        <ele>3.68</ele>
        <time>2019-05-12T07:19:03Z</time>
      </trkpt>
      <trkpt lat="47.17972" lon="-1.63273">
        <ele>3.64</ele>
        <time>2019-05-12T07:19:07Z</time>
      </trkpt>
      <trkpt lat="47.17977" lon="-1.63261">
        <ele>3.59</ele>
        <time>2019-05-12T07:19:09Z</time>
      </trkpt>
      <trkpt lat="47.17987" lon="-1.63251">
        <ele>3.58</ele>
        <time>2019-05-12T07:19:12Z</time>
      </trkpt>
      <trkpt lat="47.17995" lon="-1.63243">
        <ele>3.64</ele>
        <time>2019-05-12T07:19:14Z</time>
      </trkpt>
      <trkpt lat="47.18005" lon="-1.63234">
        <ele>3.76</ele>
        <time>2019-05-12T07:19:17Z</time>
      </trkpt>
      <trkpt lat="47.18013" lon="-1.63225">
        <ele>4.24</ele>
        <time>2019-05-12T07:19:20Z</time>
      </trkpt>
      <trkpt lat="47.1802" lon="-1.63216">
        <ele>4.58</ele>
        <time>2019-05-12T07:19:23Z</time>
      </trkpt>
      <trkpt lat="47.18028" lon="-1.63205">
        <ele>5.02</ele>
        <time>2019-05-12T07:19:26Z</time>
      </trkpt>
      <trkpt lat="47.18037" lon="-1.63193">
        <ele>5.15</ele>
        <time>2019-05-12T07:19:29Z</time>
      </trkpt>
      <trkpt lat="47.18044" lon="-1.63182">
        <ele>5.15</ele>
        <time>2019-05-12T07:19:32Z</time>
      </trkpt>
      <trkpt lat="47.1805" lon="-1.63171">
        <ele>5.37</ele>
        <time>2019-05-12T07:19:35Z</time>
      </trkpt>
      <trkpt lat="47.18056" lon="-1.63159">
        <ele>5.47</ele>
        <time>2019-05-12T07:19:38Z</time>
      </trkpt>
      <trkpt lat="47.18061" lon="-1.63146">
        <ele>5.59</ele>
        <time>2019-05-12T07:19:41Z</time>
      </trkpt>
      <trkpt lat="47.18065" lon="-1.63132">
        <ele>5.82</ele>
        <time>2019-05-12T07:19:44Z</time>
      </trkpt>
      <trkpt lat="47.18075" lon="-1.63124">
        <ele>6.02</ele>
        <time>2019-05-12T07:19:48Z</time>
      </trkpt>
      <trkpt lat="47.18086" lon="-1.63119">
        <ele>6.09</ele>
        <time>2019-05-12T07:19:51Z</time>
      </trkpt>
      <trkpt lat="47.18093" lon="-1.63111">
        <ele>6.18</ele>
        <time>2019-05-12T07:19:54Z</time>
      </trkpt>
      <trkpt lat="47.18094" lon="-1.63093">
        <ele>6.46</ele>
        <time>2019-05-12T07:19:59Z</time>
      </trkpt>
      <trkpt lat="47.18095" lon="-1.63078">
        <ele>6.44</ele>
        <time>2019-05-12T07:20:02Z</time>
      </trkpt>
      <trkpt lat="47.18094" lon="-1.63062">
        <ele>6.98</ele>
        <time>2019-05-12T07:20:06Z</time>
      </trkpt>
      <trkpt lat="47.18093" lon="-1.63045">
        <ele>7.46</ele>
        <time>2019-05-12T07:20:08Z</time>
      </trkpt>
      <trkpt lat="47.18091" lon="-1.63027">
        <ele>7.92</ele>
        <time>2019-05-12T07:20:11Z</time>
      </trkpt>
      <trkpt lat="47.1809" lon="-1.63013">
        <ele>8.19</ele>
        <time>2019-05-12T07:20:13Z</time>
      </trkpt>
      <trkpt lat="47.18089" lon="-1.62998">
        <ele>8.54</ele>
        <time>2019-05-12T07:20:16Z</time>
      </trkpt>
      <trkpt lat="47.18089" lon="-1.62983">
        <ele>8.93</ele>
        <time>2019-05-12T07:20:19Z</time>
      </trkpt>
      <trkpt lat="47.1809" lon="-1.62966">
        <ele>10.77</ele>
        <time>2019-05-12T07:20:23Z</time>
      </trkpt>
      <trkpt lat="47.1809" lon="-1.6295">
        <ele>10.79</ele>
        <time>2019-05-12T07:20:26Z</time>
      </trkpt>
      <trkpt lat="47.18092" lon="-1.62936">
        <ele>11.02</ele>
        <time>2019-05-12T07:20:28Z</time>
      </trkpt>
      <trkpt lat="47.18094" lon="-1.62921">
        <ele>11.13</ele>
        <time>2019-05-12T07:20:31Z</time>
      </trkpt>
      <trkpt lat="47.18096" lon="-1.62904">
        <ele>11.69</ele>
        <time>2019-05-12T07:20:34Z</time>
      </trkpt>
      <trkpt lat="47.18097" lon="-1.62885">
        <ele>11.86</ele>
        <time>2019-05-12T07:20:37Z</time>
      </trkpt>
      <trkpt lat="47.18099" lon="-1.62871">
        <ele>11.68</ele>
        <time>2019-05-12T07:20:39Z</time>
      </trkpt>
      <trkpt lat="47.18101" lon="-1.62857">
        <ele>11.86</ele>
        <time>2019-05-12T07:20:41Z</time>
      </trkpt>
      <trkpt lat="47.18102" lon="-1.62836">
        <ele>13.5</ele>
        <time>2019-05-12T07:20:44Z</time>
      </trkpt>
      <trkpt lat="47.18104" lon="-1.6282">
        <ele>14.27</ele>
        <time>2019-05-12T07:20:46Z</time>
      </trkpt>
      <trkpt lat="47.18105" lon="-1.62807">
        <ele>14.39</ele>
        <time>2019-05-12T07:20:48Z</time>
      </trkpt>
      <trkpt lat="47.18107" lon="-1.62792">
        <ele>14.61</ele>
        <time>2019-05-12T07:20:50Z</time>
      </trkpt>
      <trkpt lat="47.18107" lon="-1.62776">
        <ele>14.73</ele>
        <time>2019-05-12T07:20:52Z</time>
      </trkpt>
      <trkpt lat="47.18106" lon="-1.6276">
        <ele>12.59</ele>
        <time>2019-05-12T07:20:55Z</time>
      </trkpt>
      <trkpt lat="47.18105" lon="-1.62739">
        <ele>11.91</ele>
        <time>2019-05-12T07:20:58Z</time>
      </trkpt>
      <trkpt lat="47.18105" lon="-1.62724">
        <ele>10.61</ele>
        <time>2019-05-12T07:21:01Z</time>
      </trkpt>
      <trkpt lat="47.18103" lon="-1.62709">
        <ele>10.22</ele>
        <time>2019-05-12T07:21:04Z</time>
      </trkpt>
      <trkpt lat="47.18102" lon="-1.62695">
        <ele>9.9</ele>
        <time>2019-05-12T07:21:07Z</time>
      </trkpt>
      <trkpt lat="47.18101" lon="-1.62681">
        <ele>9.69</ele>
        <time>2019-05-12T07:21:11Z</time>
      </trkpt>
      <trkpt lat="47.18098" lon="-1.62667">
        <ele>9.43</ele>
        <time>2019-05-12T07:21:15Z</time>
      </trkpt>
      <trkpt lat="47.18095" lon="-1.62652">
        <ele>9.41</ele>
        <time>2019-05-12T07:21:18Z</time>
      </trkpt>
      <trkpt lat="47.18091" lon="-1.62638">
        <ele>9.45</ele>
        <time>2019-05-12T07:21:21Z</time>
      </trkpt>
      <trkpt lat="47.18087" lon="-1.62623">
        <ele>9.29</ele>
        <time>2019-05-12T07:21:24Z</time>
      </trkpt>
      <trkpt lat="47.18084" lon="-1.62607">
        <ele>9.5</ele>
        <time>2019-05-12T07:21:27Z</time>
      </trkpt>
      <trkpt lat="47.18081" lon="-1.6259">
        <ele>10.98</ele>
        <time>2019-05-12T07:21:29Z</time>
      </trkpt>
      <trkpt lat="47.18078" lon="-1.62574">
        <ele>11.17</ele>
        <time>2019-05-12T07:21:31Z</time>
      </trkpt>
      <trkpt lat="47.18073" lon="-1.62555">
        <ele>11.56</ele>
        <time>2019-05-12T07:21:34Z</time>
      </trkpt>
      <trkpt lat="47.18068" lon="-1.62542">
        <ele>11.88</ele>
        <time>2019-05-12T07:21:37Z</time>
      </trkpt>
      <trkpt lat="47.18068" lon="-1.62528">
        <ele>12.3</ele>
        <time>2019-05-12T07:21:40Z</time>
      </trkpt>
      <trkpt lat="47.18075" lon="-1.62516">
        <ele>12.63</ele>
        <time>2019-05-12T07:21:43Z</time>
      </trkpt>
      <trkpt lat="47.18077" lon="-1.62503">
        <ele>13.25</ele>
        <time>2019-05-12T07:21:48Z</time>
      </trkpt>
      <trkpt lat="47.18081" lon="-1.62489">
        <ele>15.17</ele>
        <time>2019-05-12T07:22:03Z</time>
      </trkpt>
      <trkpt lat="47.18093" lon="-1.62479">
        <ele>15.67</ele>
        <time>2019-05-12T07:22:07Z</time>
      </trkpt>
      <trkpt lat="47.18107" lon="-1.62472">
        <ele>13.98</ele>
        <time>2019-05-12T07:22:10Z</time>
      </trkpt>
      <trkpt lat="47.18118" lon="-1.62471">
        <ele>12</ele>
        <time>2019-05-12T07:22:13Z</time>
      </trkpt>
      <trkpt lat="47.18127" lon="-1.62479">
        <ele>11.86</ele>
        <time>2019-05-12T07:22:16Z</time>
      </trkpt>
      <trkpt lat="47.18127" lon="-1.62498">
        <ele>12.08</ele>
        <time>2019-05-12T07:22:19Z</time>
      </trkpt>
      <trkpt lat="47.18124" lon="-1.62515">
        <ele>11.14</ele>
        <time>2019-05-12T07:22:21Z</time>
      </trkpt>
      <trkpt lat="47.18121" lon="-1.62528">
        <ele>9.63</ele>
        <time>2019-05-12T07:22:23Z</time>
      </trkpt>
      <trkpt lat="47.1812" lon="-1.62544">
        <ele>9.51</ele>
        <time>2019-05-12T07:22:27Z</time>
      </trkpt>
      <trkpt lat="47.18126" lon="-1.62531">
        <ele>9.28</ele>
        <time>2019-05-12T07:22:31Z</time>
      </trkpt>
      <trkpt lat="47.18128" lon="-1.62511">
        <ele>8.5</ele>
        <time>2019-05-12T07:22:33Z</time>
      </trkpt>
      <trkpt lat="47.1813" lon="-1.6249">
        <ele>6.89</ele>
        <time>2019-05-12T07:22:35Z</time>
      </trkpt>
      <trkpt lat="47.18133" lon="-1.6247">
        <ele>5.75</ele>
        <time>2019-05-12T07:22:37Z</time>
      </trkpt>
      <trkpt lat="47.18131" lon="-1.62452">
        <ele>5.39</ele>
        <time>2019-05-12T07:22:39Z</time>
      </trkpt>
      <trkpt lat="47.18127" lon="-1.6243">
        <ele>4.76</ele>
        <time>2019-05-12T07:22:41Z</time>
      </trkpt>
      <trkpt lat="47.18123" lon="-1.62408">
        <ele>3.99</ele>
        <time>2019-05-12T07:22:43Z</time>
      </trkpt>
      <trkpt lat="47.18118" lon="-1.62387">
        <ele>3.6</ele>
        <time>2019-05-12T07:22:45Z</time>
      </trkpt>
      <trkpt lat="47.18114" lon="-1.62367">
        <ele>4.39</ele>
        <time>2019-05-12T07:22:47Z</time>
      </trkpt>
      <trkpt lat="47.18112" lon="-1.6235">
        <ele>5.39</ele>
        <time>2019-05-12T07:22:49Z</time>
      </trkpt>
      <trkpt lat="47.1811" lon="-1.62334">
        <ele>5.18</ele>
        <time>2019-05-12T07:22:51Z</time>
      </trkpt>
      <trkpt lat="47.18106" lon="-1.62321">
        <ele>6.1</ele>
        <time>2019-05-12T07:22:53Z</time>
      </trkpt>
      <trkpt lat="47.18101" lon="-1.62307">
        <ele>6.88</ele>
        <time>2019-05-12T07:22:55Z</time>
      </trkpt>
      <trkpt lat="47.18096" lon="-1.62292">
        <ele>5.63</ele>
        <time>2019-05-12T07:22:57Z</time>
      </trkpt>
      <trkpt lat="47.18091" lon="-1.62279">
        <ele>5.03</ele>
        <time>2019-05-12T07:22:59Z</time>
      </trkpt>
      <trkpt lat="47.18087" lon="-1.62265">
        <ele>5.24</ele>
        <time>2019-05-12T07:23:01Z</time>
      </trkpt>
      <trkpt lat="47.18085" lon="-1.62251">
        <ele>5.53</ele>
        <time>2019-05-12T07:23:03Z</time>
      </trkpt>
      <trkpt lat="47.18083" lon="-1.62236">
        <ele>4.66</ele>
        <time>2019-05-12T07:23:05Z</time>
      </trkpt>
      <trkpt lat="47.18079" lon="-1.62222">
        <ele>2.86</ele>
        <time>2019-05-12T07:23:08Z</time>
      </trkpt>
      <trkpt lat="47.18084" lon="-1.62206">
        <ele>3.67</ele>
        <time>2019-05-12T07:23:11Z</time>
      </trkpt>
      <trkpt lat="47.18091" lon="-1.62198">
        <ele>3.85</ele>
        <time>2019-05-12T07:23:13Z</time>
      </trkpt>
      <trkpt lat="47.18101" lon="-1.62186">
        <ele>4.16</ele>
        <time>2019-05-12T07:23:17Z</time>
      </trkpt>
      <trkpt lat="47.18111" lon="-1.62187">
        <ele>3.98</ele>
        <time>2019-05-12T07:23:20Z</time>
      </trkpt>
      <trkpt lat="47.18115" lon="-1.62201">
        <ele>4.08</ele>
        <time>2019-05-12T07:23:23Z</time>
      </trkpt>
      <trkpt lat="47.18118" lon="-1.62216">
        <ele>4.33</ele>
        <time>2019-05-12T07:23:26Z</time>
      </trkpt>
      <trkpt lat="47.18124" lon="-1.6223">
        <ele>4.35</ele>
        <time>2019-05-12T07:23:31Z</time>
      </trkpt>
      <trkpt lat="47.18134" lon="-1.62238">
        <ele>4.35</ele>
        <time>2019-05-12T07:23:33Z</time>
      </trkpt>
      <trkpt lat="47.18142" lon="-1.62244">
        <ele>2.41</ele>
        <time>2019-05-12T07:23:35Z</time>
      </trkpt>
      <trkpt lat="47.18151" lon="-1.62253">
        <ele>1.26</ele>
        <time>2019-05-12T07:23:37Z</time>
      </trkpt>
      <trkpt lat="47.18157" lon="-1.62273">
        <ele>2.17</ele>
        <time>2019-05-12T07:23:39Z</time>
      </trkpt>
      <trkpt lat="47.18154" lon="-1.62294">
        <ele>2.95</ele>
        <time>2019-05-12T07:23:41Z</time>
      </trkpt>
      <trkpt lat="47.18151" lon="-1.62315">
        <ele>3.94</ele>
        <time>2019-05-12T07:23:43Z</time>
      </trkpt>
      <trkpt lat="47.18154" lon="-1.62334">
        <ele>4.31</ele>
        <time>2019-05-12T07:23:45Z</time>
      </trkpt>
      <trkpt lat="47.18163" lon="-1.62351">
        <ele>4.14</ele>
        <time>2019-05-12T07:23:47Z</time>
      </trkpt>
      <trkpt lat="47.18169" lon="-1.62362">
        <ele>3.82</ele>
        <time>2019-05-12T07:23:48Z</time>
      </trkpt>
      <trkpt lat="47.18175" lon="-1.62373">
        <ele>3.14</ele>
        <time>2019-05-12T07:23:49Z</time>
      </trkpt>
      <trkpt lat="47.18182" lon="-1.62385">
        <ele>2.46</ele>
        <time>2019-05-12T07:23:50Z</time>
      </trkpt>
      <trkpt lat="47.18187" lon="-1.62396">
        <ele>2</ele>
        <time>2019-05-12T07:23:51Z</time>
      </trkpt>
      <trkpt lat="47.18192" lon="-1.62407">
        <ele>1.36</ele>
        <time>2019-05-12T07:23:52Z</time>
      </trkpt>
      <trkpt lat="47.18202" lon="-1.62426">
        <ele>0.64</ele>
        <time>2019-05-12T07:23:54Z</time>
      </trkpt>
      <trkpt lat="47.18211" lon="-1.62445">
        <ele>0.61</ele>
        <time>2019-05-12T07:23:56Z</time>
      </trkpt>
      <trkpt lat="47.18219" lon="-1.62462">
        <ele>0.37</ele>
        <time>2019-05-12T07:23:58Z</time>
      </trkpt>
      <trkpt lat="47.1823" lon="-1.62473">
        <ele>-0.3</ele>
        <time>2019-05-12T07:24:00Z</time>
      </trkpt>
      <trkpt lat="47.18241" lon="-1.62482">
        <ele>-0.67</ele>
        <time>2019-05-12T07:24:02Z</time>
      </trkpt>
      <trkpt lat="47.18252" lon="-1.62478">
        <ele>-0.9</ele>
        <time>2019-05-12T07:24:04Z</time>
      </trkpt>
      <trkpt lat="47.18263" lon="-1.6247">
        <ele>-1.13</ele>
        <time>2019-05-12T07:24:06Z</time>
      </trkpt>
      <trkpt lat="47.18275" lon="-1.62462">
        <ele>-1.23</ele>
        <time>2019-05-12T07:24:08Z</time>
      </trkpt>
      <trkpt lat="47.18286" lon="-1.62456">
        <ele>-0.8</ele>
        <time>2019-05-12T07:24:10Z</time>
      </trkpt>
      <trkpt lat="47.18297" lon="-1.6245">
        <ele>-0.03</ele>
        <time>2019-05-12T07:24:12Z</time>
      </trkpt>
      <trkpt lat="47.18304" lon="-1.62443">
        <ele>-0.31</ele>
        <time>2019-05-12T07:24:14Z</time>
      </trkpt>
      <trkpt lat="47.18314" lon="-1.62428">
        <ele>1.44</ele>
        <time>2019-05-12T07:24:17Z</time>
      </trkpt>
      <trkpt lat="47.18321" lon="-1.62418">
        <ele>1.96</ele>
        <time>2019-05-12T07:24:19Z</time>
      </trkpt>
      <trkpt lat="47.18331" lon="-1.62402">
        <ele>2.16</ele>
        <time>2019-05-12T07:24:21Z</time>
      </trkpt>
      <trkpt lat="47.18344" lon="-1.62384">
        <ele>3.21</ele>
        <time>2019-05-12T07:24:23Z</time>
      </trkpt>
      <trkpt lat="47.18358" lon="-1.62373">
        <ele>2.65</ele>
        <time>2019-05-12T07:24:25Z</time>
      </trkpt>
      <trkpt lat="47.1837" lon="-1.62368">
        <ele>2.47</ele>
        <time>2019-05-12T07:24:27Z</time>
      </trkpt>
      <trkpt lat="47.18384" lon="-1.62364">
        <ele>3.15</ele>
        <time>2019-05-12T07:24:29Z</time>
      </trkpt>
      <trkpt lat="47.18396" lon="-1.6236">
        <ele>4.53</ele>
        <time>2019-05-12T07:24:31Z</time>
      </trkpt>
      <trkpt lat="47.18403" lon="-1.62352">
        <ele>3.56</ele>
        <time>2019-05-12T07:24:33Z</time>
      </trkpt>
      <trkpt lat="47.1841" lon="-1.62336">
        <ele>1.97</ele>
        <time>2019-05-12T07:24:36Z</time>
      </trkpt>
      <trkpt lat="47.18416" lon="-1.62321">
        <ele>1.74</ele>
        <time>2019-05-12T07:24:39Z</time>
      </trkpt>
      <trkpt lat="47.18422" lon="-1.62307">
        <ele>2.09</ele>
        <time>2019-05-12T07:24:42Z</time>
      </trkpt>
      <trkpt lat="47.18435" lon="-1.62311">
        <ele>1.54</ele>
        <time>2019-05-12T07:24:46Z</time>
      </trkpt>
      <trkpt lat="47.18444" lon="-1.62319">
        <ele>1.53</ele>
        <time>2019-05-12T07:24:49Z</time>
      </trkpt>
      <trkpt lat="47.18449" lon="-1.62339">
        <ele>2.2</ele>
        <time>2019-05-12T07:24:53Z</time>
      </trkpt>
      <trkpt lat="47.18452" lon="-1.62354">
        <ele>2.73</ele>
        <time>2019-05-12T07:24:55Z</time>
      </trkpt>
      <trkpt lat="47.18454" lon="-1.62374">
        <ele>4.67</ele>
        <time>2019-05-12T07:24:57Z</time>
      </trkpt>
      <trkpt lat="47.18456" lon="-1.62395">
        <ele>4.74</ele>
        <time>2019-05-12T07:24:59Z</time>
      </trkpt>
      <trkpt lat="47.18455" lon="-1.62412">
        <ele>4.59</ele>
        <time>2019-05-12T07:25:01Z</time>
      </trkpt>
      <trkpt lat="47.18455" lon="-1.62434">
        <ele>5.33</ele>
        <time>2019-05-12T07:25:03Z</time>
      </trkpt>
      <trkpt lat="47.18455" lon="-1.62451">
        <ele>5.55</ele>
        <time>2019-05-12T07:25:05Z</time>
      </trkpt>
      <trkpt lat="47.18455" lon="-1.62471">
        <ele>6.39</ele>
        <time>2019-05-12T07:25:08Z</time>
      </trkpt>
      <trkpt lat="47.18454" lon="-1.62489">
        <ele>7.84</ele>
        <time>2019-05-12T07:25:10Z</time>
      </trkpt>
      <trkpt lat="47.18453" lon="-1.62507">
        <ele>6.91</ele>
        <time>2019-05-12T07:25:12Z</time>
      </trkpt>
      <trkpt lat="47.18452" lon="-1.62527">
        <ele>4.63</ele>
        <time>2019-05-12T07:25:14Z</time>
      </trkpt>
      <trkpt lat="47.18452" lon="-1.62545">
        <ele>3.56</ele>
        <time>2019-05-12T07:25:16Z</time>
      </trkpt>
      <trkpt lat="47.18452" lon="-1.62563">
        <ele>3.39</ele>
        <time>2019-05-12T07:25:18Z</time>
      </trkpt>
      <trkpt lat="47.18453" lon="-1.62578">
        <ele>3.35</ele>
        <time>2019-05-12T07:25:20Z</time>
      </trkpt>
      <trkpt lat="47.18452" lon="-1.62595">
        <ele>4.16</ele>
        <time>2019-05-12T07:25:22Z</time>
      </trkpt>
      <trkpt lat="47.18451" lon="-1.62611">
        <ele>4.23</ele>
        <time>2019-05-12T07:25:24Z</time>
      </trkpt>
      <trkpt lat="47.18449" lon="-1.62625">
        <ele>4.22</ele>
        <time>2019-05-12T07:25:26Z</time>
      </trkpt>
      <trkpt lat="47.18448" lon="-1.62643">
        <ele>4.08</ele>
        <time>2019-05-12T07:25:28Z</time>
      </trkpt>
      <trkpt lat="47.18446" lon="-1.62659">
        <ele>4.3</ele>
        <time>2019-05-12T07:25:31Z</time>
      </trkpt>
      <trkpt lat="47.18446" lon="-1.62673">
        <ele>4.28</ele>
        <time>2019-05-12T07:25:33Z</time>
      </trkpt>
      <trkpt lat="47.18446" lon="-1.62691">
        <ele>4.53</ele>
        <time>2019-05-12T07:25:36Z</time>
      </trkpt>
      <trkpt lat="47.18445" lon="-1.62706">
        <ele>4.67</ele>
        <time>2019-05-12T07:25:38Z</time>
      </trkpt>
      <trkpt lat="47.18442" lon="-1.62725">
        <ele>4.97</ele>
        <time>2019-05-12T07:25:41Z</time>
      </trkpt>
      <trkpt lat="47.18439" lon="-1.62744">
        <ele>6.01</ele>
        <time>2019-05-12T07:25:43Z</time>
      </trkpt>
      <trkpt lat="47.18436" lon="-1.62762">
        <ele>7.35</ele>
        <time>2019-05-12T07:25:45Z</time>
      </trkpt>
      <trkpt lat="47.18431" lon="-1.62781">
        <ele>7.02</ele>
        <time>2019-05-12T07:25:47Z</time>
      </trkpt>
      <trkpt lat="47.18427" lon="-1.62805">
        <ele>6.86</ele>
        <time>2019-05-12T07:25:49Z</time>
      </trkpt>
      <trkpt lat="47.18424" lon="-1.62827">
        <ele>7.54</ele>
        <time>2019-05-12T07:25:51Z</time>
      </trkpt>
      <trkpt lat="47.18419" lon="-1.62846">
        <ele>8.93</ele>
        <time>2019-05-12T07:25:53Z</time>
      </trkpt>
      <trkpt lat="47.18416" lon="-1.62864">
        <ele>10.52</ele>
        <time>2019-05-12T07:25:55Z</time>
      </trkpt>
      <trkpt lat="47.18411" lon="-1.62881">
        <ele>9.69</ele>
        <time>2019-05-12T07:25:57Z</time>
      </trkpt>
      <trkpt lat="47.18408" lon="-1.62901">
        <ele>7.64</ele>
        <time>2019-05-12T07:25:59Z</time>
      </trkpt>
      <trkpt lat="47.18404" lon="-1.62918">
        <ele>7.12</ele>
        <time>2019-05-12T07:26:01Z</time>
      </trkpt>
      <trkpt lat="47.18402" lon="-1.62934">
        <ele>6.93</ele>
        <time>2019-05-12T07:26:03Z</time>
      </trkpt>
      <trkpt lat="47.18402" lon="-1.62952">
        <ele>7.17</ele>
        <time>2019-05-12T07:26:06Z</time>
      </trkpt>
      <trkpt lat="47.18407" lon="-1.62971">
        <ele>6.2</ele>
        <time>2019-05-12T07:26:09Z</time>
      </trkpt>
      <trkpt lat="47.18413" lon="-1.62981">
        <ele>4.92</ele>
        <time>2019-05-12T07:26:11Z</time>
      </trkpt>
      <trkpt lat="47.18421" lon="-1.62991">
        <ele>3.86</ele>
        <time>2019-05-12T07:26:13Z</time>
      </trkpt>
      <trkpt lat="47.1843" lon="-1.63004">
        <ele>3.28</ele>
        <time>2019-05-12T07:26:15Z</time>
      </trkpt>
      <trkpt lat="47.18441" lon="-1.63017">
        <ele>3.55</ele>
        <time>2019-05-12T07:26:17Z</time>
      </trkpt>
      <trkpt lat="47.18451" lon="-1.63028">
        <ele>4.02</ele>
        <time>2019-05-12T07:26:19Z</time>
      </trkpt>
      <trkpt lat="47.18459" lon="-1.63037">
        <ele>4.35</ele>
        <time>2019-05-12T07:26:21Z</time>
      </trkpt>
      <trkpt lat="47.18465" lon="-1.63047">
        <ele>4.57</ele>
        <time>2019-05-12T07:26:23Z</time>
      </trkpt>
      <trkpt lat="47.18475" lon="-1.63057">
        <ele>3.75</ele>
        <time>2019-05-12T07:26:25Z</time>
      </trkpt>
      <trkpt lat="47.18485" lon="-1.63069">
        <ele>3.14</ele>
        <time>2019-05-12T07:26:27Z</time>
      </trkpt>
      <trkpt lat="47.18495" lon="-1.63081">
        <ele>1.82</ele>
        <time>2019-05-12T07:26:29Z</time>
      </trkpt>
      <trkpt lat="47.18506" lon="-1.63096">
        <ele>1.66</ele>
        <time>2019-05-12T07:26:31Z</time>
      </trkpt>
      <trkpt lat="47.18519" lon="-1.63113">
        <ele>2.1</ele>
        <time>2019-05-12T07:26:33Z</time>
      </trkpt>
      <trkpt lat="47.18528" lon="-1.63124">
        <ele>2.16</ele>
        <time>2019-05-12T07:26:35Z</time>
      </trkpt>
      <trkpt lat="47.18538" lon="-1.63137">
        <ele>2.63</ele>
        <time>2019-05-12T07:26:38Z</time>
      </trkpt>
      <trkpt lat="47.18546" lon="-1.63146">
        <ele>2.9</ele>
        <time>2019-05-12T07:26:40Z</time>
      </trkpt>
      <trkpt lat="47.18554" lon="-1.63155">
        <ele>3.47</ele>
        <time>2019-05-12T07:26:42Z</time>
      </trkpt>
      <trkpt lat="47.18562" lon="-1.63167">
        <ele>3.39</ele>
        <time>2019-05-12T07:26:45Z</time>
      </trkpt>
      <trkpt lat="47.1857" lon="-1.63177">
        <ele>2.45</ele>
        <time>2019-05-12T07:26:47Z</time>
      </trkpt>
      <trkpt lat="47.1857" lon="-1.63191">
        <ele>2.1</ele>
        <time>2019-05-12T07:26:49Z</time>
      </trkpt>
      <trkpt lat="47.18564" lon="-1.63207">
        <ele>2.19</ele>
        <time>2019-05-12T07:26:52Z</time>
      </trkpt>
      <trkpt lat="47.18565" lon="-1.63228">
        <ele>4.82</ele>
        <time>2019-05-12T07:26:55Z</time>
      </trkpt>
      <trkpt lat="47.18573" lon="-1.63245">
        <ele>6.37</ele>
        <time>2019-05-12T07:26:57Z</time>
      </trkpt>
      <trkpt lat="47.18582" lon="-1.63261">
        <ele>5.79</ele>
        <time>2019-05-12T07:26:59Z</time>
      </trkpt>
      <trkpt lat="47.18592" lon="-1.63274">
        <ele>5.02</ele>
        <time>2019-05-12T07:27:01Z</time>
      </trkpt>
      <trkpt lat="47.18604" lon="-1.6329">
        <ele>3.93</ele>
        <time>2019-05-12T07:27:03Z</time>
      </trkpt>
      <trkpt lat="47.18614" lon="-1.63304">
        <ele>2.67</ele>
        <time>2019-05-12T07:27:05Z</time>
      </trkpt>
      <trkpt lat="47.18623" lon="-1.6332">
        <ele>1.47</ele>
        <time>2019-05-12T07:27:07Z</time>
      </trkpt>
      <trkpt lat="47.18631" lon="-1.63334">
        <ele>1.56</ele>
        <time>2019-05-12T07:27:09Z</time>
      </trkpt>
      <trkpt lat="47.18638" lon="-1.6335">
        <ele>2.57</ele>
        <time>2019-05-12T07:27:11Z</time>
      </trkpt>
      <trkpt lat="47.18647" lon="-1.6337">
        <ele>3.48</ele>
        <time>2019-05-12T07:27:13Z</time>
      </trkpt>
      <trkpt lat="47.18654" lon="-1.63387">
        <ele>3.54</ele>
        <time>2019-05-12T07:27:15Z</time>
      </trkpt>
      <trkpt lat="47.18663" lon="-1.63407">
        <ele>4.53</ele>
        <time>2019-05-12T07:27:17Z</time>
      </trkpt>
      <trkpt lat="47.18669" lon="-1.63422">
        <ele>4.29</ele>
        <time>2019-05-12T07:27:19Z</time>
      </trkpt>
      <trkpt lat="47.18679" lon="-1.63437">
        <ele>4.12</ele>
        <time>2019-05-12T07:27:21Z</time>
      </trkpt>
      <trkpt lat="47.18691" lon="-1.63453">
        <ele>5.08</ele>
        <time>2019-05-12T07:27:23Z</time>
      </trkpt>
      <trkpt lat="47.18701" lon="-1.6347">
        <ele>5.68</ele>
        <time>2019-05-12T07:27:25Z</time>
      </trkpt>
      <trkpt lat="47.18707" lon="-1.6348">
        <ele>5.6</ele>
        <time>2019-05-12T07:27:26Z</time>
      </trkpt>
      <trkpt lat="47.18716" lon="-1.63498">
        <ele>4.39</ele>
        <time>2019-05-12T07:27:28Z</time>
      </trkpt>
      <trkpt lat="47.18724" lon="-1.63516">
        <ele>4.56</ele>
        <time>2019-05-12T07:27:30Z</time>
      </trkpt>
      <trkpt lat="47.18732" lon="-1.63532">
        <ele>5.06</ele>
        <time>2019-05-12T07:27:32Z</time>
      </trkpt>
      <trkpt lat="47.18739" lon="-1.6355">
        <ele>5.48</ele>
        <time>2019-05-12T07:27:34Z</time>
      </trkpt>
      <trkpt lat="47.18747" lon="-1.63569">
        <ele>5.94</ele>
        <time>2019-05-12T07:27:36Z</time>
      </trkpt>
      <trkpt lat="47.18754" lon="-1.63586">
        <ele>6.36</ele>
        <time>2019-05-12T07:27:38Z</time>
      </trkpt>
      <trkpt lat="47.18761" lon="-1.63604">
        <ele>5.78</ele>
        <time>2019-05-12T07:27:40Z</time>
      </trkpt>
      <trkpt lat="47.18768" lon="-1.63621">
        <ele>5.94</ele>
        <time>2019-05-12T07:27:42Z</time>
      </trkpt>
      <trkpt lat="47.18774" lon="-1.63638">
        <ele>6.37</ele>
        <time>2019-05-12T07:27:44Z</time>
      </trkpt>
      <trkpt lat="47.1878" lon="-1.63652">
        <ele>6.17</ele>
        <time>2019-05-12T07:27:46Z</time>
      </trkpt>
      <trkpt lat="47.18785" lon="-1.63666">
        <ele>4.96</ele>
        <time>2019-05-12T07:27:48Z</time>
      </trkpt>
      <trkpt lat="47.1879" lon="-1.6368">
        <ele>3.89</ele>
        <time>2019-05-12T07:27:50Z</time>
      </trkpt>
      <trkpt lat="47.18795" lon="-1.63692">
        <ele>1.66</ele>
        <time>2019-05-12T07:27:52Z</time>
      </trkpt>
      <trkpt lat="47.18801" lon="-1.63705">
        <ele>2.35</ele>
        <time>2019-05-12T07:27:54Z</time>
      </trkpt>
      <trkpt lat="47.18806" lon="-1.63721">
        <ele>3.04</ele>
        <time>2019-05-12T07:27:56Z</time>
      </trkpt>
      <trkpt lat="47.18812" lon="-1.63741">
        <ele>4.18</ele>
        <time>2019-05-12T07:27:58Z</time>
      </trkpt>
      <trkpt lat="47.18817" lon="-1.63759">
        <ele>4.09</ele>
        <time>2019-05-12T07:28:00Z</time>
      </trkpt>
      <trkpt lat="47.18821" lon="-1.63772">
        <ele>3.59</ele>
        <time>2019-05-12T07:28:02Z</time>
      </trkpt>
      <trkpt lat="47.18827" lon="-1.63789">
        <ele>4.65</ele>
        <time>2019-05-12T07:28:04Z</time>
      </trkpt>
      <trkpt lat="47.18832" lon="-1.63802">
        <ele>5.06</ele>
        <time>2019-05-12T07:28:06Z</time>
      </trkpt>
      <trkpt lat="47.18838" lon="-1.63816">
        <ele>5.69</ele>
        <time>2019-05-12T07:28:08Z</time>
      </trkpt>
      <trkpt lat="47.18846" lon="-1.63831">
        <ele>6.28</ele>
        <time>2019-05-12T07:28:10Z</time>
      </trkpt>
      <trkpt lat="47.18853" lon="-1.63846">
        <ele>6.46</ele>
        <time>2019-05-12T07:28:12Z</time>
      </trkpt>
      <trkpt lat="47.18861" lon="-1.63863">
        <ele>6.85</ele>
        <time>2019-05-12T07:28:14Z</time>
      </trkpt>
      <trkpt lat="47.18868" lon="-1.63878">
        <ele>8.18</ele>
        <time>2019-05-12T07:28:16Z</time>
      </trkpt>
      <trkpt lat="47.18875" lon="-1.63891">
        <ele>9.33</ele>
        <time>2019-05-12T07:28:18Z</time>
      </trkpt>
      <trkpt lat="47.18884" lon="-1.63903">
        <ele>9.57</ele>
        <time>2019-05-12T07:28:20Z</time>
      </trkpt>
      <trkpt lat="47.18892" lon="-1.63917">
        <ele>8.99</ele>
        <time>2019-05-12T07:28:22Z</time>
      </trkpt>
      <trkpt lat="47.18901" lon="-1.63931">
        <ele>8.36</ele>
        <time>2019-05-12T07:28:24Z</time>
      </trkpt>
      <trkpt lat="47.18908" lon="-1.63941">
        <ele>6.69</ele>
        <time>2019-05-12T07:28:26Z</time>
      </trkpt>
      <trkpt lat="47.18916" lon="-1.63955">
        <ele>5.14</ele>
        <time>2019-05-12T07:28:28Z</time>
      </trkpt>
      <trkpt lat="47.18924" lon="-1.63967">
        <ele>5.43</ele>
        <time>2019-05-12T07:28:30Z</time>
      </trkpt>
      <trkpt lat="47.18932" lon="-1.63979">
        <ele>5.06</ele>
        <time>2019-05-12T07:28:32Z</time>
      </trkpt>
      <trkpt lat="47.18939" lon="-1.63989">
        <ele>4.43</ele>
        <time>2019-05-12T07:28:34Z</time>
      </trkpt>
      <trkpt lat="47.18948" lon="-1.64001">
        <ele>4.16</ele>
        <time>2019-05-12T07:28:36Z</time>
      </trkpt>
      <trkpt lat="47.18956" lon="-1.64014">
        <ele>4.42</ele>
        <time>2019-05-12T07:28:38Z</time>
      </trkpt>
      <trkpt lat="47.18965" lon="-1.6403">
        <ele>4.46</ele>
        <time>2019-05-12T07:28:40Z</time>
      </trkpt>
      <trkpt lat="47.18972" lon="-1.64043">
        <ele>4.35</ele>
        <time>2019-05-12T07:28:42Z</time>
      </trkpt>
      <trkpt lat="47.18978" lon="-1.64055">
        <ele>4.72</ele>
        <time>2019-05-12T07:28:44Z</time>
      </trkpt>
      <trkpt lat="47.18984" lon="-1.64065">
        <ele>4.84</ele>
        <time>2019-05-12T07:28:46Z</time>
      </trkpt>
      <trkpt lat="47.18991" lon="-1.64076">
        <ele>3.97</ele>
        <time>2019-05-12T07:28:48Z</time>
      </trkpt>
      <trkpt lat="47.18999" lon="-1.6409">
        <ele>3</ele>
        <time>2019-05-12T07:28:51Z</time>
      </trkpt>
      <trkpt lat="47.19008" lon="-1.64104">
        <ele>3.19</ele>
        <time>2019-05-12T07:28:54Z</time>
      </trkpt>
      <trkpt lat="47.19014" lon="-1.64114">
        <ele>3.41</ele>
        <time>2019-05-12T07:28:57Z</time>
      </trkpt>
      <trkpt lat="47.19023" lon="-1.64128">
        <ele>1.51</ele>
        <time>2019-05-12T07:29:00Z</time>
      </trkpt>
      <trkpt lat="47.1903" lon="-1.64138">
        <ele>0.81</ele>
        <time>2019-05-12T07:29:02Z</time>
      </trkpt>
      <trkpt lat="47.19037" lon="-1.6415">
        <ele>0.95</ele>
        <time>2019-05-12T07:29:04Z</time>
      </trkpt>
      <trkpt lat="47.19044" lon="-1.64161">
        <ele>2</ele>
        <time>2019-05-12T07:29:06Z</time>
      </trkpt>
      <trkpt lat="47.1905" lon="-1.64173">
        <ele>3.24</ele>
        <time>2019-05-12T07:29:08Z</time>
      </trkpt>
      <trkpt lat="47.19054" lon="-1.64188">
        <ele>4.07</ele>
        <time>2019-05-12T07:29:10Z</time>
      </trkpt>
      <trkpt lat="47.19051" lon="-1.64206">
        <ele>4.81</ele>
        <time>2019-05-12T07:29:12Z</time>
      </trkpt>
      <trkpt lat="47.19048" lon="-1.64223">
        <ele>5.3</ele>
        <time>2019-05-12T07:29:14Z</time>
      </trkpt>
      <trkpt lat="47.19044" lon="-1.64238">
        <ele>5.78</ele>
        <time>2019-05-12T07:29:16Z</time>
      </trkpt>
      <trkpt lat="47.1904" lon="-1.6426">
        <ele>6.3</ele>
        <time>2019-05-12T07:29:19Z</time>
      </trkpt>
      <trkpt lat="47.19039" lon="-1.64276">
        <ele>5.6</ele>
        <time>2019-05-12T07:29:21Z</time>
      </trkpt>
      <trkpt lat="47.19037" lon="-1.64292">
        <ele>4.89</ele>
        <time>2019-05-12T07:29:23Z</time>
      </trkpt>
      <trkpt lat="47.19037" lon="-1.64309">
        <ele>5.27</ele>
        <time>2019-05-12T07:29:26Z</time>
      </trkpt>
      <trkpt lat="47.19048" lon="-1.64316">
        <ele>4.53</ele>
        <time>2019-05-12T07:29:30Z</time>
      </trkpt>
      <trkpt lat="47.19061" lon="-1.64315">
        <ele>4.04</ele>
        <time>2019-05-12T07:29:33Z</time>
      </trkpt>
      <trkpt lat="47.19069" lon="-1.64324">
        <ele>4.22</ele>
        <time>2019-05-12T07:29:36Z</time>
      </trkpt>
      <trkpt lat="47.19067" lon="-1.64343">
        <ele>4.2</ele>
        <time>2019-05-12T07:29:39Z</time>
      </trkpt>
      <trkpt lat="47.19067" lon="-1.64358">
        <ele>4.14</ele>
        <time>2019-05-12T07:29:41Z</time>
      </trkpt>
      <trkpt lat="47.19066" lon="-1.64371">
        <ele>4.45</ele>
        <time>2019-05-12T07:29:43Z</time>
      </trkpt>
      <trkpt lat="47.19065" lon="-1.64384">
        <ele>6.16</ele>
        <time>2019-05-12T07:29:45Z</time>
      </trkpt>
      <trkpt lat="47.19061" lon="-1.64401">
        <ele>6.78</ele>
        <time>2019-05-12T07:29:47Z</time>
      </trkpt>
      <trkpt lat="47.19057" lon="-1.64415">
        <ele>6.97</ele>
        <time>2019-05-12T07:29:49Z</time>
      </trkpt>
      <trkpt lat="47.19048" lon="-1.64427">
        <ele>6.96</ele>
        <time>2019-05-12T07:29:52Z</time>
      </trkpt>
      <trkpt lat="47.19037" lon="-1.64428">
        <ele>7.39</ele>
        <time>2019-05-12T07:29:54Z</time>
      </trkpt>
      <trkpt lat="47.19025" lon="-1.64426">
        <ele>6.08</ele>
        <time>2019-05-12T07:29:56Z</time>
      </trkpt>
      <trkpt lat="47.19015" lon="-1.64429">
        <ele>5.41</ele>
        <time>2019-05-12T07:29:58Z</time>
      </trkpt>
      <trkpt lat="47.19012" lon="-1.64441">
        <ele>6.8</ele>
        <time>2019-05-12T07:30:00Z</time>
      </trkpt>
      <trkpt lat="47.19007" lon="-1.64455">
        <ele>7.12</ele>
        <time>2019-05-12T07:30:03Z</time>
      </trkpt>
      <trkpt lat="47.19001" lon="-1.64468">
        <ele>7.5</ele>
        <time>2019-05-12T07:30:07Z</time>
      </trkpt>
      <trkpt lat="47.18999" lon="-1.64481">
        <ele>7.63</ele>
        <time>2019-05-12T07:30:10Z</time>
      </trkpt>
      <trkpt lat="47.18998" lon="-1.64495">
        <ele>8</ele>
        <time>2019-05-12T07:30:13Z</time>
      </trkpt>
      <trkpt lat="47.18997" lon="-1.64514">
        <ele>8</ele>
        <time>2019-05-12T07:30:16Z</time>
      </trkpt>
      <trkpt lat="47.18996" lon="-1.64531">
        <ele>7.74</ele>
        <time>2019-05-12T07:30:19Z</time>
      </trkpt>
      <trkpt lat="47.18997" lon="-1.64551">
        <ele>9.16</ele>
        <time>2019-05-12T07:30:22Z</time>
      </trkpt>
      <trkpt lat="47.18998" lon="-1.64566">
        <ele>9.36</ele>
        <time>2019-05-12T07:30:24Z</time>
      </trkpt>
      <trkpt lat="47.18998" lon="-1.6458">
        <ele>9.32</ele>
        <time>2019-05-12T07:30:26Z</time>
      </trkpt>
      <trkpt lat="47.18999" lon="-1.64594">
        <ele>8.73</ele>
        <time>2019-05-12T07:30:28Z</time>
      </trkpt>
      <trkpt lat="47.18997" lon="-1.64609">
        <ele>8.64</ele>
        <time>2019-05-12T07:30:30Z</time>
      </trkpt>
      <trkpt lat="47.18994" lon="-1.64622">
        <ele>9.05</ele>
        <time>2019-05-12T07:30:32Z</time>
      </trkpt>
      <trkpt lat="47.18994" lon="-1.64641">
        <ele>8.63</ele>
        <time>2019-05-12T07:30:35Z</time>
      </trkpt>
      <trkpt lat="47.18993" lon="-1.64659">
        <ele>8.22</ele>
        <time>2019-05-12T07:30:38Z</time>
      </trkpt>
      <trkpt lat="47.18992" lon="-1.64677">
        <ele>7.17</ele>
        <time>2019-05-12T07:30:40Z</time>
      </trkpt>
      <trkpt lat="47.18993" lon="-1.64691">
        <ele>6.26</ele>
        <time>2019-05-12T07:30:42Z</time>
      </trkpt>
      <trkpt lat="47.18993" lon="-1.64707">
        <ele>6.16</ele>
        <time>2019-05-12T07:30:45Z</time>
      </trkpt>
      <trkpt lat="47.18993" lon="-1.64721">
        <ele>6.71</ele>
        <time>2019-05-12T07:30:47Z</time>
      </trkpt>
      <trkpt lat="47.18993" lon="-1.64739">
        <ele>9.81</ele>
        <time>2019-05-12T07:30:50Z</time>
      </trkpt>
      <trkpt lat="47.18992" lon="-1.64757">
        <ele>9.86</ele>
        <time>2019-05-12T07:30:53Z</time>
      </trkpt>
      <trkpt lat="47.1899" lon="-1.64775">
        <ele>9.23</ele>
        <time>2019-05-12T07:30:56Z</time>
      </trkpt>
      <trkpt lat="47.1899" lon="-1.64792">
        <ele>9.15</ele>
        <time>2019-05-12T07:30:59Z</time>
      </trkpt>
      <trkpt lat="47.1899" lon="-1.64808">
        <ele>8.56</ele>
        <time>2019-05-12T07:31:01Z</time>
      </trkpt>
      <trkpt lat="47.18989" lon="-1.64825">
        <ele>9.11</ele>
        <time>2019-05-12T07:31:04Z</time>
      </trkpt>
      <trkpt lat="47.18988" lon="-1.6484">
        <ele>9.21</ele>
        <time>2019-05-12T07:31:07Z</time>
      </trkpt>
      <trkpt lat="47.18987" lon="-1.64862">
        <ele>10.51</ele>
        <time>2019-05-12T07:31:10Z</time>
      </trkpt>
      <trkpt lat="47.18986" lon="-1.64881">
        <ele>10.57</ele>
        <time>2019-05-12T07:31:13Z</time>
      </trkpt>
      <trkpt lat="47.18988" lon="-1.649">
        <ele>11.05</ele>
        <time>2019-05-12T07:31:16Z</time>
      </trkpt>
      <trkpt lat="47.18989" lon="-1.64918">
        <ele>10.68</ele>
        <time>2019-05-12T07:31:19Z</time>
      </trkpt>
      <trkpt lat="47.18992" lon="-1.64931">
        <ele>9.93</ele>
        <time>2019-05-12T07:31:21Z</time>
      </trkpt>
      <trkpt lat="47.18995" lon="-1.64947">
        <ele>8.75</ele>
        <time>2019-05-12T07:31:23Z</time>
      </trkpt>
      <trkpt lat="47.18999" lon="-1.64962">
        <ele>8.08</ele>
        <time>2019-05-12T07:31:25Z</time>
      </trkpt>
      <trkpt lat="47.19002" lon="-1.64978">
        <ele>7.63</ele>
        <time>2019-05-12T07:31:27Z</time>
      </trkpt>
      <trkpt lat="47.19004" lon="-1.64995">
        <ele>6.94</ele>
        <time>2019-05-12T07:31:29Z</time>
      </trkpt>
      <trkpt lat="47.19004" lon="-1.65009">
        <ele>4.19</ele>
        <time>2019-05-12T07:31:31Z</time>
      </trkpt>
      <trkpt lat="47.19005" lon="-1.65024">
        <ele>2.47</ele>
        <time>2019-05-12T07:31:34Z</time>
      </trkpt>
      <trkpt lat="47.19011" lon="-1.65041">
        <ele>2.13</ele>
        <time>2019-05-12T07:31:38Z</time>
      </trkpt>
      <trkpt lat="47.19017" lon="-1.65057">
        <ele>-0.13</ele>
        <time>2019-05-12T07:31:41Z</time>
      </trkpt>
      <trkpt lat="47.19021" lon="-1.6507">
        <ele>3</ele>
        <time>2019-05-12T07:31:43Z</time>
      </trkpt>
      <trkpt lat="47.19019" lon="-1.65088">
        <ele>1.2</ele>
        <time>2019-05-12T07:31:46Z</time>
      </trkpt>
      <trkpt lat="47.19018" lon="-1.65104">
        <ele>3.73</ele>
        <time>2019-05-12T07:31:49Z</time>
      </trkpt>
      <trkpt lat="47.19019" lon="-1.65121">
        <ele>6.18</ele>
        <time>2019-05-12T07:31:52Z</time>
      </trkpt>
      <trkpt lat="47.19016" lon="-1.65136">
        <ele>6.52</ele>
        <time>2019-05-12T07:31:55Z</time>
      </trkpt>
      <trkpt lat="47.19011" lon="-1.65148">
        <ele>6.63</ele>
        <time>2019-05-12T07:31:58Z</time>
      </trkpt>
      <trkpt lat="47.19014" lon="-1.65165">
        <ele>5.59</ele>
        <time>2019-05-12T07:32:01Z</time>
      </trkpt>
      <trkpt lat="47.19015" lon="-1.65179">
        <ele>4.98</ele>
        <time>2019-05-12T07:32:03Z</time>
      </trkpt>
      <trkpt lat="47.19014" lon="-1.65196">
        <ele>3.83</ele>
        <time>2019-05-12T07:32:05Z</time>
      </trkpt>
      <trkpt lat="47.19014" lon="-1.65215">
        <ele>3.81</ele>
        <time>2019-05-12T07:32:08Z</time>
      </trkpt>
      <trkpt lat="47.19018" lon="-1.65233">
        <ele>4.61</ele>
        <time>2019-05-12T07:32:11Z</time>
      </trkpt>
      <trkpt lat="47.19022" lon="-1.65246">
        <ele>4.63</ele>
        <time>2019-05-12T07:32:14Z</time>
      </trkpt>
      <trkpt lat="47.19017" lon="-1.65257">
        <ele>4.56</ele>
        <time>2019-05-12T07:32:18Z</time>
      </trkpt>
      <trkpt lat="47.19011" lon="-1.65267">
        <ele>4.55</ele>
        <time>2019-05-12T07:32:21Z</time>
      </trkpt>
      <trkpt lat="47.19" lon="-1.65273">
        <ele>4.89</ele>
        <time>2019-05-12T07:32:25Z</time>
      </trkpt>
      <trkpt lat="47.18988" lon="-1.65277">
        <ele>5.2</ele>
        <time>2019-05-12T07:32:29Z</time>
      </trkpt>
      <trkpt lat="47.18978" lon="-1.65281">
        <ele>5.35</ele>
        <time>2019-05-12T07:32:32Z</time>
      </trkpt>
      <trkpt lat="47.18967" lon="-1.65281">
        <ele>5.52</ele>
        <time>2019-05-12T07:32:35Z</time>
      </trkpt>
      <trkpt lat="47.18958" lon="-1.65277">
        <ele>5.5</ele>
        <time>2019-05-12T07:32:37Z</time>
      </trkpt>
      <trkpt lat="47.18948" lon="-1.6527">
        <ele>5.22</ele>
        <time>2019-05-12T07:32:40Z</time>
      </trkpt>
      <trkpt lat="47.18936" lon="-1.65263">
        <ele>5.3</ele>
        <time>2019-05-12T07:32:43Z</time>
      </trkpt>
      <trkpt lat="47.18926" lon="-1.65258">
        <ele>5.15</ele>
        <time>2019-05-12T07:32:45Z</time>
      </trkpt>
      <trkpt lat="47.18917" lon="-1.65252">
        <ele>5.13</ele>
        <time>2019-05-12T07:32:47Z</time>
      </trkpt>
      <trkpt lat="47.18907" lon="-1.65246">
        <ele>5</ele>
        <time>2019-05-12T07:32:49Z</time>
      </trkpt>
      <trkpt lat="47.18898" lon="-1.6524">
        <ele>3.54</ele>
        <time>2019-05-12T07:32:51Z</time>
      </trkpt>
      <trkpt lat="47.18887" lon="-1.65235">
        <ele>2.28</ele>
        <time>2019-05-12T07:32:53Z</time>
      </trkpt>
      <trkpt lat="47.18875" lon="-1.65227">
        <ele>-0.82</ele>
        <time>2019-05-12T07:32:56Z</time>
      </trkpt>
      <trkpt lat="47.18863" lon="-1.65222">
        <ele>-1.29</ele>
        <time>2019-05-12T07:32:59Z</time>
      </trkpt>
      <trkpt lat="47.18852" lon="-1.65216">
        <ele>-1.62</ele>
        <time>2019-05-12T07:33:01Z</time>
      </trkpt>
      <trkpt lat="47.18841" lon="-1.65206">
        <ele>-2.89</ele>
        <time>2019-05-12T07:33:03Z</time>
      </trkpt>
      <trkpt lat="47.18831" lon="-1.65198">
        <ele>-2.97</ele>
        <time>2019-05-12T07:33:05Z</time>
      </trkpt>
      <trkpt lat="47.18823" lon="-1.65192">
        <ele>-3</ele>
        <time>2019-05-12T07:33:07Z</time>
      </trkpt>
      <trkpt lat="47.18812" lon="-1.65184">
        <ele>-2.89</ele>
        <time>2019-05-12T07:33:10Z</time>
      </trkpt>
      <trkpt lat="47.18803" lon="-1.65175">
        <ele>-2.4</ele>
        <time>2019-05-12T07:33:13Z</time>
      </trkpt>
      <trkpt lat="47.18795" lon="-1.65169">
        <ele>-2.17</ele>
        <time>2019-05-12T07:33:15Z</time>
      </trkpt>
      <trkpt lat="47.18785" lon="-1.65161">
        <ele>-1.9</ele>
        <time>2019-05-12T07:33:18Z</time>
      </trkpt>
      <trkpt lat="47.18776" lon="-1.65153">
        <ele>-1.65</ele>
        <time>2019-05-12T07:33:21Z</time>
      </trkpt>
      <trkpt lat="47.18766" lon="-1.65145">
        <ele>-1.47</ele>
        <time>2019-05-12T07:33:24Z</time>
      </trkpt>
      <trkpt lat="47.18757" lon="-1.65141">
        <ele>-1.38</ele>
        <time>2019-05-12T07:33:27Z</time>
      </trkpt>
      <trkpt lat="47.18747" lon="-1.65138">
        <ele>-1.06</ele>
        <time>2019-05-12T07:33:30Z</time>
      </trkpt>
      <trkpt lat="47.18736" lon="-1.65133">
        <ele>-0.64</ele>
        <time>2019-05-12T07:33:33Z</time>
      </trkpt>
      <trkpt lat="47.18724" lon="-1.65128">
        <ele>-0.4</ele>
        <time>2019-05-12T07:33:36Z</time>
      </trkpt>
      <trkpt lat="47.18715" lon="-1.6512">
        <ele>0.08</ele>
        <time>2019-05-12T07:33:39Z</time>
      </trkpt>
      <trkpt lat="47.18704" lon="-1.65115">
        <ele>0.43</ele>
        <time>2019-05-12T07:33:42Z</time>
      </trkpt>
      <trkpt lat="47.1869" lon="-1.65111">
        <ele>0.55</ele>
        <time>2019-05-12T07:33:45Z</time>
      </trkpt>
      <trkpt lat="47.18681" lon="-1.65108">
        <ele>0.87</ele>
        <time>2019-05-12T07:33:48Z</time>
      </trkpt>
      <trkpt lat="47.18669" lon="-1.65103">
        <ele>0.99</ele>
        <time>2019-05-12T07:33:51Z</time>
      </trkpt>
      <trkpt lat="47.18659" lon="-1.65097">
        <ele>0.84</ele>
        <time>2019-05-12T07:33:54Z</time>
      </trkpt>
      <trkpt lat="47.18647" lon="-1.65092">
        <ele>0.96</ele>
        <time>2019-05-12T07:33:57Z</time>
      </trkpt>
      <trkpt lat="47.18638" lon="-1.6509">
        <ele>0.93</ele>
        <time>2019-05-12T07:33:59Z</time>
      </trkpt>
      <trkpt lat="47.18627" lon="-1.65085">
        <ele>0.64</ele>
        <time>2019-05-12T07:34:02Z</time>
      </trkpt>
      <trkpt lat="47.18614" lon="-1.6508">
        <ele>0.27</ele>
        <time>2019-05-12T07:34:05Z</time>
      </trkpt>
      <trkpt lat="47.18605" lon="-1.65074">
        <ele>-0.13</ele>
        <time>2019-05-12T07:34:07Z</time>
      </trkpt>
      <trkpt lat="47.18595" lon="-1.6507">
        <ele>-0.26</ele>
        <time>2019-05-12T07:34:10Z</time>
      </trkpt>
      <trkpt lat="47.18585" lon="-1.65067">
        <ele>-0.17</ele>
        <time>2019-05-12T07:34:14Z</time>
      </trkpt>
      <trkpt lat="47.18574" lon="-1.65064">
        <ele>0.28</ele>
        <time>2019-05-12T07:34:17Z</time>
      </trkpt>
      <trkpt lat="47.18561" lon="-1.65058">
        <ele>0.52</ele>
        <time>2019-05-12T07:34:20Z</time>
      </trkpt>
      <trkpt lat="47.18552" lon="-1.65052">
        <ele>0.71</ele>
        <time>2019-05-12T07:34:22Z</time>
      </trkpt>
      <trkpt lat="47.18544" lon="-1.65047">
        <ele>0.94</ele>
        <time>2019-05-12T07:34:24Z</time>
      </trkpt>
      <trkpt lat="47.18533" lon="-1.65038">
        <ele>1.33</ele>
        <time>2019-05-12T07:34:27Z</time>
      </trkpt>
      <trkpt lat="47.18521" lon="-1.65028">
        <ele>2.94</ele>
        <time>2019-05-12T07:34:30Z</time>
      </trkpt>
      <trkpt lat="47.18512" lon="-1.6502">
        <ele>3.2</ele>
        <time>2019-05-12T07:34:32Z</time>
      </trkpt>
      <trkpt lat="47.18504" lon="-1.65009">
        <ele>3.56</ele>
        <time>2019-05-12T07:34:34Z</time>
      </trkpt>
      <trkpt lat="47.18493" lon="-1.64998">
        <ele>2.99</ele>
        <time>2019-05-12T07:34:36Z</time>
      </trkpt>
      <trkpt lat="47.18482" lon="-1.64986">
        <ele>2.2</ele>
        <time>2019-05-12T07:34:38Z</time>
      </trkpt>
      <trkpt lat="47.18472" lon="-1.64978">
        <ele>2.88</ele>
        <time>2019-05-12T07:34:40Z</time>
      </trkpt>
      <trkpt lat="47.18464" lon="-1.6497">
        <ele>3.51</ele>
        <time>2019-05-12T07:34:42Z</time>
      </trkpt>
      <trkpt lat="47.18454" lon="-1.64962">
        <ele>3.51</ele>
        <time>2019-05-12T07:34:44Z</time>
      </trkpt>
      <trkpt lat="47.18443" lon="-1.64953">
        <ele>4.15</ele>
        <time>2019-05-12T07:34:46Z</time>
      </trkpt>
      <trkpt lat="47.18437" lon="-1.64943">
        <ele>4.06</ele>
        <time>2019-05-12T07:34:48Z</time>
      </trkpt>
      <trkpt lat="47.1843" lon="-1.64934">
        <ele>3.9</ele>
        <time>2019-05-12T07:34:50Z</time>
      </trkpt>
      <trkpt lat="47.18426" lon="-1.64918">
        <ele>3.71</ele>
        <time>2019-05-12T07:34:53Z</time>
      </trkpt>
      <trkpt lat="47.18425" lon="-1.64904">
        <ele>3.79</ele>
        <time>2019-05-12T07:34:55Z</time>
      </trkpt>
      <trkpt lat="47.18417" lon="-1.64895">
        <ele>4.28</ele>
        <time>2019-05-12T07:34:58Z</time>
      </trkpt>
      <trkpt lat="47.18414" lon="-1.64907">
        <ele>4.82</ele>
        <time>2019-05-12T07:35:07Z</time>
      </trkpt>
      <trkpt lat="47.18413" lon="-1.64921">
        <ele>4.9</ele>
        <time>2019-05-12T07:35:12Z</time>
      </trkpt>
      <trkpt lat="47.18414" lon="-1.64937">
        <ele>5.15</ele>
        <time>2019-05-12T07:35:16Z</time>
      </trkpt>
      <trkpt lat="47.1841" lon="-1.6495">
        <ele>5.41</ele>
        <time>2019-05-12T07:35:19Z</time>
      </trkpt>
      <trkpt lat="47.18406" lon="-1.64965">
        <ele>5.66</ele>
        <time>2019-05-12T07:35:22Z</time>
      </trkpt>
      <trkpt lat="47.184" lon="-1.64979">
        <ele>5.93</ele>
        <time>2019-05-12T07:35:25Z</time>
      </trkpt>
      <trkpt lat="47.18394" lon="-1.64991">
        <ele>6.17</ele>
        <time>2019-05-12T07:35:28Z</time>
      </trkpt>
      <trkpt lat="47.18388" lon="-1.65008">
        <ele>6.58</ele>
        <time>2019-05-12T07:35:31Z</time>
      </trkpt>
      <trkpt lat="47.18384" lon="-1.6502">
        <ele>6.66</ele>
        <time>2019-05-12T07:35:33Z</time>
      </trkpt>
      <trkpt lat="47.18383" lon="-1.65037">
        <ele>6.17</ele>
        <time>2019-05-12T07:35:35Z</time>
      </trkpt>
      <trkpt lat="47.18384" lon="-1.65054">
        <ele>5.2</ele>
        <time>2019-05-12T07:35:37Z</time>
      </trkpt>
      <trkpt lat="47.1839" lon="-1.65068">
        <ele>5.97</ele>
        <time>2019-05-12T07:35:39Z</time>
      </trkpt>
      <trkpt lat="47.18399" lon="-1.65077">
        <ele>4.93</ele>
        <time>2019-05-12T07:35:42Z</time>
      </trkpt>
      <trkpt lat="47.18411" lon="-1.65087">
        <ele>6.15</ele>
        <time>2019-05-12T07:35:45Z</time>
      </trkpt>
      <trkpt lat="47.18419" lon="-1.65098">
        <ele>6.88</ele>
        <time>2019-05-12T07:35:47Z</time>
      </trkpt>
      <trkpt lat="47.18427" lon="-1.65109">
        <ele>7.29</ele>
        <time>2019-05-12T07:35:49Z</time>
      </trkpt>
      <trkpt lat="47.18434" lon="-1.65124">
        <ele>7.69</ele>
        <time>2019-05-12T07:35:52Z</time>
      </trkpt>
      <trkpt lat="47.18442" lon="-1.65141">
        <ele>8.53</ele>
        <time>2019-05-12T07:35:54Z</time>
      </trkpt>
      <trkpt lat="47.18446" lon="-1.65157">
        <ele>8.83</ele>
        <time>2019-05-12T07:35:56Z</time>
      </trkpt>
      <trkpt lat="47.18449" lon="-1.65174">
        <ele>8.65</ele>
        <time>2019-05-12T07:35:58Z</time>
      </trkpt>
      <trkpt lat="47.18453" lon="-1.6519">
        <ele>8.02</ele>
        <time>2019-05-12T07:36:00Z</time>
      </trkpt>
      <trkpt lat="47.18456" lon="-1.65205">
        <ele>5.67</ele>
        <time>2019-05-12T07:36:02Z</time>
      </trkpt>
      <trkpt lat="47.1846" lon="-1.65222">
        <ele>5.46</ele>
        <time>2019-05-12T07:36:05Z</time>
      </trkpt>
      <trkpt lat="47.18465" lon="-1.65235">
        <ele>5.6</ele>
        <time>2019-05-12T07:36:07Z</time>
      </trkpt>
      <trkpt lat="47.18469" lon="-1.65253">
        <ele>5.69</ele>
        <time>2019-05-12T07:36:10Z</time>
      </trkpt>
      <trkpt lat="47.18469" lon="-1.65269">
        <ele>5.87</ele>
        <time>2019-05-12T07:36:13Z</time>
      </trkpt>
      <trkpt lat="47.18469" lon="-1.65286">
        <ele>6.82</ele>
        <time>2019-05-12T07:36:16Z</time>
      </trkpt>
      <trkpt lat="47.18468" lon="-1.65299">
        <ele>7.57</ele>
        <time>2019-05-12T07:36:18Z</time>
      </trkpt>
      <trkpt lat="47.1847" lon="-1.65316">
        <ele>7.64</ele>
        <time>2019-05-12T07:36:21Z</time>
      </trkpt>
      <trkpt lat="47.18471" lon="-1.65334">
        <ele>7.93</ele>
        <time>2019-05-12T07:36:24Z</time>
      </trkpt>
      <trkpt lat="47.18474" lon="-1.65346">
        <ele>8.13</ele>
        <time>2019-05-12T07:36:27Z</time>
      </trkpt>
      <trkpt lat="47.18478" lon="-1.65364">
        <ele>8.19</ele>
        <time>2019-05-12T07:36:31Z</time>
      </trkpt>
      <trkpt lat="47.18482" lon="-1.65377">
        <ele>8.37</ele>
        <time>2019-05-12T07:36:34Z</time>
      </trkpt>
      <trkpt lat="47.18487" lon="-1.65389">
        <ele>8.49</ele>
        <time>2019-05-12T07:36:37Z</time>
      </trkpt>
      <trkpt lat="47.18493" lon="-1.65405">
        <ele>8.65</ele>
        <time>2019-05-12T07:36:40Z</time>
      </trkpt>
      <trkpt lat="47.18498" lon="-1.65417">
        <ele>8.81</ele>
        <time>2019-05-12T07:36:42Z</time>
      </trkpt>
      <trkpt lat="47.18504" lon="-1.6543">
        <ele>8.95</ele>
        <time>2019-05-12T07:36:45Z</time>
      </trkpt>
      <trkpt lat="47.18512" lon="-1.65444">
        <ele>8.62</ele>
        <time>2019-05-12T07:36:48Z</time>
      </trkpt>
      <trkpt lat="47.18519" lon="-1.65455">
        <ele>8.15</ele>
        <time>2019-05-12T07:36:50Z</time>
      </trkpt>
      <trkpt lat="47.18525" lon="-1.65465">
        <ele>7.88</ele>
        <time>2019-05-12T07:36:52Z</time>
      </trkpt>
      <trkpt lat="47.1853" lon="-1.65478">
        <ele>7.62</ele>
        <time>2019-05-12T07:36:57Z</time>
      </trkpt>
      <trkpt lat="47.18539" lon="-1.6549">
        <ele>7.29</ele>
        <time>2019-05-12T07:37:01Z</time>
      </trkpt>
      <trkpt lat="47.18547" lon="-1.655">
        <ele>7.35</ele>
        <time>2019-05-12T07:37:03Z</time>
      </trkpt>
      <trkpt lat="47.18558" lon="-1.65511">
        <ele>7.43</ele>
        <time>2019-05-12T07:37:05Z</time>
      </trkpt>
      <trkpt lat="47.18565" lon="-1.65519">
        <ele>6.08</ele>
        <time>2019-05-12T07:37:07Z</time>
      </trkpt>
      <trkpt lat="47.18572" lon="-1.65537">
        <ele>6.65</ele>
        <time>2019-05-12T07:37:10Z</time>
      </trkpt>
      <trkpt lat="47.18563" lon="-1.65551">
        <ele>6.55</ele>
        <time>2019-05-12T07:37:13Z</time>
      </trkpt>
      <trkpt lat="47.1855" lon="-1.65553">
        <ele>5.98</ele>
        <time>2019-05-12T07:37:15Z</time>
      </trkpt>
      <trkpt lat="47.18539" lon="-1.65555">
        <ele>6.32</ele>
        <time>2019-05-12T07:37:17Z</time>
      </trkpt>
      <trkpt lat="47.18529" lon="-1.65563">
        <ele>7.02</ele>
        <time>2019-05-12T07:37:20Z</time>
      </trkpt>
      <trkpt lat="47.18532" lon="-1.65578">
        <ele>7.59</ele>
        <time>2019-05-12T07:37:22Z</time>
      </trkpt>
      <trkpt lat="47.18538" lon="-1.65594">
        <ele>8.37</ele>
        <time>2019-05-12T07:37:24Z</time>
      </trkpt>
      <trkpt lat="47.18545" lon="-1.65602">
        <ele>9.1</ele>
        <time>2019-05-12T07:37:26Z</time>
      </trkpt>
      <trkpt lat="47.18556" lon="-1.65606">
        <ele>9.08</ele>
        <time>2019-05-12T07:37:28Z</time>
      </trkpt>
      <trkpt lat="47.18566" lon="-1.65611">
        <ele>8.89</ele>
        <time>2019-05-12T07:37:30Z</time>
      </trkpt>
      <trkpt lat="47.18575" lon="-1.65622">
        <ele>7.56</ele>
        <time>2019-05-12T07:37:32Z</time>
      </trkpt>
      <trkpt lat="47.18578" lon="-1.65638">
        <ele>6.54</ele>
        <time>2019-05-12T07:37:34Z</time>
      </trkpt>
      <trkpt lat="47.18583" lon="-1.65652">
        <ele>6.41</ele>
        <time>2019-05-12T07:37:36Z</time>
      </trkpt>
      <trkpt lat="47.1859" lon="-1.65662">
        <ele>6.26</ele>
        <time>2019-05-12T07:37:38Z</time>
      </trkpt>
      <trkpt lat="47.18599" lon="-1.65672">
        <ele>7.21</ele>
        <time>2019-05-12T07:37:40Z</time>
      </trkpt>
      <trkpt lat="47.18606" lon="-1.65683">
        <ele>7.06</ele>
        <time>2019-05-12T07:37:42Z</time>
      </trkpt>
      <trkpt lat="47.1861" lon="-1.657">
        <ele>6.87</ele>
        <time>2019-05-12T07:37:45Z</time>
      </trkpt>
      <trkpt lat="47.18615" lon="-1.65713">
        <ele>6.76</ele>
        <time>2019-05-12T07:37:48Z</time>
      </trkpt>
      <trkpt lat="47.1862" lon="-1.65724">
        <ele>6.66</ele>
        <time>2019-05-12T07:37:51Z</time>
      </trkpt>
      <trkpt lat="47.18626" lon="-1.65742">
        <ele>6.65</ele>
        <time>2019-05-12T07:37:54Z</time>
      </trkpt>
      <trkpt lat="47.18632" lon="-1.65756">
        <ele>6.6</ele>
        <time>2019-05-12T07:37:58Z</time>
      </trkpt>
      <trkpt lat="47.18638" lon="-1.65767">
        <ele>6.34</ele>
        <time>2019-05-12T07:38:01Z</time>
      </trkpt>
      <trkpt lat="47.18644" lon="-1.6578">
        <ele>6.19</ele>
        <time>2019-05-12T07:38:04Z</time>
      </trkpt>
      <trkpt lat="47.18651" lon="-1.65792">
        <ele>6.21</ele>
        <time>2019-05-12T07:38:07Z</time>
      </trkpt>
      <trkpt lat="47.18659" lon="-1.65802">
        <ele>6.31</ele>
        <time>2019-05-12T07:38:10Z</time>
      </trkpt>
      <trkpt lat="47.18665" lon="-1.65813">
        <ele>6.65</ele>
        <time>2019-05-12T07:38:13Z</time>
      </trkpt>
      <trkpt lat="47.18673" lon="-1.65825">
        <ele>6.78</ele>
        <time>2019-05-12T07:38:16Z</time>
      </trkpt>
      <trkpt lat="47.18682" lon="-1.65838">
        <ele>6.72</ele>
        <time>2019-05-12T07:38:19Z</time>
      </trkpt>
      <trkpt lat="47.18692" lon="-1.65849">
        <ele>6.78</ele>
        <time>2019-05-12T07:38:22Z</time>
      </trkpt>
      <trkpt lat="47.18702" lon="-1.65862">
        <ele>8.06</ele>
        <time>2019-05-12T07:38:25Z</time>
      </trkpt>
      <trkpt lat="47.18708" lon="-1.65874">
        <ele>8.3</ele>
        <time>2019-05-12T07:38:27Z</time>
      </trkpt>
      <trkpt lat="47.18714" lon="-1.65888">
        <ele>8.35</ele>
        <time>2019-05-12T07:38:30Z</time>
      </trkpt>
      <trkpt lat="47.18718" lon="-1.65901">
        <ele>8.61</ele>
        <time>2019-05-12T07:38:32Z</time>
      </trkpt>
      <trkpt lat="47.18722" lon="-1.65917">
        <ele>8.61</ele>
        <time>2019-05-12T07:38:35Z</time>
      </trkpt>
      <trkpt lat="47.18723" lon="-1.65934">
        <ele>8.69</ele>
        <time>2019-05-12T07:38:38Z</time>
      </trkpt>
      <trkpt lat="47.18722" lon="-1.65953">
        <ele>8.59</ele>
        <time>2019-05-12T07:38:41Z</time>
      </trkpt>
      <trkpt lat="47.18724" lon="-1.65968">
        <ele>8.33</ele>
        <time>2019-05-12T07:38:44Z</time>
      </trkpt>
      <trkpt lat="47.1873" lon="-1.65983">
        <ele>6.42</ele>
        <time>2019-05-12T07:38:47Z</time>
      </trkpt>
      <trkpt lat="47.18736" lon="-1.65998">
        <ele>6.06</ele>
        <time>2019-05-12T07:38:50Z</time>
      </trkpt>
      <trkpt lat="47.18745" lon="-1.66009">
        <ele>5.73</ele>
        <time>2019-05-12T07:38:53Z</time>
      </trkpt>
      <trkpt lat="47.18753" lon="-1.6602">
        <ele>5.56</ele>
        <time>2019-05-12T07:38:56Z</time>
      </trkpt>
      <trkpt lat="47.18759" lon="-1.6603">
        <ele>5.51</ele>
        <time>2019-05-12T07:38:58Z</time>
      </trkpt>
      <trkpt lat="47.18764" lon="-1.66041">
        <ele>5.58</ele>
        <time>2019-05-12T07:39:00Z</time>
      </trkpt>
      <trkpt lat="47.18767" lon="-1.66055">
        <ele>5.81</ele>
        <time>2019-05-12T07:39:03Z</time>
      </trkpt>
      <trkpt lat="47.18768" lon="-1.6607">
        <ele>5.89</ele>
        <time>2019-05-12T07:39:06Z</time>
      </trkpt>
      <trkpt lat="47.1877" lon="-1.66085">
        <ele>5.82</ele>
        <time>2019-05-12T07:39:09Z</time>
      </trkpt>
      <trkpt lat="47.18771" lon="-1.661">
        <ele>6.04</ele>
        <time>2019-05-12T07:39:13Z</time>
      </trkpt>
      <trkpt lat="47.18768" lon="-1.66114">
        <ele>7.51</ele>
        <time>2019-05-12T07:39:47Z</time>
      </trkpt>
      <trkpt lat="47.18772" lon="-1.66129">
        <ele>7.79</ele>
        <time>2019-05-12T07:39:52Z</time>
      </trkpt>
      <trkpt lat="47.18777" lon="-1.66144">
        <ele>8.55</ele>
        <time>2019-05-12T07:39:57Z</time>
      </trkpt>
      <trkpt lat="47.1878" lon="-1.66157">
        <ele>9.16</ele>
        <time>2019-05-12T07:40:04Z</time>
      </trkpt>
      <trkpt lat="47.18783" lon="-1.66171">
        <ele>9.36</ele>
        <time>2019-05-12T07:40:10Z</time>
      </trkpt>
      <trkpt lat="47.18778" lon="-1.66186">
        <ele>8.74</ele>
        <time>2019-05-12T07:40:15Z</time>
      </trkpt>
      <trkpt lat="47.18772" lon="-1.662">
        <ele>8.74</ele>
        <time>2019-05-12T07:40:19Z</time>
      </trkpt>
      <trkpt lat="47.18762" lon="-1.66207">
        <ele>8.69</ele>
        <time>2019-05-12T07:40:22Z</time>
      </trkpt>
      <trkpt lat="47.18752" lon="-1.66207">
        <ele>8.33</ele>
        <time>2019-05-12T07:40:25Z</time>
      </trkpt>
      <trkpt lat="47.18743" lon="-1.66207">
        <ele>7.82</ele>
        <time>2019-05-12T07:40:28Z</time>
      </trkpt>
      <trkpt lat="47.18734" lon="-1.66202">
        <ele>6.8</ele>
        <time>2019-05-12T07:40:33Z</time>
      </trkpt>
      <trkpt lat="47.18725" lon="-1.66192">
        <ele>6.01</ele>
        <time>2019-05-12T07:40:39Z</time>
      </trkpt>
      <trkpt lat="47.18717" lon="-1.66188">
        <ele>5.66</ele>
        <time>2019-05-12T07:40:44Z</time>
      </trkpt>
      <trkpt lat="47.18708" lon="-1.66184">
        <ele>5.65</ele>
        <time>2019-05-12T07:40:49Z</time>
      </trkpt>
      <trkpt lat="47.18698" lon="-1.66179">
        <ele>5.77</ele>
        <time>2019-05-12T07:40:55Z</time>
      </trkpt>
      <trkpt lat="47.18689" lon="-1.66173">
        <ele>6.01</ele>
        <time>2019-05-12T07:41:00Z</time>
      </trkpt>
      <trkpt lat="47.1868" lon="-1.66166">
        <ele>6.9</ele>
        <time>2019-05-12T07:41:04Z</time>
      </trkpt>
      <trkpt lat="47.18671" lon="-1.66161">
        <ele>8.07</ele>
        <time>2019-05-12T07:41:08Z</time>
      </trkpt>
      <trkpt lat="47.18663" lon="-1.66156">
        <ele>9.43</ele>
        <time>2019-05-12T07:41:13Z</time>
      </trkpt>
      <trkpt lat="47.18653" lon="-1.66147">
        <ele>10.69</ele>
        <time>2019-05-12T07:41:18Z</time>
      </trkpt>
      <trkpt lat="47.18643" lon="-1.66143">
        <ele>11.78</ele>
        <time>2019-05-12T07:41:22Z</time>
      </trkpt>
      <trkpt lat="47.18631" lon="-1.66138">
        <ele>12.47</ele>
        <time>2019-05-12T07:41:27Z</time>
      </trkpt>
      <trkpt lat="47.18622" lon="-1.66136">
        <ele>12.81</ele>
        <time>2019-05-12T07:41:31Z</time>
      </trkpt>
      <trkpt lat="47.18614" lon="-1.66129">
        <ele>14.04</ele>
        <time>2019-05-12T07:41:37Z</time>
      </trkpt>
      <trkpt lat="47.18607" lon="-1.6612">
        <ele>15.08</ele>
        <time>2019-05-12T07:41:43Z</time>
      </trkpt>
      <trkpt lat="47.186" lon="-1.66112">
        <ele>15.96</ele>
        <time>2019-05-12T07:41:46Z</time>
      </trkpt>
      <trkpt lat="47.18591" lon="-1.66103">
        <ele>17.21</ele>
        <time>2019-05-12T07:41:51Z</time>
      </trkpt>
      <trkpt lat="47.18581" lon="-1.66096">
        <ele>18.45</ele>
        <time>2019-05-12T07:41:57Z</time>
      </trkpt>
      <trkpt lat="47.18575" lon="-1.66087">
        <ele>19.42</ele>
        <time>2019-05-12T07:42:02Z</time>
      </trkpt>
      <trkpt lat="47.18566" lon="-1.66084">
        <ele>21.39</ele>
        <time>2019-05-12T07:42:09Z</time>
      </trkpt>
      <trkpt lat="47.18555" lon="-1.66083">
        <ele>22.94</ele>
        <time>2019-05-12T07:42:15Z</time>
      </trkpt>
      <trkpt lat="47.18546" lon="-1.66084">
        <ele>24.21</ele>
        <time>2019-05-12T07:42:25Z</time>
      </trkpt>
      <trkpt lat="47.18535" lon="-1.66087">
        <ele>24.62</ele>
        <time>2019-05-12T07:42:28Z</time>
      </trkpt>
      <trkpt lat="47.18526" lon="-1.66087">
        <ele>25.02</ele>
        <time>2019-05-12T07:42:31Z</time>
      </trkpt>
      <trkpt lat="47.18517" lon="-1.66091">
        <ele>24.6</ele>
        <time>2019-05-12T07:42:41Z</time>
      </trkpt>
      <trkpt lat="47.18515" lon="-1.66077">
        <ele>23.08</ele>
        <time>2019-05-12T07:43:20Z</time>
      </trkpt>
      <trkpt lat="47.18509" lon="-1.66087">
        <ele>30.52</ele>
        <time>2019-05-12T07:48:25Z</time>
      </trkpt>
      <trkpt lat="47.185" lon="-1.66094">
        <ele>30.55</ele>
        <time>2019-05-12T07:48:31Z</time>
      </trkpt>
      <trkpt lat="47.18492" lon="-1.66102">
        <ele>30.38</ele>
        <time>2019-05-12T07:48:35Z</time>
      </trkpt>
      <trkpt lat="47.18485" lon="-1.6611">
        <ele>30.3</ele>
        <time>2019-05-12T07:48:38Z</time>
      </trkpt>
      <trkpt lat="47.18475" lon="-1.6612">
        <ele>30.21</ele>
        <time>2019-05-12T07:48:40Z</time>
      </trkpt>
      <trkpt lat="47.18464" lon="-1.66132">
        <ele>30.2</ele>
        <time>2019-05-12T07:48:43Z</time>
      </trkpt>
      <trkpt lat="47.18455" lon="-1.66143">
        <ele>30.2</ele>
        <time>2019-05-12T07:48:46Z</time>
      </trkpt>
      <trkpt lat="47.18446" lon="-1.66154">
        <ele>30.13</ele>
        <time>2019-05-12T07:48:49Z</time>
      </trkpt>
      <trkpt lat="47.18437" lon="-1.66165">
        <ele>30.08</ele>
        <time>2019-05-12T07:48:52Z</time>
      </trkpt>
      <trkpt lat="47.18426" lon="-1.66172">
        <ele>30.07</ele>
        <time>2019-05-12T07:48:55Z</time>
      </trkpt>
      <trkpt lat="47.18417" lon="-1.66178">
        <ele>29.93</ele>
        <time>2019-05-12T07:48:58Z</time>
      </trkpt>
      <trkpt lat="47.18407" lon="-1.66183">
        <ele>29.93</ele>
        <time>2019-05-12T07:49:01Z</time>
      </trkpt>
      <trkpt lat="47.18397" lon="-1.66192">
        <ele>30.02</ele>
        <time>2019-05-12T07:49:04Z</time>
      </trkpt>
      <trkpt lat="47.18389" lon="-1.66201">
        <ele>30.25</ele>
        <time>2019-05-12T07:49:07Z</time>
      </trkpt>
      <trkpt lat="47.18381" lon="-1.66214">
        <ele>31</ele>
        <time>2019-05-12T07:49:13Z</time>
      </trkpt>
      <trkpt lat="47.1837" lon="-1.66218">
        <ele>31.5</ele>
        <time>2019-05-12T07:49:17Z</time>
      </trkpt>
      <trkpt lat="47.18358" lon="-1.66221">
        <ele>31.62</ele>
        <time>2019-05-12T07:49:21Z</time>
      </trkpt>
      <trkpt lat="47.18348" lon="-1.66224">
        <ele>31.8</ele>
        <time>2019-05-12T07:49:24Z</time>
      </trkpt>
      <trkpt lat="47.1834" lon="-1.66227">
        <ele>32.04</ele>
        <time>2019-05-12T07:49:27Z</time>
      </trkpt>
      <trkpt lat="47.18332" lon="-1.66234">
        <ele>32.32</ele>
        <time>2019-05-12T07:49:30Z</time>
      </trkpt>
      <trkpt lat="47.18323" lon="-1.66241">
        <ele>32.58</ele>
        <time>2019-05-12T07:49:32Z</time>
      </trkpt>
      <trkpt lat="47.18315" lon="-1.66246">
        <ele>32.99</ele>
        <time>2019-05-12T07:49:35Z</time>
      </trkpt>
      <trkpt lat="47.18307" lon="-1.66255">
        <ele>33.37</ele>
        <time>2019-05-12T07:49:38Z</time>
      </trkpt>
      <trkpt lat="47.18296" lon="-1.66264">
        <ele>33.54</ele>
        <time>2019-05-12T07:49:41Z</time>
      </trkpt>
      <trkpt lat="47.18287" lon="-1.66271">
        <ele>33.7</ele>
        <time>2019-05-12T07:49:45Z</time>
      </trkpt>
      <trkpt lat="47.18276" lon="-1.66279">
        <ele>33.9</ele>
        <time>2019-05-12T07:49:48Z</time>
      </trkpt>
      <trkpt lat="47.18267" lon="-1.6629">
        <ele>34.07</ele>
        <time>2019-05-12T07:49:52Z</time>
      </trkpt>
      <trkpt lat="47.18259" lon="-1.66298">
        <ele>34.31</ele>
        <time>2019-05-12T07:49:54Z</time>
      </trkpt>
      <trkpt lat="47.18249" lon="-1.66308">
        <ele>34.48</ele>
        <time>2019-05-12T07:49:57Z</time>
      </trkpt>
      <trkpt lat="47.18241" lon="-1.66317">
        <ele>34.56</ele>
        <time>2019-05-12T07:50:00Z</time>
      </trkpt>
      <trkpt lat="47.18234" lon="-1.66326">
        <ele>34.73</ele>
        <time>2019-05-12T07:50:03Z</time>
      </trkpt>
      <trkpt lat="47.18225" lon="-1.66337">
        <ele>34.79</ele>
        <time>2019-05-12T07:50:06Z</time>
      </trkpt>
      <trkpt lat="47.18218" lon="-1.66347">
        <ele>34.82</ele>
        <time>2019-05-12T07:50:08Z</time>
      </trkpt>
      <trkpt lat="47.18211" lon="-1.66357">
        <ele>34.82</ele>
        <time>2019-05-12T07:50:10Z</time>
      </trkpt>
      <trkpt lat="47.18204" lon="-1.66369">
        <ele>34.94</ele>
        <time>2019-05-12T07:50:13Z</time>
      </trkpt>
      <trkpt lat="47.18198" lon="-1.66383">
        <ele>34.8</ele>
        <time>2019-05-12T07:50:16Z</time>
      </trkpt>
      <trkpt lat="47.18191" lon="-1.66392">
        <ele>34.79</ele>
        <time>2019-05-12T07:50:19Z</time>
      </trkpt>
      <trkpt lat="47.18179" lon="-1.66391">
        <ele>34.85</ele>
        <time>2019-05-12T07:50:22Z</time>
      </trkpt>
      <trkpt lat="47.18168" lon="-1.66388">
        <ele>34.76</ele>
        <time>2019-05-12T07:50:25Z</time>
      </trkpt>
      <trkpt lat="47.18159" lon="-1.6638">
        <ele>34.58</ele>
        <time>2019-05-12T07:50:28Z</time>
      </trkpt>
      <trkpt lat="47.1815" lon="-1.66372">
        <ele>34.46</ele>
        <time>2019-05-12T07:50:31Z</time>
      </trkpt>
      <trkpt lat="47.1814" lon="-1.66364">
        <ele>34.71</ele>
        <time>2019-05-12T07:50:35Z</time>
      </trkpt>
      <trkpt lat="47.18133" lon="-1.66355">
        <ele>34.87</ele>
        <time>2019-05-12T07:50:38Z</time>
      </trkpt>
      <trkpt lat="47.18126" lon="-1.66343">
        <ele>34.93</ele>
        <time>2019-05-12T07:50:41Z</time>
      </trkpt>
      <trkpt lat="47.18115" lon="-1.6633">
        <ele>33.94</ele>
        <time>2019-05-12T07:50:44Z</time>
      </trkpt>
      <trkpt lat="47.18106" lon="-1.66322">
        <ele>33.77</ele>
        <time>2019-05-12T07:50:46Z</time>
      </trkpt>
      <trkpt lat="47.18097" lon="-1.66311">
        <ele>34.13</ele>
        <time>2019-05-12T07:50:48Z</time>
      </trkpt>
      <trkpt lat="47.18088" lon="-1.663">
        <ele>34.07</ele>
        <time>2019-05-12T07:50:50Z</time>
      </trkpt>
      <trkpt lat="47.18077" lon="-1.66289">
        <ele>33.27</ele>
        <time>2019-05-12T07:50:52Z</time>
      </trkpt>
      <trkpt lat="47.1807" lon="-1.66278">
        <ele>33.27</ele>
        <time>2019-05-12T07:50:54Z</time>
      </trkpt>
      <trkpt lat="47.18061" lon="-1.66264">
        <ele>33.95</ele>
        <time>2019-05-12T07:50:57Z</time>
      </trkpt>
      <trkpt lat="47.18056" lon="-1.66251">
        <ele>33.42</ele>
        <time>2019-05-12T07:50:59Z</time>
      </trkpt>
      <trkpt lat="47.18052" lon="-1.6624">
        <ele>33.24</ele>
        <time>2019-05-12T07:51:01Z</time>
      </trkpt>
      <trkpt lat="47.18047" lon="-1.66227">
        <ele>33.18</ele>
        <time>2019-05-12T07:51:03Z</time>
      </trkpt>
      <trkpt lat="47.18043" lon="-1.66214">
        <ele>33.67</ele>
        <time>2019-05-12T07:51:05Z</time>
      </trkpt>
      <trkpt lat="47.18038" lon="-1.66197">
        <ele>33.54</ele>
        <time>2019-05-12T07:51:08Z</time>
      </trkpt>
      <trkpt lat="47.18031" lon="-1.66184">
        <ele>34.36</ele>
        <time>2019-05-12T07:51:11Z</time>
      </trkpt>
      <trkpt lat="47.18024" lon="-1.66173">
        <ele>34.51</ele>
        <time>2019-05-12T07:51:14Z</time>
      </trkpt>
      <trkpt lat="47.18015" lon="-1.66166">
        <ele>34.47</ele>
        <time>2019-05-12T07:51:17Z</time>
      </trkpt>
      <trkpt lat="47.18005" lon="-1.66166">
        <ele>34.36</ele>
        <time>2019-05-12T07:51:21Z</time>
      </trkpt>
      <trkpt lat="47.17995" lon="-1.66172">
        <ele>34.04</ele>
        <time>2019-05-12T07:51:24Z</time>
      </trkpt>
      <trkpt lat="47.17987" lon="-1.6618">
        <ele>33.65</ele>
        <time>2019-05-12T07:51:27Z</time>
      </trkpt>
      <trkpt lat="47.17978" lon="-1.66189">
        <ele>34.55</ele>
        <time>2019-05-12T07:51:30Z</time>
      </trkpt>
      <trkpt lat="47.1797" lon="-1.662">
        <ele>35.4</ele>
        <time>2019-05-12T07:51:33Z</time>
      </trkpt>
      <trkpt lat="47.17962" lon="-1.66208">
        <ele>35.45</ele>
        <time>2019-05-12T07:51:36Z</time>
      </trkpt>
      <trkpt lat="47.17952" lon="-1.66218">
        <ele>34.69</ele>
        <time>2019-05-12T07:51:39Z</time>
      </trkpt>
      <trkpt lat="47.1794" lon="-1.66218">
        <ele>34.84</ele>
        <time>2019-05-12T07:51:42Z</time>
      </trkpt>
      <trkpt lat="47.17928" lon="-1.6621">
        <ele>34.72</ele>
        <time>2019-05-12T07:51:45Z</time>
      </trkpt>
      <trkpt lat="47.17921" lon="-1.66201">
        <ele>34.07</ele>
        <time>2019-05-12T07:51:47Z</time>
      </trkpt>
      <trkpt lat="47.1791" lon="-1.66192">
        <ele>33.37</ele>
        <time>2019-05-12T07:51:50Z</time>
      </trkpt>
      <trkpt lat="47.17902" lon="-1.66184">
        <ele>33</ele>
        <time>2019-05-12T07:51:52Z</time>
      </trkpt>
      <trkpt lat="47.17891" lon="-1.66175">
        <ele>31.85</ele>
        <time>2019-05-12T07:51:55Z</time>
      </trkpt>
      <trkpt lat="47.17883" lon="-1.66168">
        <ele>31.86</ele>
        <time>2019-05-12T07:51:57Z</time>
      </trkpt>
      <trkpt lat="47.17871" lon="-1.66166">
        <ele>31.54</ele>
        <time>2019-05-12T07:52:00Z</time>
      </trkpt>
      <trkpt lat="47.17862" lon="-1.66176">
        <ele>32.37</ele>
        <time>2019-05-12T07:52:04Z</time>
      </trkpt>
      <trkpt lat="47.17854" lon="-1.66188">
        <ele>33.7</ele>
        <time>2019-05-12T07:52:07Z</time>
      </trkpt>
      <trkpt lat="47.17847" lon="-1.66197">
        <ele>33.85</ele>
        <time>2019-05-12T07:52:09Z</time>
      </trkpt>
      <trkpt lat="47.1784" lon="-1.66207">
        <ele>33.4</ele>
        <time>2019-05-12T07:52:11Z</time>
      </trkpt>
      <trkpt lat="47.17832" lon="-1.66217">
        <ele>33.13</ele>
        <time>2019-05-12T07:52:13Z</time>
      </trkpt>
      <trkpt lat="47.17825" lon="-1.66227">
        <ele>34.35</ele>
        <time>2019-05-12T07:52:15Z</time>
      </trkpt>
      <trkpt lat="47.17817" lon="-1.66236">
        <ele>35.07</ele>
        <time>2019-05-12T07:52:17Z</time>
      </trkpt>
      <trkpt lat="47.17805" lon="-1.6625">
        <ele>36.04</ele>
        <time>2019-05-12T07:52:20Z</time>
      </trkpt>
      <trkpt lat="47.17798" lon="-1.66259">
        <ele>34.98</ele>
        <time>2019-05-12T07:52:22Z</time>
      </trkpt>
      <trkpt lat="47.17788" lon="-1.66273">
        <ele>34.28</ele>
        <time>2019-05-12T07:52:25Z</time>
      </trkpt>
      <trkpt lat="47.17781" lon="-1.66283">
        <ele>34.22</ele>
        <time>2019-05-12T07:52:27Z</time>
      </trkpt>
      <trkpt lat="47.17771" lon="-1.66297">
        <ele>34.95</ele>
        <time>2019-05-12T07:52:30Z</time>
      </trkpt>
      <trkpt lat="47.17762" lon="-1.66308">
        <ele>34.23</ele>
        <time>2019-05-12T07:52:33Z</time>
      </trkpt>
      <trkpt lat="47.17754" lon="-1.66317">
        <ele>32.98</ele>
        <time>2019-05-12T07:52:36Z</time>
      </trkpt>
      <trkpt lat="47.17746" lon="-1.66328">
        <ele>32.59</ele>
        <time>2019-05-12T07:52:39Z</time>
      </trkpt>
      <trkpt lat="47.17736" lon="-1.66341">
        <ele>32.72</ele>
        <time>2019-05-12T07:52:42Z</time>
      </trkpt>
      <trkpt lat="47.17729" lon="-1.66351">
        <ele>32.69</ele>
        <time>2019-05-12T07:52:44Z</time>
      </trkpt>
      <trkpt lat="47.17719" lon="-1.66361">
        <ele>32.82</ele>
        <time>2019-05-12T07:52:47Z</time>
      </trkpt>
      <trkpt lat="47.17716" lon="-1.66373">
        <ele>32.98</ele>
        <time>2019-05-12T07:52:52Z</time>
      </trkpt>
      <trkpt lat="47.1772" lon="-1.66385">
        <ele>33.31</ele>
        <time>2019-05-12T07:52:58Z</time>
      </trkpt>
      <trkpt lat="47.17725" lon="-1.66401">
        <ele>33.74</ele>
        <time>2019-05-12T07:53:02Z</time>
      </trkpt>
      <trkpt lat="47.17731" lon="-1.66417">
        <ele>34.46</ele>
        <time>2019-05-12T07:53:05Z</time>
      </trkpt>
      <trkpt lat="47.17735" lon="-1.6643">
        <ele>33.92</ele>
        <time>2019-05-12T07:53:07Z</time>
      </trkpt>
      <trkpt lat="47.17739" lon="-1.66447">
        <ele>33.24</ele>
        <time>2019-05-12T07:53:09Z</time>
      </trkpt>
      <trkpt lat="47.17743" lon="-1.66463">
        <ele>32.96</ele>
        <time>2019-05-12T07:53:11Z</time>
      </trkpt>
      <trkpt lat="47.17746" lon="-1.66476">
        <ele>32.98</ele>
        <time>2019-05-12T07:53:13Z</time>
      </trkpt>
      <trkpt lat="47.17749" lon="-1.66493">
        <ele>32.89</ele>
        <time>2019-05-12T07:53:16Z</time>
      </trkpt>
      <trkpt lat="47.17754" lon="-1.66508">
        <ele>33</ele>
        <time>2019-05-12T07:53:19Z</time>
      </trkpt>
      <trkpt lat="47.17758" lon="-1.66521">
        <ele>33.27</ele>
        <time>2019-05-12T07:53:22Z</time>
      </trkpt>
      <trkpt lat="47.17763" lon="-1.66533">
        <ele>33.63</ele>
        <time>2019-05-12T07:53:25Z</time>
      </trkpt>
      <trkpt lat="47.17767" lon="-1.66548">
        <ele>33.77</ele>
        <time>2019-05-12T07:53:28Z</time>
      </trkpt>
      <trkpt lat="47.17771" lon="-1.66561">
        <ele>33.99</ele>
        <time>2019-05-12T07:53:32Z</time>
      </trkpt>
      <trkpt lat="47.17776" lon="-1.66576">
        <ele>34.1</ele>
        <time>2019-05-12T07:53:36Z</time>
      </trkpt>
      <trkpt lat="47.17783" lon="-1.66592">
        <ele>34</ele>
        <time>2019-05-12T07:53:39Z</time>
      </trkpt>
      <trkpt lat="47.17788" lon="-1.66605">
        <ele>33.9</ele>
        <time>2019-05-12T07:53:41Z</time>
      </trkpt>
      <trkpt lat="47.17792" lon="-1.66621">
        <ele>33.89</ele>
        <time>2019-05-12T07:53:44Z</time>
      </trkpt>
      <trkpt lat="47.17795" lon="-1.66637">
        <ele>33.93</ele>
        <time>2019-05-12T07:53:47Z</time>
      </trkpt>
      <trkpt lat="47.17799" lon="-1.66653">
        <ele>33.94</ele>
        <time>2019-05-12T07:53:50Z</time>
      </trkpt>
      <trkpt lat="47.17803" lon="-1.66667">
        <ele>33.98</ele>
        <time>2019-05-12T07:53:53Z</time>
      </trkpt>
      <trkpt lat="47.17806" lon="-1.6668">
        <ele>33.93</ele>
        <time>2019-05-12T07:53:56Z</time>
      </trkpt>
      <trkpt lat="47.17811" lon="-1.66693">
        <ele>34.14</ele>
        <time>2019-05-12T07:54:00Z</time>
      </trkpt>
      <trkpt lat="47.17809" lon="-1.66707">
        <ele>34.23</ele>
        <time>2019-05-12T07:54:03Z</time>
      </trkpt>
      <trkpt lat="47.17803" lon="-1.66719">
        <ele>33.82</ele>
        <time>2019-05-12T07:54:05Z</time>
      </trkpt>
      <trkpt lat="47.17793" lon="-1.66728">
        <ele>33.58</ele>
        <time>2019-05-12T07:54:07Z</time>
      </trkpt>
      <trkpt lat="47.17783" lon="-1.66735">
        <ele>33.52</ele>
        <time>2019-05-12T07:54:09Z</time>
      </trkpt>
      <trkpt lat="47.17772" lon="-1.66744">
        <ele>33.23</ele>
        <time>2019-05-12T07:54:12Z</time>
      </trkpt>
      <trkpt lat="47.17764" lon="-1.66752">
        <ele>33.3</ele>
        <time>2019-05-12T07:54:14Z</time>
      </trkpt>
      <trkpt lat="47.17755" lon="-1.6676">
        <ele>33.18</ele>
        <time>2019-05-12T07:54:16Z</time>
      </trkpt>
      <trkpt lat="47.17744" lon="-1.66773">
        <ele>32.16</ele>
        <time>2019-05-12T07:54:19Z</time>
      </trkpt>
      <trkpt lat="47.17736" lon="-1.66782">
        <ele>32.58</ele>
        <time>2019-05-12T07:54:21Z</time>
      </trkpt>
      <trkpt lat="47.17728" lon="-1.66791">
        <ele>32.56</ele>
        <time>2019-05-12T07:54:23Z</time>
      </trkpt>
      <trkpt lat="47.1772" lon="-1.668">
        <ele>32.44</ele>
        <time>2019-05-12T07:54:25Z</time>
      </trkpt>
      <trkpt lat="47.17712" lon="-1.66807">
        <ele>31.79</ele>
        <time>2019-05-12T07:54:27Z</time>
      </trkpt>
      <trkpt lat="47.17703" lon="-1.66814">
        <ele>32.37</ele>
        <time>2019-05-12T07:54:29Z</time>
      </trkpt>
      <trkpt lat="47.17693" lon="-1.66825">
        <ele>34.48</ele>
        <time>2019-05-12T07:54:32Z</time>
      </trkpt>
      <trkpt lat="47.17682" lon="-1.66835">
        <ele>35.45</ele>
        <time>2019-05-12T07:54:35Z</time>
      </trkpt>
      <trkpt lat="47.17671" lon="-1.66845">
        <ele>35.4</ele>
        <time>2019-05-12T07:54:38Z</time>
      </trkpt>
      <trkpt lat="47.17661" lon="-1.66856">
        <ele>35.15</ele>
        <time>2019-05-12T07:54:41Z</time>
      </trkpt>
      <trkpt lat="47.1765" lon="-1.66866">
        <ele>35.18</ele>
        <time>2019-05-12T07:54:44Z</time>
      </trkpt>
      <trkpt lat="47.17642" lon="-1.66874">
        <ele>36.37</ele>
        <time>2019-05-12T07:54:46Z</time>
      </trkpt>
      <trkpt lat="47.17634" lon="-1.66881">
        <ele>36.54</ele>
        <time>2019-05-12T07:54:48Z</time>
      </trkpt>
      <trkpt lat="47.17629" lon="-1.66895">
        <ele>36.75</ele>
        <time>2019-05-12T07:54:52Z</time>
      </trkpt>
      <trkpt lat="47.17634" lon="-1.66907">
        <ele>36.67</ele>
        <time>2019-05-12T07:54:56Z</time>
      </trkpt>
      <trkpt lat="47.17639" lon="-1.6692">
        <ele>36.36</ele>
        <time>2019-05-12T07:55:00Z</time>
      </trkpt>
      <trkpt lat="47.17645" lon="-1.66933">
        <ele>35.96</ele>
        <time>2019-05-12T07:55:03Z</time>
      </trkpt>
      <trkpt lat="47.17651" lon="-1.66944">
        <ele>35.69</ele>
        <time>2019-05-12T07:55:05Z</time>
      </trkpt>
      <trkpt lat="47.17658" lon="-1.66957">
        <ele>30.92</ele>
        <time>2019-05-12T07:55:08Z</time>
      </trkpt>
      <trkpt lat="47.17664" lon="-1.66967">
        <ele>28.44</ele>
        <time>2019-05-12T07:55:10Z</time>
      </trkpt>
      <trkpt lat="47.1767" lon="-1.66979">
        <ele>27.01</ele>
        <time>2019-05-12T07:55:12Z</time>
      </trkpt>
      <trkpt lat="47.17679" lon="-1.66993">
        <ele>27.07</ele>
        <time>2019-05-12T07:55:15Z</time>
      </trkpt>
      <trkpt lat="47.17685" lon="-1.67004">
        <ele>25.83</ele>
        <time>2019-05-12T07:55:17Z</time>
      </trkpt>
      <trkpt lat="47.17693" lon="-1.67018">
        <ele>25.31</ele>
        <time>2019-05-12T07:55:20Z</time>
      </trkpt>
      <trkpt lat="47.17702" lon="-1.67034">
        <ele>27.6</ele>
        <time>2019-05-12T07:55:23Z</time>
      </trkpt>
      <trkpt lat="47.17708" lon="-1.67047">
        <ele>28.09</ele>
        <time>2019-05-12T07:55:25Z</time>
      </trkpt>
      <trkpt lat="47.17714" lon="-1.67058">
        <ele>27.65</ele>
        <time>2019-05-12T07:55:27Z</time>
      </trkpt>
      <trkpt lat="47.1772" lon="-1.67071">
        <ele>27.85</ele>
        <time>2019-05-12T07:55:29Z</time>
      </trkpt>
      <trkpt lat="47.17729" lon="-1.67086">
        <ele>28.2</ele>
        <time>2019-05-12T07:55:31Z</time>
      </trkpt>
      <trkpt lat="47.17736" lon="-1.67097">
        <ele>28.2</ele>
        <time>2019-05-12T07:55:33Z</time>
      </trkpt>
      <trkpt lat="47.17742" lon="-1.67108">
        <ele>28.99</ele>
        <time>2019-05-12T07:55:35Z</time>
      </trkpt>
      <trkpt lat="47.17749" lon="-1.67118">
        <ele>29.79</ele>
        <time>2019-05-12T07:55:37Z</time>
      </trkpt>
      <trkpt lat="47.17755" lon="-1.6713">
        <ele>30.67</ele>
        <time>2019-05-12T07:55:39Z</time>
      </trkpt>
      <trkpt lat="47.17761" lon="-1.67142">
        <ele>32.12</ele>
        <time>2019-05-12T07:55:41Z</time>
      </trkpt>
      <trkpt lat="47.17768" lon="-1.67158">
        <ele>33.15</ele>
        <time>2019-05-12T07:55:44Z</time>
      </trkpt>
      <trkpt lat="47.17766" lon="-1.67173">
        <ele>33.32</ele>
        <time>2019-05-12T07:55:48Z</time>
      </trkpt>
      <trkpt lat="47.17763" lon="-1.67186">
        <ele>33.4</ele>
        <time>2019-05-12T07:55:51Z</time>
      </trkpt>
      <trkpt lat="47.17764" lon="-1.67202">
        <ele>33.58</ele>
        <time>2019-05-12T07:55:55Z</time>
      </trkpt>
      <trkpt lat="47.17763" lon="-1.67218">
        <ele>33.66</ele>
        <time>2019-05-12T07:55:58Z</time>
      </trkpt>
      <trkpt lat="47.17758" lon="-1.67234">
        <ele>33.71</ele>
        <time>2019-05-12T07:56:01Z</time>
      </trkpt>
      <trkpt lat="47.17752" lon="-1.67246">
        <ele>33.69</ele>
        <time>2019-05-12T07:56:03Z</time>
      </trkpt>
      <trkpt lat="47.17745" lon="-1.67256">
        <ele>33.66</ele>
        <time>2019-05-12T07:56:05Z</time>
      </trkpt>
      <trkpt lat="47.17736" lon="-1.67266">
        <ele>33.68</ele>
        <time>2019-05-12T07:56:07Z</time>
      </trkpt>
      <trkpt lat="47.17726" lon="-1.67273">
        <ele>34.83</ele>
        <time>2019-05-12T07:56:09Z</time>
      </trkpt>
      <trkpt lat="47.17715" lon="-1.67276">
        <ele>35.51</ele>
        <time>2019-05-12T07:56:12Z</time>
      </trkpt>
      <trkpt lat="47.17704" lon="-1.67271">
        <ele>35.57</ele>
        <time>2019-05-12T07:56:15Z</time>
      </trkpt>
      <trkpt lat="47.17694" lon="-1.67266">
        <ele>36.42</ele>
        <time>2019-05-12T07:56:17Z</time>
      </trkpt>
      <trkpt lat="47.17684" lon="-1.67262">
        <ele>37.26</ele>
        <time>2019-05-12T07:56:19Z</time>
      </trkpt>
      <trkpt lat="47.17672" lon="-1.67256">
        <ele>36.29</ele>
        <time>2019-05-12T07:56:22Z</time>
      </trkpt>
      <trkpt lat="47.17663" lon="-1.6725">
        <ele>35.91</ele>
        <time>2019-05-12T07:56:26Z</time>
      </trkpt>
      <trkpt lat="47.17652" lon="-1.67245">
        <ele>35.35</ele>
        <time>2019-05-12T07:56:30Z</time>
      </trkpt>
      <trkpt lat="47.17641" lon="-1.67249">
        <ele>34.79</ele>
        <time>2019-05-12T07:56:33Z</time>
      </trkpt>
      <trkpt lat="47.17633" lon="-1.67258">
        <ele>34.31</ele>
        <time>2019-05-12T07:56:36Z</time>
      </trkpt>
      <trkpt lat="47.17628" lon="-1.67272">
        <ele>34.14</ele>
        <time>2019-05-12T07:56:40Z</time>
      </trkpt>
      <trkpt lat="47.17618" lon="-1.67273">
        <ele>34.22</ele>
        <time>2019-05-12T07:56:44Z</time>
      </trkpt>
      <trkpt lat="47.17608" lon="-1.67272">
        <ele>34.28</ele>
        <time>2019-05-12T07:56:47Z</time>
      </trkpt>
      <trkpt lat="47.17598" lon="-1.67273">
        <ele>34.47</ele>
        <time>2019-05-12T07:56:50Z</time>
      </trkpt>
      <trkpt lat="47.1759" lon="-1.67279">
        <ele>34.57</ele>
        <time>2019-05-12T07:56:53Z</time>
      </trkpt>
      <trkpt lat="47.17578" lon="-1.67289">
        <ele>34.59</ele>
        <time>2019-05-12T07:56:56Z</time>
      </trkpt>
      <trkpt lat="47.17567" lon="-1.67287">
        <ele>35.12</ele>
        <time>2019-05-12T07:56:59Z</time>
      </trkpt>
      <trkpt lat="47.17555" lon="-1.67292">
        <ele>35.7</ele>
        <time>2019-05-12T07:57:02Z</time>
      </trkpt>
      <trkpt lat="47.17546" lon="-1.67296">
        <ele>36.1</ele>
        <time>2019-05-12T07:57:04Z</time>
      </trkpt>
      <trkpt lat="47.17534" lon="-1.67299">
        <ele>36.41</ele>
        <time>2019-05-12T07:57:06Z</time>
      </trkpt>
      <trkpt lat="47.17525" lon="-1.67305">
        <ele>36.69</ele>
        <time>2019-05-12T07:57:08Z</time>
      </trkpt>
      <trkpt lat="47.17526" lon="-1.67321">
        <ele>37.07</ele>
        <time>2019-05-12T07:57:14Z</time>
      </trkpt>
      <trkpt lat="47.17531" lon="-1.67336">
        <ele>36.87</ele>
        <time>2019-05-12T07:57:18Z</time>
      </trkpt>
      <trkpt lat="47.17536" lon="-1.67348">
        <ele>36.66</ele>
        <time>2019-05-12T07:57:21Z</time>
      </trkpt>
      <trkpt lat="47.17542" lon="-1.67363">
        <ele>36.83</ele>
        <time>2019-05-12T07:57:24Z</time>
      </trkpt>
      <trkpt lat="47.17544" lon="-1.6738">
        <ele>37.14</ele>
        <time>2019-05-12T07:57:27Z</time>
      </trkpt>
      <trkpt lat="47.17544" lon="-1.67399">
        <ele>37.16</ele>
        <time>2019-05-12T07:57:30Z</time>
      </trkpt>
      <trkpt lat="47.17544" lon="-1.67415">
        <ele>36.81</ele>
        <time>2019-05-12T07:57:33Z</time>
      </trkpt>
      <trkpt lat="47.1754" lon="-1.67428">
        <ele>36.45</ele>
        <time>2019-05-12T07:57:35Z</time>
      </trkpt>
      <trkpt lat="47.17533" lon="-1.6744">
        <ele>36.07</ele>
        <time>2019-05-12T07:57:38Z</time>
      </trkpt>
      <trkpt lat="47.17526" lon="-1.67449">
        <ele>35.76</ele>
        <time>2019-05-12T07:57:40Z</time>
      </trkpt>
      <trkpt lat="47.1752" lon="-1.6746">
        <ele>35.44</ele>
        <time>2019-05-12T07:57:43Z</time>
      </trkpt>
      <trkpt lat="47.17512" lon="-1.6747">
        <ele>35.38</ele>
        <time>2019-05-12T07:57:46Z</time>
      </trkpt>
      <trkpt lat="47.17504" lon="-1.67478">
        <ele>35.42</ele>
        <time>2019-05-12T07:57:48Z</time>
      </trkpt>
      <trkpt lat="47.17496" lon="-1.67486">
        <ele>35.55</ele>
        <time>2019-05-12T07:57:50Z</time>
      </trkpt>
      <trkpt lat="47.17488" lon="-1.67494">
        <ele>35.49</ele>
        <time>2019-05-12T07:57:52Z</time>
      </trkpt>
      <trkpt lat="47.17479" lon="-1.67502">
        <ele>35.53</ele>
        <time>2019-05-12T07:57:55Z</time>
      </trkpt>
      <trkpt lat="47.17471" lon="-1.67511">
        <ele>35.42</ele>
        <time>2019-05-12T07:57:57Z</time>
      </trkpt>
      <trkpt lat="47.17461" lon="-1.67518">
        <ele>35.41</ele>
        <time>2019-05-12T07:57:59Z</time>
      </trkpt>
      <trkpt lat="47.17453" lon="-1.67528">
        <ele>35.29</ele>
        <time>2019-05-12T07:58:01Z</time>
      </trkpt>
      <trkpt lat="47.17441" lon="-1.67537">
        <ele>35.2</ele>
        <time>2019-05-12T07:58:03Z</time>
      </trkpt>
      <trkpt lat="47.17431" lon="-1.67541">
        <ele>35.04</ele>
        <time>2019-05-12T07:58:05Z</time>
      </trkpt>
      <trkpt lat="47.1742" lon="-1.67545">
        <ele>34.9</ele>
        <time>2019-05-12T07:58:08Z</time>
      </trkpt>
      <trkpt lat="47.17407" lon="-1.67543">
        <ele>35.07</ele>
        <time>2019-05-12T07:58:11Z</time>
      </trkpt>
      <trkpt lat="47.174" lon="-1.67533">
        <ele>35.19</ele>
        <time>2019-05-12T07:58:14Z</time>
      </trkpt>
      <trkpt lat="47.17397" lon="-1.67518">
        <ele>35.14</ele>
        <time>2019-05-12T07:58:18Z</time>
      </trkpt>
      <trkpt lat="47.1739" lon="-1.67504">
        <ele>35.35</ele>
        <time>2019-05-12T07:58:22Z</time>
      </trkpt>
      <trkpt lat="47.17384" lon="-1.67493">
        <ele>35.78</ele>
        <time>2019-05-12T07:58:24Z</time>
      </trkpt>
      <trkpt lat="47.17379" lon="-1.67481">
        <ele>36.04</ele>
        <time>2019-05-12T07:58:26Z</time>
      </trkpt>
      <trkpt lat="47.17373" lon="-1.67464">
        <ele>36.04</ele>
        <time>2019-05-12T07:58:29Z</time>
      </trkpt>
      <trkpt lat="47.17369" lon="-1.67451">
        <ele>35.9</ele>
        <time>2019-05-12T07:58:32Z</time>
      </trkpt>
      <trkpt lat="47.17366" lon="-1.67434">
        <ele>35.42</ele>
        <time>2019-05-12T07:58:35Z</time>
      </trkpt>
      <trkpt lat="47.17363" lon="-1.67419">
        <ele>35.03</ele>
        <time>2019-05-12T07:58:37Z</time>
      </trkpt>
      <trkpt lat="47.1736" lon="-1.67405">
        <ele>34.8</ele>
        <time>2019-05-12T07:58:39Z</time>
      </trkpt>
      <trkpt lat="47.17358" lon="-1.67392">
        <ele>34.57</ele>
        <time>2019-05-12T07:58:41Z</time>
      </trkpt>
      <trkpt lat="47.1736" lon="-1.67375">
        <ele>34.35</ele>
        <time>2019-05-12T07:58:43Z</time>
      </trkpt>
      <trkpt lat="47.17367" lon="-1.67362">
        <ele>34.76</ele>
        <time>2019-05-12T07:58:51Z</time>
      </trkpt>
      <trkpt lat="47.17375" lon="-1.67355">
        <ele>34.86</ele>
        <time>2019-05-12T07:58:54Z</time>
      </trkpt>
      <trkpt lat="47.17385" lon="-1.67346">
        <ele>35.18</ele>
        <time>2019-05-12T07:58:58Z</time>
      </trkpt>
      <trkpt lat="47.17389" lon="-1.67331">
        <ele>35.07</ele>
        <time>2019-05-12T07:59:01Z</time>
      </trkpt>
      <trkpt lat="47.17388" lon="-1.67316">
        <ele>34.98</ele>
        <time>2019-05-12T07:59:04Z</time>
      </trkpt>
      <trkpt lat="47.17383" lon="-1.67303">
        <ele>34.93</ele>
        <time>2019-05-12T07:59:06Z</time>
      </trkpt>
      <trkpt lat="47.17384" lon="-1.67283">
        <ele>34.74</ele>
        <time>2019-05-12T07:59:09Z</time>
      </trkpt>
      <trkpt lat="47.17387" lon="-1.67269">
        <ele>34.49</ele>
        <time>2019-05-12T07:59:11Z</time>
      </trkpt>
      <trkpt lat="47.17388" lon="-1.67251">
        <ele>33.76</ele>
        <time>2019-05-12T07:59:14Z</time>
      </trkpt>
      <trkpt lat="47.17392" lon="-1.67239">
        <ele>33.37</ele>
        <time>2019-05-12T07:59:16Z</time>
      </trkpt>
      <trkpt lat="47.17399" lon="-1.67225">
        <ele>32.97</ele>
        <time>2019-05-12T07:59:18Z</time>
      </trkpt>
      <trkpt lat="47.17411" lon="-1.67219">
        <ele>30.57</ele>
        <time>2019-05-12T07:59:20Z</time>
      </trkpt>
      <trkpt lat="47.17424" lon="-1.67213">
        <ele>27.43</ele>
        <time>2019-05-12T07:59:22Z</time>
      </trkpt>
      <trkpt lat="47.17434" lon="-1.6721">
        <ele>25.74</ele>
        <time>2019-05-12T07:59:24Z</time>
      </trkpt>
      <trkpt lat="47.17446" lon="-1.67206">
        <ele>24.49</ele>
        <time>2019-05-12T07:59:26Z</time>
      </trkpt>
      <trkpt lat="47.17457" lon="-1.67203">
        <ele>25.55</ele>
        <time>2019-05-12T07:59:28Z</time>
      </trkpt>
      <trkpt lat="47.17467" lon="-1.67202">
        <ele>26.18</ele>
        <time>2019-05-12T07:59:30Z</time>
      </trkpt>
      <trkpt lat="47.17476" lon="-1.67202">
        <ele>26.54</ele>
        <time>2019-05-12T07:59:32Z</time>
      </trkpt>
      <trkpt lat="47.17471" lon="-1.67191">
        <ele>26.69</ele>
        <time>2019-05-12T07:59:36Z</time>
      </trkpt>
      <trkpt lat="47.17465" lon="-1.67178">
        <ele>27</ele>
        <time>2019-05-12T07:59:40Z</time>
      </trkpt>
      <trkpt lat="47.17461" lon="-1.67165">
        <ele>27.36</ele>
        <time>2019-05-12T07:59:44Z</time>
      </trkpt>
      <trkpt lat="47.17458" lon="-1.67148">
        <ele>27.46</ele>
        <time>2019-05-12T07:59:47Z</time>
      </trkpt>
      <trkpt lat="47.17453" lon="-1.67136">
        <ele>27.44</ele>
        <time>2019-05-12T07:59:50Z</time>
      </trkpt>
      <trkpt lat="47.17448" lon="-1.67122">
        <ele>27.13</ele>
        <time>2019-05-12T07:59:53Z</time>
      </trkpt>
      <trkpt lat="47.17444" lon="-1.67107">
        <ele>26.46</ele>
        <time>2019-05-12T07:59:57Z</time>
      </trkpt>
      <trkpt lat="47.17441" lon="-1.6709">
        <ele>25.87</ele>
        <time>2019-05-12T08:00:00Z</time>
      </trkpt>
      <trkpt lat="47.17444" lon="-1.67069">
        <ele>25.42</ele>
        <time>2019-05-12T08:00:02Z</time>
      </trkpt>
      <trkpt lat="47.17451" lon="-1.67059">
        <ele>25.26</ele>
        <time>2019-05-12T08:00:03Z</time>
      </trkpt>
      <trkpt lat="47.17462" lon="-1.67048">
        <ele>25.05</ele>
        <time>2019-05-12T08:00:05Z</time>
      </trkpt>
      <trkpt lat="47.17473" lon="-1.67036">
        <ele>24.56</ele>
        <time>2019-05-12T08:00:07Z</time>
      </trkpt>
      <trkpt lat="47.17481" lon="-1.67029">
        <ele>23.68</ele>
        <time>2019-05-12T08:00:09Z</time>
      </trkpt>
      <trkpt lat="47.17491" lon="-1.67017">
        <ele>22.38</ele>
        <time>2019-05-12T08:00:12Z</time>
      </trkpt>
      <trkpt lat="47.175" lon="-1.67007">
        <ele>23.11</ele>
        <time>2019-05-12T08:00:14Z</time>
      </trkpt>
      <trkpt lat="47.17509" lon="-1.66998">
        <ele>24.75</ele>
        <time>2019-05-12T08:00:17Z</time>
      </trkpt>
      <trkpt lat="47.17517" lon="-1.66988">
        <ele>27.11</ele>
        <time>2019-05-12T08:00:19Z</time>
      </trkpt>
      <trkpt lat="47.17525" lon="-1.66979">
        <ele>29.54</ele>
        <time>2019-05-12T08:00:21Z</time>
      </trkpt>
      <trkpt lat="47.17536" lon="-1.66967">
        <ele>31.7</ele>
        <time>2019-05-12T08:00:24Z</time>
      </trkpt>
      <trkpt lat="47.17544" lon="-1.6696">
        <ele>31.34</ele>
        <time>2019-05-12T08:00:26Z</time>
      </trkpt>
      <trkpt lat="47.17556" lon="-1.66952">
        <ele>30.21</ele>
        <time>2019-05-12T08:00:29Z</time>
      </trkpt>
      <trkpt lat="47.17567" lon="-1.66942">
        <ele>29.06</ele>
        <time>2019-05-12T08:00:32Z</time>
      </trkpt>
      <trkpt lat="47.17577" lon="-1.66932">
        <ele>26.74</ele>
        <time>2019-05-12T08:00:35Z</time>
      </trkpt>
      <trkpt lat="47.17587" lon="-1.66923">
        <ele>26.43</ele>
        <time>2019-05-12T08:00:38Z</time>
      </trkpt>
      <trkpt lat="47.17595" lon="-1.66913">
        <ele>26.49</ele>
        <time>2019-05-12T08:00:41Z</time>
      </trkpt>
      <trkpt lat="47.17604" lon="-1.66904">
        <ele>26.43</ele>
        <time>2019-05-12T08:00:44Z</time>
      </trkpt>
      <trkpt lat="47.17612" lon="-1.66896">
        <ele>26.58</ele>
        <time>2019-05-12T08:00:47Z</time>
      </trkpt>
      <trkpt lat="47.17619" lon="-1.66882">
        <ele>26.5</ele>
        <time>2019-05-12T08:00:50Z</time>
      </trkpt>
      <trkpt lat="47.17611" lon="-1.6687">
        <ele>26.53</ele>
        <time>2019-05-12T08:00:55Z</time>
      </trkpt>
      <trkpt lat="47.17603" lon="-1.66856">
        <ele>26.67</ele>
        <time>2019-05-12T08:00:58Z</time>
      </trkpt>
      <trkpt lat="47.17596" lon="-1.66843">
        <ele>26.77</ele>
        <time>2019-05-12T08:01:01Z</time>
      </trkpt>
      <trkpt lat="47.17588" lon="-1.66832">
        <ele>27.12</ele>
        <time>2019-05-12T08:01:04Z</time>
      </trkpt>
      <trkpt lat="47.1758" lon="-1.66818">
        <ele>28.85</ele>
        <time>2019-05-12T08:01:07Z</time>
      </trkpt>
      <trkpt lat="47.17572" lon="-1.66805">
        <ele>29.04</ele>
        <time>2019-05-12T08:01:10Z</time>
      </trkpt>
      <trkpt lat="47.17564" lon="-1.66791">
        <ele>29.29</ele>
        <time>2019-05-12T08:01:13Z</time>
      </trkpt>
      <trkpt lat="47.17559" lon="-1.66779">
        <ele>29.84</ele>
        <time>2019-05-12T08:01:15Z</time>
      </trkpt>
      <trkpt lat="47.17553" lon="-1.66768">
        <ele>30.57</ele>
        <time>2019-05-12T08:01:17Z</time>
      </trkpt>
      <trkpt lat="47.17547" lon="-1.66755">
        <ele>31.21</ele>
        <time>2019-05-12T08:01:19Z</time>
      </trkpt>
      <trkpt lat="47.1754" lon="-1.6674">
        <ele>30.87</ele>
        <time>2019-05-12T08:01:22Z</time>
      </trkpt>
      <trkpt lat="47.17533" lon="-1.66726">
        <ele>30.24</ele>
        <time>2019-05-12T08:01:25Z</time>
      </trkpt>
      <trkpt lat="47.17527" lon="-1.66715">
        <ele>30.31</ele>
        <time>2019-05-12T08:01:27Z</time>
      </trkpt>
      <trkpt lat="47.17522" lon="-1.66704">
        <ele>30.37</ele>
        <time>2019-05-12T08:01:29Z</time>
      </trkpt>
      <trkpt lat="47.17516" lon="-1.66693">
        <ele>31.08</ele>
        <time>2019-05-12T08:01:31Z</time>
      </trkpt>
      <trkpt lat="47.17509" lon="-1.66676">
        <ele>32.26</ele>
        <time>2019-05-12T08:01:34Z</time>
      </trkpt>
      <trkpt lat="47.17503" lon="-1.66665">
        <ele>32.51</ele>
        <time>2019-05-12T08:01:37Z</time>
      </trkpt>
      <trkpt lat="47.17494" lon="-1.66652">
        <ele>32.54</ele>
        <time>2019-05-12T08:01:40Z</time>
      </trkpt>
      <trkpt lat="47.17486" lon="-1.66637">
        <ele>32.47</ele>
        <time>2019-05-12T08:01:43Z</time>
      </trkpt>
      <trkpt lat="47.17479" lon="-1.66624">
        <ele>32.59</ele>
        <time>2019-05-12T08:01:45Z</time>
      </trkpt>
      <trkpt lat="47.17473" lon="-1.66612">
        <ele>32.56</ele>
        <time>2019-05-12T08:01:48Z</time>
      </trkpt>
      <trkpt lat="47.17467" lon="-1.66598">
        <ele>32.45</ele>
        <time>2019-05-12T08:01:51Z</time>
      </trkpt>
      <trkpt lat="47.17473" lon="-1.66587">
        <ele>32.3</ele>
        <time>2019-05-12T08:01:54Z</time>
      </trkpt>
      <trkpt lat="47.17481" lon="-1.66573">
        <ele>32.11</ele>
        <time>2019-05-12T08:01:58Z</time>
      </trkpt>
      <trkpt lat="47.17491" lon="-1.66562">
        <ele>31.92</ele>
        <time>2019-05-12T08:02:01Z</time>
      </trkpt>
      <trkpt lat="47.17501" lon="-1.66552">
        <ele>31.48</ele>
        <time>2019-05-12T08:02:04Z</time>
      </trkpt>
      <trkpt lat="47.17511" lon="-1.66542">
        <ele>31.19</ele>
        <time>2019-05-12T08:02:07Z</time>
      </trkpt>
      <trkpt lat="47.17522" lon="-1.66531">
        <ele>31.1</ele>
        <time>2019-05-12T08:02:10Z</time>
      </trkpt>
      <trkpt lat="47.17533" lon="-1.66522">
        <ele>31.24</ele>
        <time>2019-05-12T08:02:13Z</time>
      </trkpt>
      <trkpt lat="47.17541" lon="-1.66516">
        <ele>31.16</ele>
        <time>2019-05-12T08:02:15Z</time>
      </trkpt>
      <trkpt lat="47.17549" lon="-1.66509">
        <ele>31.22</ele>
        <time>2019-05-12T08:02:17Z</time>
      </trkpt>
      <trkpt lat="47.17558" lon="-1.66502">
        <ele>30.67</ele>
        <time>2019-05-12T08:02:19Z</time>
      </trkpt>
      <trkpt lat="47.17565" lon="-1.66494">
        <ele>30.56</ele>
        <time>2019-05-12T08:02:21Z</time>
      </trkpt>
      <trkpt lat="47.17575" lon="-1.66483">
        <ele>30.57</ele>
        <time>2019-05-12T08:02:24Z</time>
      </trkpt>
      <trkpt lat="47.17584" lon="-1.66472">
        <ele>30.42</ele>
        <time>2019-05-12T08:02:27Z</time>
      </trkpt>
      <trkpt lat="47.17595" lon="-1.66461">
        <ele>30.48</ele>
        <time>2019-05-12T08:02:30Z</time>
      </trkpt>
      <trkpt lat="47.17606" lon="-1.6645">
        <ele>30.18</ele>
        <time>2019-05-12T08:02:33Z</time>
      </trkpt>
      <trkpt lat="47.17615" lon="-1.66443">
        <ele>29.95</ele>
        <time>2019-05-12T08:02:35Z</time>
      </trkpt>
      <trkpt lat="47.17626" lon="-1.66436">
        <ele>28.56</ele>
        <time>2019-05-12T08:02:38Z</time>
      </trkpt>
      <trkpt lat="47.17634" lon="-1.6643">
        <ele>27.99</ele>
        <time>2019-05-12T08:02:40Z</time>
      </trkpt>
      <trkpt lat="47.17646" lon="-1.6642">
        <ele>27.66</ele>
        <time>2019-05-12T08:02:43Z</time>
      </trkpt>
      <trkpt lat="47.17654" lon="-1.66412">
        <ele>27.34</ele>
        <time>2019-05-12T08:02:46Z</time>
      </trkpt>
      <trkpt lat="47.17665" lon="-1.66402">
        <ele>27.04</ele>
        <time>2019-05-12T08:02:49Z</time>
      </trkpt>
      <trkpt lat="47.17673" lon="-1.66396">
        <ele>26.77</ele>
        <time>2019-05-12T08:02:51Z</time>
      </trkpt>
      <trkpt lat="47.17681" lon="-1.66387">
        <ele>26.58</ele>
        <time>2019-05-12T08:02:53Z</time>
      </trkpt>
      <trkpt lat="47.17691" lon="-1.66377">
        <ele>26.17</ele>
        <time>2019-05-12T08:02:56Z</time>
      </trkpt>
      <trkpt lat="47.177" lon="-1.66369">
        <ele>25.9</ele>
        <time>2019-05-12T08:02:59Z</time>
      </trkpt>
      <trkpt lat="47.17707" lon="-1.66359">
        <ele>25.79</ele>
        <time>2019-05-12T08:03:02Z</time>
      </trkpt>
      <trkpt lat="47.17709" lon="-1.66343">
        <ele>25.78</ele>
        <time>2019-05-12T08:03:06Z</time>
      </trkpt>
      <trkpt lat="47.17706" lon="-1.66326">
        <ele>25.94</ele>
        <time>2019-05-12T08:03:10Z</time>
      </trkpt>
      <trkpt lat="47.17703" lon="-1.66307">
        <ele>26.3</ele>
        <time>2019-05-12T08:03:13Z</time>
      </trkpt>
      <trkpt lat="47.17699" lon="-1.66292">
        <ele>26.38</ele>
        <time>2019-05-12T08:03:16Z</time>
      </trkpt>
      <trkpt lat="47.17697" lon="-1.66279">
        <ele>26.37</ele>
        <time>2019-05-12T08:03:18Z</time>
      </trkpt>
      <trkpt lat="47.17693" lon="-1.66265">
        <ele>26.47</ele>
        <time>2019-05-12T08:03:21Z</time>
      </trkpt>
      <trkpt lat="47.1769" lon="-1.6625">
        <ele>26.75</ele>
        <time>2019-05-12T08:03:24Z</time>
      </trkpt>
      <trkpt lat="47.17688" lon="-1.66232">
        <ele>27.21</ele>
        <time>2019-05-12T08:03:27Z</time>
      </trkpt>
      <trkpt lat="47.17685" lon="-1.66212">
        <ele>27.65</ele>
        <time>2019-05-12T08:03:30Z</time>
      </trkpt>
      <trkpt lat="47.17683" lon="-1.66197">
        <ele>28.07</ele>
        <time>2019-05-12T08:03:32Z</time>
      </trkpt>
      <trkpt lat="47.1768" lon="-1.66182">
        <ele>28.49</ele>
        <time>2019-05-12T08:03:35Z</time>
      </trkpt>
      <trkpt lat="47.17679" lon="-1.66167">
        <ele>28.81</ele>
        <time>2019-05-12T08:03:38Z</time>
      </trkpt>
      <trkpt lat="47.17675" lon="-1.66149">
        <ele>29.04</ele>
        <time>2019-05-12T08:03:42Z</time>
      </trkpt>
      <trkpt lat="47.17672" lon="-1.66133">
        <ele>29.03</ele>
        <time>2019-05-12T08:03:45Z</time>
      </trkpt>
      <trkpt lat="47.17669" lon="-1.66117">
        <ele>29.1</ele>
        <time>2019-05-12T08:03:48Z</time>
      </trkpt>
      <trkpt lat="47.17668" lon="-1.66101">
        <ele>29.21</ele>
        <time>2019-05-12T08:03:51Z</time>
      </trkpt>
      <trkpt lat="47.17665" lon="-1.66085">
        <ele>29.24</ele>
        <time>2019-05-12T08:03:53Z</time>
      </trkpt>
      <trkpt lat="47.17663" lon="-1.66069">
        <ele>29.38</ele>
        <time>2019-05-12T08:03:56Z</time>
      </trkpt>
      <trkpt lat="47.17662" lon="-1.66052">
        <ele>29.45</ele>
        <time>2019-05-12T08:03:59Z</time>
      </trkpt>
      <trkpt lat="47.1766" lon="-1.66039">
        <ele>29.39</ele>
        <time>2019-05-12T08:04:01Z</time>
      </trkpt>
      <trkpt lat="47.17657" lon="-1.66023">
        <ele>29.4</ele>
        <time>2019-05-12T08:04:03Z</time>
      </trkpt>
      <trkpt lat="47.17653" lon="-1.66004">
        <ele>30.22</ele>
        <time>2019-05-12T08:04:06Z</time>
      </trkpt>
      <trkpt lat="47.17651" lon="-1.65991">
        <ele>30.26</ele>
        <time>2019-05-12T08:04:08Z</time>
      </trkpt>
      <trkpt lat="47.17647" lon="-1.65975">
        <ele>30.51</ele>
        <time>2019-05-12T08:04:11Z</time>
      </trkpt>
      <trkpt lat="47.17642" lon="-1.65964">
        <ele>32.23</ele>
        <time>2019-05-12T08:04:13Z</time>
      </trkpt>
      <trkpt lat="47.17636" lon="-1.65952">
        <ele>34.79</ele>
        <time>2019-05-12T08:04:15Z</time>
      </trkpt>
      <trkpt lat="47.17629" lon="-1.65942">
        <ele>36.96</ele>
        <time>2019-05-12T08:04:17Z</time>
      </trkpt>
      <trkpt lat="47.17622" lon="-1.65933">
        <ele>37.8</ele>
        <time>2019-05-12T08:04:19Z</time>
      </trkpt>
      <trkpt lat="47.17616" lon="-1.65918">
        <ele>38.5</ele>
        <time>2019-05-12T08:04:22Z</time>
      </trkpt>
      <trkpt lat="47.17611" lon="-1.65906">
        <ele>38.69</ele>
        <time>2019-05-12T08:04:25Z</time>
      </trkpt>
      <trkpt lat="47.17605" lon="-1.65891">
        <ele>38.69</ele>
        <time>2019-05-12T08:04:28Z</time>
      </trkpt>
      <trkpt lat="47.17598" lon="-1.65876">
        <ele>38.66</ele>
        <time>2019-05-12T08:04:31Z</time>
      </trkpt>
      <trkpt lat="47.17594" lon="-1.65864">
        <ele>38.69</ele>
        <time>2019-05-12T08:04:33Z</time>
      </trkpt>
      <trkpt lat="47.17588" lon="-1.65848">
        <ele>38.69</ele>
        <time>2019-05-12T08:04:36Z</time>
      </trkpt>
      <trkpt lat="47.17584" lon="-1.65836">
        <ele>38.71</ele>
        <time>2019-05-12T08:04:38Z</time>
      </trkpt>
      <trkpt lat="47.17577" lon="-1.65823">
        <ele>38.61</ele>
        <time>2019-05-12T08:04:41Z</time>
      </trkpt>
      <trkpt lat="47.1757" lon="-1.6581">
        <ele>38.75</ele>
        <time>2019-05-12T08:04:44Z</time>
      </trkpt>
      <trkpt lat="47.17563" lon="-1.65794">
        <ele>38.82</ele>
        <time>2019-05-12T08:04:47Z</time>
      </trkpt>
      <trkpt lat="47.17555" lon="-1.65779">
        <ele>40.08</ele>
        <time>2019-05-12T08:04:50Z</time>
      </trkpt>
      <trkpt lat="47.17545" lon="-1.65778">
        <ele>39.91</ele>
        <time>2019-05-12T08:04:54Z</time>
      </trkpt>
      <trkpt lat="47.17539" lon="-1.65791">
        <ele>39.46</ele>
        <time>2019-05-12T08:04:59Z</time>
      </trkpt>
      <trkpt lat="47.17529" lon="-1.65801">
        <ele>38.9</ele>
        <time>2019-05-12T08:05:02Z</time>
      </trkpt>
      <trkpt lat="47.17519" lon="-1.65793">
        <ele>38.08</ele>
        <time>2019-05-12T08:05:05Z</time>
      </trkpt>
      <trkpt lat="47.17514" lon="-1.65778">
        <ele>37.11</ele>
        <time>2019-05-12T08:05:10Z</time>
      </trkpt>
      <trkpt lat="47.17511" lon="-1.65763">
        <ele>36.81</ele>
        <time>2019-05-12T08:05:14Z</time>
      </trkpt>
      <trkpt lat="47.175" lon="-1.65757">
        <ele>36.66</ele>
        <time>2019-05-12T08:05:17Z</time>
      </trkpt>
      <trkpt lat="47.17491" lon="-1.65754">
        <ele>35.27</ele>
        <time>2019-05-12T08:05:19Z</time>
      </trkpt>
      <trkpt lat="47.17482" lon="-1.65751">
        <ele>33.61</ele>
        <time>2019-05-12T08:05:21Z</time>
      </trkpt>
      <trkpt lat="47.17472" lon="-1.65747">
        <ele>31.93</ele>
        <time>2019-05-12T08:05:23Z</time>
      </trkpt>
      <trkpt lat="47.17462" lon="-1.65742">
        <ele>31.23</ele>
        <time>2019-05-12T08:05:25Z</time>
      </trkpt>
      <trkpt lat="47.17453" lon="-1.65734">
        <ele>31.3</ele>
        <time>2019-05-12T08:05:27Z</time>
      </trkpt>
      <trkpt lat="47.17447" lon="-1.65723">
        <ele>31.62</ele>
        <time>2019-05-12T08:05:29Z</time>
      </trkpt>
      <trkpt lat="47.17444" lon="-1.65706">
        <ele>31.81</ele>
        <time>2019-05-12T08:05:31Z</time>
      </trkpt>
      <trkpt lat="47.17447" lon="-1.65691">
        <ele>31.25</ele>
        <time>2019-05-12T08:05:33Z</time>
      </trkpt>
      <trkpt lat="47.17451" lon="-1.65675">
        <ele>30.88</ele>
        <time>2019-05-12T08:05:36Z</time>
      </trkpt>
      <trkpt lat="47.17456" lon="-1.65663">
        <ele>30.75</ele>
        <time>2019-05-12T08:05:38Z</time>
      </trkpt>
      <trkpt lat="47.17464" lon="-1.6565">
        <ele>30.78</ele>
        <time>2019-05-12T08:05:41Z</time>
      </trkpt>
      <trkpt lat="47.17469" lon="-1.65639">
        <ele>30.77</ele>
        <time>2019-05-12T08:05:44Z</time>
      </trkpt>
      <trkpt lat="47.17476" lon="-1.65625">
        <ele>30.77</ele>
        <time>2019-05-12T08:05:47Z</time>
      </trkpt>
      <trkpt lat="47.17482" lon="-1.65614">
        <ele>30.89</ele>
        <time>2019-05-12T08:05:49Z</time>
      </trkpt>
      <trkpt lat="47.1749" lon="-1.65604">
        <ele>31.37</ele>
        <time>2019-05-12T08:05:51Z</time>
      </trkpt>
      <trkpt lat="47.17499" lon="-1.65595">
        <ele>31.31</ele>
        <time>2019-05-12T08:05:54Z</time>
      </trkpt>
      <trkpt lat="47.1751" lon="-1.65584">
        <ele>31.51</ele>
        <time>2019-05-12T08:05:57Z</time>
      </trkpt>
      <trkpt lat="47.17521" lon="-1.65576">
        <ele>30.89</ele>
        <time>2019-05-12T08:06:00Z</time>
      </trkpt>
      <trkpt lat="47.17529" lon="-1.65569">
        <ele>31.13</ele>
        <time>2019-05-12T08:06:03Z</time>
      </trkpt>
      <trkpt lat="47.17534" lon="-1.65559">
        <ele>31.18</ele>
        <time>2019-05-12T08:06:08Z</time>
      </trkpt>
      <trkpt lat="47.17533" lon="-1.65543">
        <ele>31.02</ele>
        <time>2019-05-12T08:06:12Z</time>
      </trkpt>
      <trkpt lat="47.17531" lon="-1.65524">
        <ele>30.23</ele>
        <time>2019-05-12T08:06:16Z</time>
      </trkpt>
      <trkpt lat="47.1753" lon="-1.65509">
        <ele>29.63</ele>
        <time>2019-05-12T08:06:18Z</time>
      </trkpt>
      <trkpt lat="47.17531" lon="-1.65493">
        <ele>29.48</ele>
        <time>2019-05-12T08:06:21Z</time>
      </trkpt>
      <trkpt lat="47.17531" lon="-1.65477">
        <ele>29.66</ele>
        <time>2019-05-12T08:06:23Z</time>
      </trkpt>
      <trkpt lat="47.17533" lon="-1.65461">
        <ele>29.61</ele>
        <time>2019-05-12T08:06:25Z</time>
      </trkpt>
      <trkpt lat="47.17533" lon="-1.65443">
        <ele>30</ele>
        <time>2019-05-12T08:06:28Z</time>
      </trkpt>
      <trkpt lat="47.17532" lon="-1.65428">
        <ele>29.51</ele>
        <time>2019-05-12T08:06:30Z</time>
      </trkpt>
      <trkpt lat="47.1753" lon="-1.65412">
        <ele>29.39</ele>
        <time>2019-05-12T08:06:32Z</time>
      </trkpt>
      <trkpt lat="47.17529" lon="-1.65397">
        <ele>29.02</ele>
        <time>2019-05-12T08:06:34Z</time>
      </trkpt>
      <trkpt lat="47.17525" lon="-1.65381">
        <ele>27.4</ele>
        <time>2019-05-12T08:06:37Z</time>
      </trkpt>
      <trkpt lat="47.17519" lon="-1.65369">
        <ele>27.51</ele>
        <time>2019-05-12T08:06:39Z</time>
      </trkpt>
      <trkpt lat="47.17513" lon="-1.65358">
        <ele>27.64</ele>
        <time>2019-05-12T08:06:41Z</time>
      </trkpt>
      <trkpt lat="47.17503" lon="-1.6535">
        <ele>27.63</ele>
        <time>2019-05-12T08:06:44Z</time>
      </trkpt>
      <trkpt lat="47.17495" lon="-1.65345">
        <ele>27.91</ele>
        <time>2019-05-12T08:06:46Z</time>
      </trkpt>
      <trkpt lat="47.17484" lon="-1.65342">
        <ele>27.94</ele>
        <time>2019-05-12T08:06:49Z</time>
      </trkpt>
      <trkpt lat="47.17475" lon="-1.65336">
        <ele>28.3</ele>
        <time>2019-05-12T08:06:52Z</time>
      </trkpt>
      <trkpt lat="47.17468" lon="-1.65322">
        <ele>28.64</ele>
        <time>2019-05-12T08:06:55Z</time>
      </trkpt>
      <trkpt lat="47.17461" lon="-1.65311">
        <ele>28.9</ele>
        <time>2019-05-12T08:06:58Z</time>
      </trkpt>
      <trkpt lat="47.17453" lon="-1.65295">
        <ele>28.99</ele>
        <time>2019-05-12T08:07:01Z</time>
      </trkpt>
      <trkpt lat="47.17448" lon="-1.65283">
        <ele>28.86</ele>
        <time>2019-05-12T08:07:04Z</time>
      </trkpt>
      <trkpt lat="47.17442" lon="-1.65267">
        <ele>28.7</ele>
        <time>2019-05-12T08:07:07Z</time>
      </trkpt>
      <trkpt lat="47.17437" lon="-1.65249">
        <ele>29.77</ele>
        <time>2019-05-12T08:07:10Z</time>
      </trkpt>
      <trkpt lat="47.17434" lon="-1.65233">
        <ele>30.94</ele>
        <time>2019-05-12T08:07:13Z</time>
      </trkpt>
      <trkpt lat="47.17431" lon="-1.65215">
        <ele>31.17</ele>
        <time>2019-05-12T08:07:16Z</time>
      </trkpt>
      <trkpt lat="47.17429" lon="-1.65198">
        <ele>31.06</ele>
        <time>2019-05-12T08:07:19Z</time>
      </trkpt>
      <trkpt lat="47.17427" lon="-1.65182">
        <ele>30.83</ele>
        <time>2019-05-12T08:07:22Z</time>
      </trkpt>
      <trkpt lat="47.17427" lon="-1.65166">
        <ele>30.74</ele>
        <time>2019-05-12T08:07:25Z</time>
      </trkpt>
      <trkpt lat="47.17428" lon="-1.6515">
        <ele>30.29</ele>
        <time>2019-05-12T08:07:29Z</time>
      </trkpt>
      <trkpt lat="47.17429" lon="-1.65134">
        <ele>29.95</ele>
        <time>2019-05-12T08:07:32Z</time>
      </trkpt>
      <trkpt lat="47.17429" lon="-1.6512">
        <ele>29.74</ele>
        <time>2019-05-12T08:07:35Z</time>
      </trkpt>
      <trkpt lat="47.17429" lon="-1.65102">
        <ele>29.47</ele>
        <time>2019-05-12T08:07:38Z</time>
      </trkpt>
      <trkpt lat="47.17429" lon="-1.65089">
        <ele>29.26</ele>
        <time>2019-05-12T08:07:40Z</time>
      </trkpt>
      <trkpt lat="47.17427" lon="-1.65074">
        <ele>28.98</ele>
        <time>2019-05-12T08:07:42Z</time>
      </trkpt>
      <trkpt lat="47.17425" lon="-1.65056">
        <ele>28.55</ele>
        <time>2019-05-12T08:07:44Z</time>
      </trkpt>
      <trkpt lat="47.17426" lon="-1.65038">
        <ele>27.77</ele>
        <time>2019-05-12T08:07:47Z</time>
      </trkpt>
      <trkpt lat="47.17426" lon="-1.65019">
        <ele>27.36</ele>
        <time>2019-05-12T08:07:50Z</time>
      </trkpt>
      <trkpt lat="47.17425" lon="-1.65003">
        <ele>27.15</ele>
        <time>2019-05-12T08:07:54Z</time>
      </trkpt>
      <trkpt lat="47.17423" lon="-1.6499">
        <ele>27.14</ele>
        <time>2019-05-12T08:07:57Z</time>
      </trkpt>
      <trkpt lat="47.17418" lon="-1.64973">
        <ele>26.84</ele>
        <time>2019-05-12T08:08:00Z</time>
      </trkpt>
      <trkpt lat="47.17415" lon="-1.64957">
        <ele>26.49</ele>
        <time>2019-05-12T08:08:03Z</time>
      </trkpt>
      <trkpt lat="47.17414" lon="-1.64942">
        <ele>26.19</ele>
        <time>2019-05-12T08:08:06Z</time>
      </trkpt>
      <trkpt lat="47.1741" lon="-1.64926">
        <ele>25.96</ele>
        <time>2019-05-12T08:08:09Z</time>
      </trkpt>
      <trkpt lat="47.17408" lon="-1.64912">
        <ele>25.66</ele>
        <time>2019-05-12T08:08:12Z</time>
      </trkpt>
      <trkpt lat="47.17407" lon="-1.64897">
        <ele>25.42</ele>
        <time>2019-05-12T08:08:15Z</time>
      </trkpt>
      <trkpt lat="47.17408" lon="-1.64883">
        <ele>25.05</ele>
        <time>2019-05-12T08:08:18Z</time>
      </trkpt>
      <trkpt lat="47.17408" lon="-1.64867">
        <ele>24.04</ele>
        <time>2019-05-12T08:08:22Z</time>
      </trkpt>
      <trkpt lat="47.17405" lon="-1.64852">
        <ele>23.15</ele>
        <time>2019-05-12T08:08:26Z</time>
      </trkpt>
      <trkpt lat="47.17404" lon="-1.64835">
        <ele>21.79</ele>
        <time>2019-05-12T08:08:30Z</time>
      </trkpt>
      <trkpt lat="47.17403" lon="-1.64817">
        <ele>20.48</ele>
        <time>2019-05-12T08:08:33Z</time>
      </trkpt>
      <trkpt lat="47.17402" lon="-1.64799">
        <ele>19</ele>
        <time>2019-05-12T08:08:36Z</time>
      </trkpt>
      <trkpt lat="47.17401" lon="-1.6478">
        <ele>17.53</ele>
        <time>2019-05-12T08:08:39Z</time>
      </trkpt>
      <trkpt lat="47.17401" lon="-1.64764">
        <ele>13.31</ele>
        <time>2019-05-12T08:08:41Z</time>
      </trkpt>
      <trkpt lat="47.174" lon="-1.6475">
        <ele>11.87</ele>
        <time>2019-05-12T08:08:43Z</time>
      </trkpt>
      <trkpt lat="47.17398" lon="-1.64732">
        <ele>11.42</ele>
        <time>2019-05-12T08:08:45Z</time>
      </trkpt>
      <trkpt lat="47.17395" lon="-1.64708">
        <ele>11.45</ele>
        <time>2019-05-12T08:08:47Z</time>
      </trkpt>
      <trkpt lat="47.17393" lon="-1.64686">
        <ele>14.6</ele>
        <time>2019-05-12T08:08:49Z</time>
      </trkpt>
      <trkpt lat="47.1739" lon="-1.64668">
        <ele>18.53</ele>
        <time>2019-05-12T08:08:51Z</time>
      </trkpt>
      <trkpt lat="47.17387" lon="-1.64654">
        <ele>20.6</ele>
        <time>2019-05-12T08:08:53Z</time>
      </trkpt>
      <trkpt lat="47.17381" lon="-1.64639">
        <ele>24.01</ele>
        <time>2019-05-12T08:08:56Z</time>
      </trkpt>
      <trkpt lat="47.17374" lon="-1.64628">
        <ele>24.48</ele>
        <time>2019-05-12T08:08:59Z</time>
      </trkpt>
      <trkpt lat="47.17368" lon="-1.64616">
        <ele>25.29</ele>
        <time>2019-05-12T08:09:02Z</time>
      </trkpt>
      <trkpt lat="47.17358" lon="-1.64605">
        <ele>26.08</ele>
        <time>2019-05-12T08:09:05Z</time>
      </trkpt>
      <trkpt lat="47.1735" lon="-1.64596">
        <ele>26.36</ele>
        <time>2019-05-12T08:09:07Z</time>
      </trkpt>
      <trkpt lat="47.17342" lon="-1.64587">
        <ele>26.52</ele>
        <time>2019-05-12T08:09:11Z</time>
      </trkpt>
      <trkpt lat="47.17333" lon="-1.64577">
        <ele>26.41</ele>
        <time>2019-05-12T08:09:18Z</time>
      </trkpt>
      <trkpt lat="47.17323" lon="-1.64564">
        <ele>27.04</ele>
        <time>2019-05-12T08:09:21Z</time>
      </trkpt>
      <trkpt lat="47.17315" lon="-1.64552">
        <ele>27.86</ele>
        <time>2019-05-12T08:09:23Z</time>
      </trkpt>
      <trkpt lat="47.17309" lon="-1.6454">
        <ele>28.77</ele>
        <time>2019-05-12T08:09:25Z</time>
      </trkpt>
      <trkpt lat="47.17319" lon="-1.64533">
        <ele>29.02</ele>
        <time>2019-05-12T08:09:28Z</time>
      </trkpt>
      <trkpt lat="47.17327" lon="-1.64542">
        <ele>29.24</ele>
        <time>2019-05-12T08:09:30Z</time>
      </trkpt>
      <trkpt lat="47.17335" lon="-1.64552">
        <ele>29.13</ele>
        <time>2019-05-12T08:09:32Z</time>
      </trkpt>
      <trkpt lat="47.17344" lon="-1.64557">
        <ele>28.24</ele>
        <time>2019-05-12T08:09:34Z</time>
      </trkpt>
      <trkpt lat="47.17357" lon="-1.64556">
        <ele>28.07</ele>
        <time>2019-05-12T08:09:36Z</time>
      </trkpt>
      <trkpt lat="47.17368" lon="-1.64552">
        <ele>28.58</ele>
        <time>2019-05-12T08:09:38Z</time>
      </trkpt>
      <trkpt lat="47.17378" lon="-1.64539">
        <ele>27.8</ele>
        <time>2019-05-12T08:09:40Z</time>
      </trkpt>
      <trkpt lat="47.17385" lon="-1.64523">
        <ele>26.27</ele>
        <time>2019-05-12T08:09:42Z</time>
      </trkpt>
      <trkpt lat="47.17392" lon="-1.64507">
        <ele>23.01</ele>
        <time>2019-05-12T08:09:44Z</time>
      </trkpt>
      <trkpt lat="47.174" lon="-1.64488">
        <ele>19.89</ele>
        <time>2019-05-12T08:09:45Z</time>
      </trkpt>
      <trkpt lat="47.17407" lon="-1.64472">
        <ele>18.23</ele>
        <time>2019-05-12T08:09:47Z</time>
      </trkpt>
      <trkpt lat="47.17413" lon="-1.64459">
        <ele>17.74</ele>
        <time>2019-05-12T08:09:49Z</time>
      </trkpt>
      <trkpt lat="47.17419" lon="-1.64443">
        <ele>17.5</ele>
        <time>2019-05-12T08:09:52Z</time>
      </trkpt>
      <trkpt lat="47.1742" lon="-1.64426">
        <ele>16.67</ele>
        <time>2019-05-12T08:09:54Z</time>
      </trkpt>
      <trkpt lat="47.17421" lon="-1.64408">
        <ele>16.85</ele>
        <time>2019-05-12T08:09:56Z</time>
      </trkpt>
      <trkpt lat="47.17424" lon="-1.64394">
        <ele>17.88</ele>
        <time>2019-05-12T08:09:58Z</time>
      </trkpt>
      <trkpt lat="47.17428" lon="-1.64378">
        <ele>16.64</ele>
        <time>2019-05-12T08:10:00Z</time>
      </trkpt>
      <trkpt lat="47.17432" lon="-1.64363">
        <ele>16.77</ele>
        <time>2019-05-12T08:10:02Z</time>
      </trkpt>
      <trkpt lat="47.17439" lon="-1.64346">
        <ele>16.45</ele>
        <time>2019-05-12T08:10:04Z</time>
      </trkpt>
      <trkpt lat="47.17429" lon="-1.64342">
        <ele>15.39</ele>
        <time>2019-05-12T08:10:09Z</time>
      </trkpt>
      <trkpt lat="47.17422" lon="-1.64326">
        <ele>16.76</ele>
        <time>2019-05-12T08:10:13Z</time>
      </trkpt>
      <trkpt lat="47.17423" lon="-1.64313">
        <ele>18.13</ele>
        <time>2019-05-12T08:10:15Z</time>
      </trkpt>
      <trkpt lat="47.17424" lon="-1.64293">
        <ele>18.24</ele>
        <time>2019-05-12T08:10:18Z</time>
      </trkpt>
      <trkpt lat="47.17424" lon="-1.64277">
        <ele>18.42</ele>
        <time>2019-05-12T08:10:21Z</time>
      </trkpt>
      <trkpt lat="47.17426" lon="-1.64259">
        <ele>18.61</ele>
        <time>2019-05-12T08:10:24Z</time>
      </trkpt>
      <trkpt lat="47.17428" lon="-1.6424">
        <ele>18.97</ele>
        <time>2019-05-12T08:10:27Z</time>
      </trkpt>
      <trkpt lat="47.17432" lon="-1.64222">
        <ele>19.14</ele>
        <time>2019-05-12T08:10:30Z</time>
      </trkpt>
      <trkpt lat="47.17436" lon="-1.64205">
        <ele>19.34</ele>
        <time>2019-05-12T08:10:33Z</time>
      </trkpt>
      <trkpt lat="47.1744" lon="-1.64191">
        <ele>19.51</ele>
        <time>2019-05-12T08:10:36Z</time>
      </trkpt>
      <trkpt lat="47.17445" lon="-1.64175">
        <ele>19.6</ele>
        <time>2019-05-12T08:10:39Z</time>
      </trkpt>
      <trkpt lat="47.1745" lon="-1.64162">
        <ele>19.66</ele>
        <time>2019-05-12T08:10:41Z</time>
      </trkpt>
      <trkpt lat="47.17455" lon="-1.6415">
        <ele>19.67</ele>
        <time>2019-05-12T08:10:44Z</time>
      </trkpt>
      <trkpt lat="47.17461" lon="-1.64134">
        <ele>19.57</ele>
        <time>2019-05-12T08:10:47Z</time>
      </trkpt>
      <trkpt lat="47.17465" lon="-1.64118">
        <ele>19.37</ele>
        <time>2019-05-12T08:10:50Z</time>
      </trkpt>
      <trkpt lat="47.17466" lon="-1.64103">
        <ele>18.19</ele>
        <time>2019-05-12T08:10:53Z</time>
      </trkpt>
      <trkpt lat="47.17471" lon="-1.64086">
        <ele>17.64</ele>
        <time>2019-05-12T08:10:56Z</time>
      </trkpt>
      <trkpt lat="47.17477" lon="-1.64071">
        <ele>14.46</ele>
        <time>2019-05-12T08:10:58Z</time>
      </trkpt>
      <trkpt lat="47.17479" lon="-1.64054">
        <ele>11.01</ele>
        <time>2019-05-12T08:11:01Z</time>
      </trkpt>
      <trkpt lat="47.17475" lon="-1.64039">
        <ele>10.65</ele>
        <time>2019-05-12T08:11:04Z</time>
      </trkpt>
      <trkpt lat="47.17473" lon="-1.64024">
        <ele>10.82</ele>
        <time>2019-05-12T08:11:08Z</time>
      </trkpt>
      <trkpt lat="47.17481" lon="-1.64006">
        <ele>12.43</ele>
        <time>2019-05-12T08:11:11Z</time>
      </trkpt>
      <trkpt lat="47.1749" lon="-1.63989">
        <ele>12.46</ele>
        <time>2019-05-12T08:11:13Z</time>
      </trkpt>
      <trkpt lat="47.17497" lon="-1.63978">
        <ele>12.27</ele>
        <time>2019-05-12T08:11:15Z</time>
      </trkpt>
      <trkpt lat="47.17506" lon="-1.63969">
        <ele>11.81</ele>
        <time>2019-05-12T08:11:17Z</time>
      </trkpt>
      <trkpt lat="47.17513" lon="-1.6396">
        <ele>11.76</ele>
        <time>2019-05-12T08:11:19Z</time>
      </trkpt>
      <trkpt lat="47.17524" lon="-1.63952">
        <ele>10.25</ele>
        <time>2019-05-12T08:11:21Z</time>
      </trkpt>
      <trkpt lat="47.17533" lon="-1.63946">
        <ele>9.98</ele>
        <time>2019-05-12T08:11:23Z</time>
      </trkpt>
      <trkpt lat="47.17541" lon="-1.63938">
        <ele>10</ele>
        <time>2019-05-12T08:11:27Z</time>
      </trkpt>
      <trkpt lat="47.1755" lon="-1.63927">
        <ele>10.03</ele>
        <time>2019-05-12T08:11:30Z</time>
      </trkpt>
      <trkpt lat="47.17558" lon="-1.63919">
        <ele>10.28</ele>
        <time>2019-05-12T08:11:34Z</time>
      </trkpt>
      <trkpt lat="47.17568" lon="-1.63909">
        <ele>9.91</ele>
        <time>2019-05-12T08:11:41Z</time>
      </trkpt>
      <trkpt lat="47.17576" lon="-1.63896">
        <ele>10.09</ele>
        <time>2019-05-12T08:11:43Z</time>
      </trkpt>
      <trkpt lat="47.17582" lon="-1.63884">
        <ele>9.66</ele>
        <time>2019-05-12T08:11:45Z</time>
      </trkpt>
      <trkpt lat="47.17589" lon="-1.63872">
        <ele>9.41</ele>
        <time>2019-05-12T08:11:47Z</time>
      </trkpt>
      <trkpt lat="47.17599" lon="-1.63858">
        <ele>7.57</ele>
        <time>2019-05-12T08:11:49Z</time>
      </trkpt>
      <trkpt lat="47.17611" lon="-1.63845">
        <ele>4.22</ele>
        <time>2019-05-12T08:11:51Z</time>
      </trkpt>
      <trkpt lat="47.17622" lon="-1.63837">
        <ele>0.85</ele>
        <time>2019-05-12T08:11:53Z</time>
      </trkpt>
      <trkpt lat="47.1763" lon="-1.63823">
        <ele>0.22</ele>
        <time>2019-05-12T08:11:56Z</time>
      </trkpt>
      <trkpt lat="47.17638" lon="-1.63813">
        <ele>0.23</ele>
        <time>2019-05-12T08:11:58Z</time>
      </trkpt>
      <trkpt lat="47.17646" lon="-1.63804">
        <ele>0.42</ele>
        <time>2019-05-12T08:12:00Z</time>
      </trkpt>
      <trkpt lat="47.17655" lon="-1.63796">
        <ele>1.36</ele>
        <time>2019-05-12T08:12:02Z</time>
      </trkpt>
      <trkpt lat="47.17663" lon="-1.63786">
        <ele>1.63</ele>
        <time>2019-05-12T08:12:04Z</time>
      </trkpt>
      <trkpt lat="47.17671" lon="-1.63778">
        <ele>1.72</ele>
        <time>2019-05-12T08:12:06Z</time>
      </trkpt>
      <trkpt lat="47.17677" lon="-1.63767">
        <ele>1.79</ele>
        <time>2019-05-12T08:12:08Z</time>
      </trkpt>
      <trkpt lat="47.17681" lon="-1.63751">
        <ele>1.75</ele>
        <time>2019-05-12T08:12:11Z</time>
      </trkpt>
      <trkpt lat="47.17688" lon="-1.63743">
        <ele>2.04</ele>
        <time>2019-05-12T08:12:19Z</time>
      </trkpt>
      <trkpt lat="47.17694" lon="-1.63732">
        <ele>4.66</ele>
        <time>2019-05-12T08:12:35Z</time>
      </trkpt>
      <trkpt lat="47.17703" lon="-1.63727">
        <ele>4.68</ele>
        <time>2019-05-12T08:12:47Z</time>
      </trkpt>
      <trkpt lat="47.1771" lon="-1.6371">
        <ele>5.12</ele>
        <time>2019-05-12T08:12:52Z</time>
      </trkpt>
      <trkpt lat="47.17716" lon="-1.637">
        <ele>5.12</ele>
        <time>2019-05-12T08:12:54Z</time>
      </trkpt>
      <trkpt lat="47.17724" lon="-1.63688">
        <ele>9.29</ele>
        <time>2019-05-12T08:14:41Z</time>
      </trkpt>
      <trkpt lat="47.1773" lon="-1.63676">
        <ele>10.08</ele>
        <time>2019-05-12T08:14:45Z</time>
      </trkpt>
      <trkpt lat="47.17732" lon="-1.6366">
        <ele>10.09</ele>
        <time>2019-05-12T08:14:48Z</time>
      </trkpt>
      <trkpt lat="47.17735" lon="-1.63646">
        <ele>9.93</ele>
        <time>2019-05-12T08:14:51Z</time>
      </trkpt>
      <trkpt lat="47.17741" lon="-1.63636">
        <ele>9.92</ele>
        <time>2019-05-12T08:14:53Z</time>
      </trkpt>
      <trkpt lat="47.17748" lon="-1.63624">
        <ele>10.01</ele>
        <time>2019-05-12T08:14:55Z</time>
      </trkpt>
      <trkpt lat="47.17756" lon="-1.63616">
        <ele>10.05</ele>
        <time>2019-05-12T08:14:57Z</time>
      </trkpt>
      <trkpt lat="47.17765" lon="-1.63608">
        <ele>9.76</ele>
        <time>2019-05-12T08:14:59Z</time>
      </trkpt>
      <trkpt lat="47.17774" lon="-1.63603">
        <ele>10.04</ele>
        <time>2019-05-12T08:15:01Z</time>
      </trkpt>
      <trkpt lat="47.17785" lon="-1.63601">
        <ele>10.16</ele>
        <time>2019-05-12T08:15:04Z</time>
      </trkpt>
      <trkpt lat="47.17795" lon="-1.63608">
        <ele>10.48</ele>
        <time>2019-05-12T08:15:08Z</time>
      </trkpt>
      <trkpt lat="47.17794" lon="-1.63626">
        <ele>10.61</ele>
        <time>2019-05-12T08:15:11Z</time>
      </trkpt>
      <trkpt lat="47.17794" lon="-1.63641">
        <ele>10.67</ele>
        <time>2019-05-12T08:15:14Z</time>
      </trkpt>
      <trkpt lat="47.17802" lon="-1.63655">
        <ele>10.87</ele>
        <time>2019-05-12T08:15:18Z</time>
      </trkpt>
      <trkpt lat="47.17809" lon="-1.63665">
        <ele>10.97</ele>
        <time>2019-05-12T08:15:21Z</time>
      </trkpt>
      <trkpt lat="47.17821" lon="-1.6367">
        <ele>10.77</ele>
        <time>2019-05-12T08:15:24Z</time>
      </trkpt>
      <trkpt lat="47.17829" lon="-1.63665">
        <ele>9.83</ele>
        <time>2019-05-12T08:15:26Z</time>
      </trkpt>
      <trkpt lat="47.17843" lon="-1.63669">
        <ele>8.61</ele>
        <time>2019-05-12T08:15:29Z</time>
      </trkpt>
      <trkpt lat="47.17853" lon="-1.63672">
        <ele>6.79</ele>
        <time>2019-05-12T08:15:31Z</time>
      </trkpt>
      <trkpt lat="47.17863" lon="-1.63671">
        <ele>6.3</ele>
        <time>2019-05-12T08:15:33Z</time>
      </trkpt>
      <trkpt lat="47.17873" lon="-1.63661">
        <ele>6.86</ele>
        <time>2019-05-12T08:15:36Z</time>
      </trkpt>
      <trkpt lat="47.17881" lon="-1.63651">
        <ele>6.64</ele>
        <time>2019-05-12T08:15:38Z</time>
      </trkpt>
      <trkpt lat="47.17891" lon="-1.63639">
        <ele>4.53</ele>
        <time>2019-05-12T08:15:40Z</time>
      </trkpt>
      <trkpt lat="47.17901" lon="-1.6363">
        <ele>1.56</ele>
        <time>2019-05-12T08:15:43Z</time>
      </trkpt>
      <trkpt lat="47.1791" lon="-1.6363">
        <ele>1.21</ele>
        <time>2019-05-12T08:15:48Z</time>
      </trkpt>
      <trkpt lat="47.1792" lon="-1.6364">
        <ele>1.44</ele>
        <time>2019-05-12T08:15:55Z</time>
      </trkpt>
      <trkpt lat="47.17928" lon="-1.63652">
        <ele>2.29</ele>
        <time>2019-05-12T08:15:57Z</time>
      </trkpt>
      <trkpt lat="47.17937" lon="-1.63666">
        <ele>4.57</ele>
        <time>2019-05-12T08:15:59Z</time>
      </trkpt>
      <trkpt lat="47.17945" lon="-1.63681">
        <ele>6.17</ele>
        <time>2019-05-12T08:16:01Z</time>
      </trkpt>
      <trkpt lat="47.17953" lon="-1.63695">
        <ele>6.36</ele>
        <time>2019-05-12T08:16:03Z</time>
      </trkpt>
      <trkpt lat="47.1796" lon="-1.63708">
        <ele>7.4</ele>
        <time>2019-05-12T08:16:05Z</time>
      </trkpt>
      <trkpt lat="47.17967" lon="-1.63723">
        <ele>8.2</ele>
        <time>2019-05-12T08:16:07Z</time>
      </trkpt>
      <trkpt lat="47.17969" lon="-1.63736">
        <ele>8.71</ele>
        <time>2019-05-12T08:16:09Z</time>
      </trkpt>
      <trkpt lat="47.17975" lon="-1.63749">
        <ele>9.15</ele>
        <time>2019-05-12T08:16:13Z</time>
      </trkpt>
      <trkpt lat="47.1798" lon="-1.63761">
        <ele>9.27</ele>
        <time>2019-05-12T08:16:16Z</time>
      </trkpt>
      <trkpt lat="47.17982" lon="-1.63775">
        <ele>9.32</ele>
        <time>2019-05-12T08:16:24Z</time>
      </trkpt>
      <trkpt lat="47.17988" lon="-1.63792">
        <ele>9.49</ele>
        <time>2019-05-12T08:16:28Z</time>
      </trkpt>
      <trkpt lat="47.17992" lon="-1.63805">
        <ele>9.72</ele>
        <time>2019-05-12T08:16:31Z</time>
      </trkpt>
      <trkpt lat="47.17997" lon="-1.63819">
        <ele>9.99</ele>
        <time>2019-05-12T08:16:35Z</time>
      </trkpt>
      <trkpt lat="47.18004" lon="-1.6383">
        <ele>10.61</ele>
        <time>2019-05-12T08:16:38Z</time>
      </trkpt>
      <trkpt lat="47.18012" lon="-1.63842">
        <ele>11.31</ele>
        <time>2019-05-12T08:16:42Z</time>
      </trkpt>
      <trkpt lat="47.18019" lon="-1.63856">
        <ele>11.75</ele>
        <time>2019-05-12T08:16:45Z</time>
      </trkpt>
      <trkpt lat="47.18026" lon="-1.63867">
        <ele>12.05</ele>
        <time>2019-05-12T08:16:48Z</time>
      </trkpt>
      <trkpt lat="47.18033" lon="-1.63878">
        <ele>12.39</ele>
        <time>2019-05-12T08:16:51Z</time>
      </trkpt>
      <trkpt lat="47.18039" lon="-1.6389">
        <ele>12.99</ele>
        <time>2019-05-12T08:16:54Z</time>
      </trkpt>
      <trkpt lat="47.18045" lon="-1.63902">
        <ele>13.46</ele>
        <time>2019-05-12T08:16:57Z</time>
      </trkpt>
      <trkpt lat="47.18053" lon="-1.63916">
        <ele>13.79</ele>
        <time>2019-05-12T08:17:01Z</time>
      </trkpt>
      <trkpt lat="47.18059" lon="-1.63931">
        <ele>14.16</ele>
        <time>2019-05-12T08:17:04Z</time>
      </trkpt>
      <trkpt lat="47.18064" lon="-1.63942">
        <ele>14.44</ele>
        <time>2019-05-12T08:17:06Z</time>
      </trkpt>
      <trkpt lat="47.18068" lon="-1.63958">
        <ele>15.01</ele>
        <time>2019-05-12T08:17:09Z</time>
      </trkpt>
      <trkpt lat="47.18074" lon="-1.63975">
        <ele>15.55</ele>
        <time>2019-05-12T08:17:12Z</time>
      </trkpt>
      <trkpt lat="47.18079" lon="-1.63989">
        <ele>16.39</ele>
        <time>2019-05-12T08:17:17Z</time>
      </trkpt>
      <trkpt lat="47.18085" lon="-1.64003">
        <ele>16.96</ele>
        <time>2019-05-12T08:17:21Z</time>
      </trkpt>
      <trkpt lat="47.18089" lon="-1.64016">
        <ele>17.2</ele>
        <time>2019-05-12T08:17:24Z</time>
      </trkpt>
      <trkpt lat="47.18095" lon="-1.6403">
        <ele>17.45</ele>
        <time>2019-05-12T08:17:28Z</time>
      </trkpt>
      <trkpt lat="47.18099" lon="-1.64042">
        <ele>17.95</ele>
        <time>2019-05-12T08:17:31Z</time>
      </trkpt>
      <trkpt lat="47.18102" lon="-1.64058">
        <ele>18.54</ele>
        <time>2019-05-12T08:17:34Z</time>
      </trkpt>
      <trkpt lat="47.18105" lon="-1.64072">
        <ele>18.86</ele>
        <time>2019-05-12T08:17:36Z</time>
      </trkpt>
      <trkpt lat="47.18108" lon="-1.64089">
        <ele>19.04</ele>
        <time>2019-05-12T08:17:38Z</time>
      </trkpt>
      <trkpt lat="47.18113" lon="-1.64103">
        <ele>19.51</ele>
        <time>2019-05-12T08:17:42Z</time>
      </trkpt>
      <trkpt lat="47.18122" lon="-1.64106">
        <ele>19.74</ele>
        <time>2019-05-12T08:17:46Z</time>
      </trkpt>
      <trkpt lat="47.18131" lon="-1.64116">
        <ele>19.76</ele>
        <time>2019-05-12T08:17:48Z</time>
      </trkpt>
      <trkpt lat="47.18137" lon="-1.64127">
        <ele>19.86</ele>
        <time>2019-05-12T08:17:51Z</time>
      </trkpt>
      <trkpt lat="47.18141" lon="-1.64142">
        <ele>19.91</ele>
        <time>2019-05-12T08:17:54Z</time>
      </trkpt>
      <trkpt lat="47.18145" lon="-1.64156">
        <ele>19.97</ele>
        <time>2019-05-12T08:17:57Z</time>
      </trkpt>
      <trkpt lat="47.18149" lon="-1.64172">
        <ele>20.07</ele>
        <time>2019-05-12T08:18:02Z</time>
      </trkpt>
      <trkpt lat="47.18154" lon="-1.64189">
        <ele>20.54</ele>
        <time>2019-05-12T08:18:05Z</time>
      </trkpt>
      <trkpt lat="47.18156" lon="-1.64202">
        <ele>21.01</ele>
        <time>2019-05-12T08:18:08Z</time>
      </trkpt>
      <trkpt lat="47.1816" lon="-1.64216">
        <ele>21.79</ele>
        <time>2019-05-12T08:18:12Z</time>
      </trkpt>
      <trkpt lat="47.18163" lon="-1.64229">
        <ele>22.62</ele>
        <time>2019-05-12T08:18:16Z</time>
      </trkpt>
      <trkpt lat="47.18166" lon="-1.64241">
        <ele>23.39</ele>
        <time>2019-05-12T08:18:19Z</time>
      </trkpt>
      <trkpt lat="47.18169" lon="-1.64255">
        <ele>24.12</ele>
        <time>2019-05-12T08:18:22Z</time>
      </trkpt>
      <trkpt lat="47.18173" lon="-1.64269">
        <ele>24.81</ele>
        <time>2019-05-12T08:18:25Z</time>
      </trkpt>
      <trkpt lat="47.18178" lon="-1.64287">
        <ele>25.46</ele>
        <time>2019-05-12T08:18:28Z</time>
      </trkpt>
      <trkpt lat="47.18182" lon="-1.64301">
        <ele>25.77</ele>
        <time>2019-05-12T08:18:30Z</time>
      </trkpt>
      <trkpt lat="47.18187" lon="-1.64316">
        <ele>26.16</ele>
        <time>2019-05-12T08:18:33Z</time>
      </trkpt>
      <trkpt lat="47.18192" lon="-1.64331">
        <ele>26.36</ele>
        <time>2019-05-12T08:18:36Z</time>
      </trkpt>
      <trkpt lat="47.18198" lon="-1.64347">
        <ele>26.58</ele>
        <time>2019-05-12T08:18:40Z</time>
      </trkpt>
      <trkpt lat="47.18201" lon="-1.6436">
        <ele>26.86</ele>
        <time>2019-05-12T08:18:43Z</time>
      </trkpt>
      <trkpt lat="47.18205" lon="-1.64375">
        <ele>27.93</ele>
        <time>2019-05-12T08:18:50Z</time>
      </trkpt>
      <trkpt lat="47.18212" lon="-1.64388">
        <ele>28.29</ele>
        <time>2019-05-12T08:18:53Z</time>
      </trkpt>
      <trkpt lat="47.18219" lon="-1.644">
        <ele>28.42</ele>
        <time>2019-05-12T08:18:55Z</time>
      </trkpt>
      <trkpt lat="47.18225" lon="-1.64411">
        <ele>28.55</ele>
        <time>2019-05-12T08:18:57Z</time>
      </trkpt>
      <trkpt lat="47.1823" lon="-1.64422">
        <ele>28.61</ele>
        <time>2019-05-12T08:19:00Z</time>
      </trkpt>
      <trkpt lat="47.18235" lon="-1.64437">
        <ele>28.8</ele>
        <time>2019-05-12T08:19:03Z</time>
      </trkpt>
      <trkpt lat="47.18238" lon="-1.64454">
        <ele>29.16</ele>
        <time>2019-05-12T08:19:07Z</time>
      </trkpt>
      <trkpt lat="47.18239" lon="-1.64472">
        <ele>29.22</ele>
        <time>2019-05-12T08:19:10Z</time>
      </trkpt>
      <trkpt lat="47.1824" lon="-1.64491">
        <ele>29.01</ele>
        <time>2019-05-12T08:19:13Z</time>
      </trkpt>
      <trkpt lat="47.18243" lon="-1.64506">
        <ele>29.21</ele>
        <time>2019-05-12T08:19:16Z</time>
      </trkpt>
      <trkpt lat="47.18251" lon="-1.6452">
        <ele>29.23</ele>
        <time>2019-05-12T08:19:19Z</time>
      </trkpt>
      <trkpt lat="47.18256" lon="-1.64532">
        <ele>29.13</ele>
        <time>2019-05-12T08:19:21Z</time>
      </trkpt>
      <trkpt lat="47.18259" lon="-1.64548">
        <ele>28.85</ele>
        <time>2019-05-12T08:19:24Z</time>
      </trkpt>
      <trkpt lat="47.1826" lon="-1.64565">
        <ele>28.57</ele>
        <time>2019-05-12T08:19:27Z</time>
      </trkpt>
      <trkpt lat="47.18262" lon="-1.64581">
        <ele>28.37</ele>
        <time>2019-05-12T08:19:30Z</time>
      </trkpt>
      <trkpt lat="47.18262" lon="-1.64595">
        <ele>28.41</ele>
        <time>2019-05-12T08:19:33Z</time>
      </trkpt>
      <trkpt lat="47.18267" lon="-1.6461">
        <ele>28.29</ele>
        <time>2019-05-12T08:19:37Z</time>
      </trkpt>
      <trkpt lat="47.18273" lon="-1.64625">
        <ele>28.21</ele>
        <time>2019-05-12T08:19:40Z</time>
      </trkpt>
      <trkpt lat="47.18279" lon="-1.64636">
        <ele>28.33</ele>
        <time>2019-05-12T08:19:43Z</time>
      </trkpt>
      <trkpt lat="47.18285" lon="-1.64652">
        <ele>28.4</ele>
        <time>2019-05-12T08:19:46Z</time>
      </trkpt>
      <trkpt lat="47.18285" lon="-1.64666">
        <ele>28.42</ele>
        <time>2019-05-12T08:19:48Z</time>
      </trkpt>
      <trkpt lat="47.18281" lon="-1.64678">
        <ele>28.41</ele>
        <time>2019-05-12T08:19:51Z</time>
      </trkpt>
      <trkpt lat="47.18289" lon="-1.64684">
        <ele>28.67</ele>
        <time>2019-05-12T08:20:17Z</time>
      </trkpt>
      <trkpt lat="47.18298" lon="-1.64682">
        <ele>27.24</ele>
        <time>2019-05-12T08:20:30Z</time>
      </trkpt>
      <trkpt lat="47.18305" lon="-1.64694">
        <ele>23.01</ele>
        <time>2019-05-12T08:20:56Z</time>
      </trkpt>
      <trkpt lat="47.18313" lon="-1.647">
        <ele>20.54</ele>
        <time>2019-05-12T08:21:05Z</time>
      </trkpt>
      <trkpt lat="47.1832" lon="-1.64692">
        <ele>18.33</ele>
        <time>2019-05-12T08:21:18Z</time>
      </trkpt>
      <trkpt lat="47.1833" lon="-1.64695">
        <ele>16.95</ele>
        <time>2019-05-12T08:21:46Z</time>
      </trkpt>
      <trkpt lat="47.18341" lon="-1.64693">
        <ele>17.21</ele>
        <time>2019-05-12T08:21:50Z</time>
      </trkpt>
      <trkpt lat="47.18351" lon="-1.64694">
        <ele>17.21</ele>
        <time>2019-05-12T08:21:52Z</time>
      </trkpt>
      <trkpt lat="47.18362" lon="-1.64699">
        <ele>16.52</ele>
        <time>2019-05-12T08:21:57Z</time>
      </trkpt>
      <trkpt lat="47.1837" lon="-1.64711">
        <ele>16.18</ele>
        <time>2019-05-12T08:22:01Z</time>
      </trkpt>
      <trkpt lat="47.18376" lon="-1.64723">
        <ele>15.87</ele>
        <time>2019-05-12T08:22:04Z</time>
      </trkpt>
      <trkpt lat="47.1838" lon="-1.64734">
        <ele>15.6</ele>
        <time>2019-05-12T08:22:07Z</time>
      </trkpt>
      <trkpt lat="47.18384" lon="-1.64747">
        <ele>15.41</ele>
        <time>2019-05-12T08:22:10Z</time>
      </trkpt>
      <trkpt lat="47.18391" lon="-1.64758">
        <ele>15.34</ele>
        <time>2019-05-12T08:22:13Z</time>
      </trkpt>
      <trkpt lat="47.184" lon="-1.64768">
        <ele>15.13</ele>
        <time>2019-05-12T08:22:16Z</time>
      </trkpt>
      <trkpt lat="47.18404" lon="-1.64782">
        <ele>15.08</ele>
        <time>2019-05-12T08:22:20Z</time>
      </trkpt>
      <trkpt lat="47.1841" lon="-1.64798">
        <ele>14.8</ele>
        <time>2019-05-12T08:22:23Z</time>
      </trkpt>
      <trkpt lat="47.18415" lon="-1.64812">
        <ele>14.49</ele>
        <time>2019-05-12T08:22:26Z</time>
      </trkpt>
      <trkpt lat="47.1842" lon="-1.64824">
        <ele>14.23</ele>
        <time>2019-05-12T08:22:29Z</time>
      </trkpt>
      <trkpt lat="47.18422" lon="-1.64841">
        <ele>13.77</ele>
        <time>2019-05-12T08:22:32Z</time>
      </trkpt>
      <trkpt lat="47.18421" lon="-1.64855">
        <ele>13.2</ele>
        <time>2019-05-12T08:22:35Z</time>
      </trkpt>
      <trkpt lat="47.18421" lon="-1.64869">
        <ele>12.64</ele>
        <time>2019-05-12T08:22:38Z</time>
      </trkpt>
      <trkpt lat="47.18419" lon="-1.64883">
        <ele>12.25</ele>
        <time>2019-05-12T08:22:43Z</time>
      </trkpt>
      <trkpt lat="47.18418" lon="-1.64899">
        <ele>11.68</ele>
        <time>2019-05-12T08:22:49Z</time>
      </trkpt>
      <trkpt lat="47.18416" lon="-1.64916">
        <ele>11.49</ele>
        <time>2019-05-12T08:22:54Z</time>
      </trkpt>
      <trkpt lat="47.18414" lon="-1.64929">
        <ele>11.4</ele>
        <time>2019-05-12T08:22:57Z</time>
      </trkpt>
      <trkpt lat="47.18412" lon="-1.64948">
        <ele>11.43</ele>
        <time>2019-05-12T08:23:00Z</time>
      </trkpt>
      <trkpt lat="47.18407" lon="-1.6496">
        <ele>11.25</ele>
        <time>2019-05-12T08:23:02Z</time>
      </trkpt>
      <trkpt lat="47.184" lon="-1.64976">
        <ele>11.17</ele>
        <time>2019-05-12T08:23:05Z</time>
      </trkpt>
      <trkpt lat="47.18395" lon="-1.6499">
        <ele>11.31</ele>
        <time>2019-05-12T08:23:08Z</time>
      </trkpt>
      <trkpt lat="47.18389" lon="-1.65004">
        <ele>11.44</ele>
        <time>2019-05-12T08:23:11Z</time>
      </trkpt>
      <trkpt lat="47.18383" lon="-1.65019">
        <ele>11.49</ele>
        <time>2019-05-12T08:23:14Z</time>
      </trkpt>
      <trkpt lat="47.18377" lon="-1.6503">
        <ele>11.51</ele>
        <time>2019-05-12T08:23:18Z</time>
      </trkpt>
      <trkpt lat="47.18375" lon="-1.65046">
        <ele>11.76</ele>
        <time>2019-05-12T08:23:24Z</time>
      </trkpt>
      <trkpt lat="47.18372" lon="-1.65058">
        <ele>10.78</ele>
        <time>2019-05-12T08:23:46Z</time>
      </trkpt>
      <trkpt lat="47.18376" lon="-1.65073">
        <ele>10.55</ele>
        <time>2019-05-12T08:23:52Z</time>
      </trkpt>
      <trkpt lat="47.18387" lon="-1.65078">
        <ele>10.23</ele>
        <time>2019-05-12T08:23:57Z</time>
      </trkpt>
      <trkpt lat="47.18395" lon="-1.65082">
        <ele>10.18</ele>
        <time>2019-05-12T08:24:01Z</time>
      </trkpt>
      <trkpt lat="47.18405" lon="-1.65089">
        <ele>10.31</ele>
        <time>2019-05-12T08:24:09Z</time>
      </trkpt>
      <trkpt lat="47.18413" lon="-1.65099">
        <ele>10.43</ele>
        <time>2019-05-12T08:24:12Z</time>
      </trkpt>
      <trkpt lat="47.1842" lon="-1.65112">
        <ele>10.45</ele>
        <time>2019-05-12T08:24:15Z</time>
      </trkpt>
      <trkpt lat="47.18425" lon="-1.6513">
        <ele>10.2</ele>
        <time>2019-05-12T08:24:18Z</time>
      </trkpt>
      <trkpt lat="47.18429" lon="-1.65143">
        <ele>9.92</ele>
        <time>2019-05-12T08:24:20Z</time>
      </trkpt>
      <trkpt lat="47.18432" lon="-1.65156">
        <ele>9.24</ele>
        <time>2019-05-12T08:24:22Z</time>
      </trkpt>
      <trkpt lat="47.18434" lon="-1.65172">
        <ele>9.22</ele>
        <time>2019-05-12T08:24:25Z</time>
      </trkpt>
      <trkpt lat="47.18435" lon="-1.65188">
        <ele>9.13</ele>
        <time>2019-05-12T08:24:28Z</time>
      </trkpt>
      <trkpt lat="47.18439" lon="-1.65203">
        <ele>9.08</ele>
        <time>2019-05-12T08:24:31Z</time>
      </trkpt>
      <trkpt lat="47.18443" lon="-1.65216">
        <ele>9.13</ele>
        <time>2019-05-12T08:24:33Z</time>
      </trkpt>
      <trkpt lat="47.18448" lon="-1.65229">
        <ele>9.15</ele>
        <time>2019-05-12T08:24:36Z</time>
      </trkpt>
      <trkpt lat="47.18454" lon="-1.65243">
        <ele>9.07</ele>
        <time>2019-05-12T08:24:39Z</time>
      </trkpt>
      <trkpt lat="47.18458" lon="-1.65256">
        <ele>8.88</ele>
        <time>2019-05-12T08:24:43Z</time>
      </trkpt>
      <trkpt lat="47.1846" lon="-1.65271">
        <ele>8.73</ele>
        <time>2019-05-12T08:24:46Z</time>
      </trkpt>
      <trkpt lat="47.18461" lon="-1.65289">
        <ele>8.63</ele>
        <time>2019-05-12T08:24:50Z</time>
      </trkpt>
      <trkpt lat="47.18462" lon="-1.65304">
        <ele>8.54</ele>
        <time>2019-05-12T08:24:53Z</time>
      </trkpt>
      <trkpt lat="47.18462" lon="-1.65321">
        <ele>8.61</ele>
        <time>2019-05-12T08:24:56Z</time>
      </trkpt>
      <trkpt lat="47.18461" lon="-1.65338">
        <ele>8.72</ele>
        <time>2019-05-12T08:25:00Z</time>
      </trkpt>
      <trkpt lat="47.18462" lon="-1.65358">
        <ele>8.92</ele>
        <time>2019-05-12T08:25:03Z</time>
      </trkpt>
      <trkpt lat="47.18465" lon="-1.65371">
        <ele>9.01</ele>
        <time>2019-05-12T08:25:06Z</time>
      </trkpt>
      <trkpt lat="47.18468" lon="-1.65384">
        <ele>8.92</ele>
        <time>2019-05-12T08:25:09Z</time>
      </trkpt>
      <trkpt lat="47.18469" lon="-1.654">
        <ele>9.12</ele>
        <time>2019-05-12T08:25:12Z</time>
      </trkpt>
      <trkpt lat="47.18468" lon="-1.65415">
        <ele>9.31</ele>
        <time>2019-05-12T08:25:16Z</time>
      </trkpt>
      <trkpt lat="47.18466" lon="-1.65429">
        <ele>9.65</ele>
        <time>2019-05-12T08:25:20Z</time>
      </trkpt>
      <trkpt lat="47.1846" lon="-1.65443">
        <ele>10.07</ele>
        <time>2019-05-12T08:25:25Z</time>
      </trkpt>
      <trkpt lat="47.18455" lon="-1.65457">
        <ele>10.25</ele>
        <time>2019-05-12T08:25:30Z</time>
      </trkpt>
      <trkpt lat="47.18453" lon="-1.65472">
        <ele>10.54</ele>
        <time>2019-05-12T08:25:34Z</time>
      </trkpt>
      <trkpt lat="47.18461" lon="-1.65478">
        <ele>9.41</ele>
        <time>2019-05-12T08:25:50Z</time>
      </trkpt>
      <trkpt lat="47.18471" lon="-1.65483">
        <ele>8.73</ele>
        <time>2019-05-12T08:25:58Z</time>
      </trkpt>
      <trkpt lat="47.1848" lon="-1.65489">
        <ele>8.47</ele>
        <time>2019-05-12T08:26:06Z</time>
      </trkpt>
    </trkseg>
  </trk>
</gpx>